Darstellungsparameter: Aktuell verwendete Einstellungen:
Skalierung der Graphiken ... ?
xyx+y,   Skalierungsfaktor:      Skalierung: Modus: x, Faktor: 1
Darstellungszeitraum ... ?
Vom - - bis: - -   Zeitraum: 30.12.2003 - 29.06.2004
Min/Max/Avg-Anzeige ... ?
Zeige MMA aktuell
Zeige MMA Monat
Zeige MMA alles
Zeige --A aktuell
Zeige --A Monat
Zeige --A alles
Keine MMA-Anzeige
MMA:
Keine MMA-Graphiken
MMA-Basis: 30.12.2003 - 29.06.2004
Quicknavigation für Darstellung... ?
Tage:      1T, 2T, 3T, 5T -1T -2T -3T -5T +1T +2T +3T +5T
Wochen: 1W, 2W, 3W -1W -2W -3W +1W +2W +3W
Monate: 1M, 3M, 6M -1M -3M -6M +1M +3M +6M
Jahre:    1J, 3J, 5J, 10J -1J -3J -5J -10J +1J +3J +5J +10J
Nutze für die Darstellung ... ?
Originaldaten oder Mittelwerte auf ...
Stundenbasis Tagesbasis Wochenbasis
Monatsbasis Jahresbasis      Datenbasis: Original-Daten
Darstellen als:
Statistik (Auto) Statistik J:M      Darstellung:
Zur Graphik,    zurück zur Übersicht aller Sensoren.
 
Tabellarische Datenbersicht: ?
 
Sensor: Nr:Datum:Temp:Abs-Feuchte:Windchill:Wind:
Aussen-T/F 1 30-12-2003 00:09:00 -1.4 C 3.56 g/m*3 -1.4 C 0 km/h
2 30-12-2003 00:21:00 -1.3 C 3.59 g/m*3 -1.3 C 0 km/h
3 30-12-2003 00:33:01 -1.2 C 3.66 g/m*3 -1.2 C 0 km/h
4 30-12-2003 00:45:01 -1.1 C 3.68 g/m*3 -1.1 C 0 km/h
5 30-12-2003 00:57:01 -1.1 C 3.68 g/m*3 -1.1 C 0 km/h
6 30-12-2003 01:09:00 -1.1 C 3.68 g/m*3 -1.1 C 0 km/h
7 30-12-2003 01:21:00 -1.1 C 3.68 g/m*3 -1.1 C 0 km/h
8 30-12-2003 01:33:01 -1.1 C 3.68 g/m*3 -1.1 C 0 km/h
9 30-12-2003 01:45:01 -1.2 C 3.61 g/m*3 -1.2 C 0 km/h
10 30-12-2003 01:57:01 -1.2 C 3.61 g/m*3 -1.2 C 0 km/h
11 30-12-2003 02:09:00 -1.1 C 3.64 g/m*3 -1.1 C 0 km/h
12 30-12-2003 02:21:00 -1.1 C 3.68 g/m*3 -1.1 C 0 km/h
13 30-12-2003 02:33:00 -1.2 C 3.66 g/m*3 -1.2 C 0 km/h
14 30-12-2003 02:45:00 -1.3 C 3.63 g/m*3 -1.3 C 0 km/h
15 30-12-2003 02:57:00 -1.3 C 3.63 g/m*3 -1.3 C 0 km/h
16 30-12-2003 03:10:01 -1.4 C 3.6 g/m*3 -1.4 C 0 km/h
17 30-12-2003 03:22:01 -1.5 C 3.58 g/m*3 -1.5 C 0 km/h
18 30-12-2003 03:33:01 -1.6 C 3.55 g/m*3 -1.6 C 0 km/h
19 30-12-2003 03:45:01 -1.7 C 3.53 g/m*3 -1.7 C 0 km/h
20 30-12-2003 03:57:01 -1.7 C 3.57 g/m*3 -1.7 C 0 km/h
21 30-12-2003 04:09:00 -1.8 C 3.55 g/m*3 -1.8 C 0 km/h
22 30-12-2003 04:21:00 -1.8 C 3.55 g/m*3 -1.8 C 0 km/h
23 30-12-2003 04:33:00 -2 C 3.5 g/m*3 -2 C 0 km/h
24 30-12-2003 04:45:00 -2 C 3.5 g/m*3 -2 C 0 km/h
25 30-12-2003 04:57:00 -2.1 C 3.47 g/m*3 -2.1 C 0 km/h
Sensor: Nr:Datum:Temp:Abs-Feuchte:Windchill:Wind:
Aussen-T/F 26 30-12-2003 05:10:01 -2 C 3.5 g/m*3 -2 C 0 km/h
27 30-12-2003 05:22:01 -2.1 C 3.52 g/m*3 -2.1 C 0 km/h
28 30-12-2003 05:33:01 -2 C 3.54 g/m*3 -2 C 0 km/h
29 30-12-2003 05:45:01 -1.9 C 3.57 g/m*3 -1.9 C 0 km/h
30 30-12-2003 05:57:01 -2 C 3.54 g/m*3 -2 C 0 km/h
31 30-12-2003 06:09:00 -1.9 C 3.57 g/m*3 -1.9 C 0 km/h
32 30-12-2003 06:21:00 -2.1 C 3.52 g/m*3 -2.1 C 0 km/h
33 30-12-2003 06:33:01 -2.2 C 3.49 g/m*3 -2.2 C 0 km/h
34 30-12-2003 06:45:01 -2.1 C 3.52 g/m*3 -2.1 C 0 km/h
35 30-12-2003 06:57:01 -2.3 C 3.47 g/m*3 -2.3 C 0 km/h
36 30-12-2003 07:09:00 -2.2 C 3.49 g/m*3 -2.2 C 0 km/h
37 30-12-2003 07:21:00 -2.4 C 3.44 g/m*3 -2.4 C 0 km/h
38 30-12-2003 07:33:00 -2.4 C 3.44 g/m*3 -2.4 C 0 km/h
39 30-12-2003 07:45:00 -2.6 C 3.39 g/m*3 -2.6 C 0 km/h
40 30-12-2003 07:57:00 -2.8 C 3.35 g/m*3 -2.8 C 0 km/h
41 30-12-2003 08:10:01 -2.8 C 3.35 g/m*3 -2.8 C 0 km/h
42 30-12-2003 08:22:01 -2.8 C 3.35 g/m*3 -2.8 C 0 km/h
43 30-12-2003 08:33:00 -2.8 C 3.35 g/m*3 -2.8 C 0 km/h
44 30-12-2003 08:45:01 -2.8 C 3.39 g/m*3 -2.8 C 0 km/h
45 30-12-2003 08:57:01 -2.7 C 3.41 g/m*3 -2.7 C 0 km/h
46 30-12-2003 09:09:00 -2.5 C 3.46 g/m*3 -2.5 C 0 km/h
47 30-12-2003 09:21:00 -2.2 C 3.53 g/m*3 -2.2 C 0 km/h
48 30-12-2003 09:33:00 -2.1 C 3.6 g/m*3 -2.1 C 0 km/h
49 30-12-2003 09:45:00 -1.8 C 3.68 g/m*3 -1.8 C 0 km/h
50 30-12-2003 09:57:00 -1.4 C 3.78 g/m*3 -1.4 C 0 km/h
Sensor: Nr:Datum:Temp:Abs-Feuchte:Windchill:Wind:
Aussen-T/F 51 30-12-2003 10:10:00 -1.2 C 3.79 g/m*3 -1.2 C 0 km/h
52 30-12-2003 10:22:00 -1 C 3.89 g/m*3 -1 C 0 km/h
53 30-12-2003 10:33:01 -0.7 C 3.92 g/m*3 -0.7 C 0 km/h
54 30-12-2003 10:45:01 -0.7 C 3.92 g/m*3 -0.7 C 0 km/h
55 30-12-2003 10:57:01 -0.7 C 3.92 g/m*3 -0.7 C 0 km/h
56 30-12-2003 11:09:00 -0.6 C 3.95 g/m*3 -0.6 C 0 km/h
57 30-12-2003 11:21:00 -0.6 C 3.95 g/m*3 -0.6 C 0 km/h
58 30-12-2003 11:33:01 -0.4 C 4.01 g/m*3 -0.4 C 0 km/h
59 30-12-2003 11:45:01 -0.4 C 4.01 g/m*3 -0.4 C 0 km/h
60 30-12-2003 11:57:01 -0.1 C 4.04 g/m*3 -0.1 C 0 km/h
61 30-12-2003 12:09:01 -0.2 C 3.97 g/m*3 -0.2 C 0 km/h
62 30-12-2003 12:21:01 -0.2 C 3.97 g/m*3 -0.2 C 0 km/h
63 30-12-2003 12:33:01 -0.3 C 3.94 g/m*3 -0.3 C 0 km/h
64 30-12-2003 12:45:01 -0.4 C 3.91 g/m*3 -0.4 C 0 km/h
65 30-12-2003 12:57:01 -0.5 C 3.88 g/m*3 -0.5 C 0 km/h
66 30-12-2003 13:10:01 -0.5 C 3.88 g/m*3 -0.5 C 0 km/h
67 30-12-2003 13:22:01 -0.4 C 3.96 g/m*3 -0.4 C 0 km/h
68 30-12-2003 13:33:00 -0.5 C 3.93 g/m*3 -0.5 C 0 km/h
69 30-12-2003 13:45:00 -0.4 C 3.96 g/m*3 -0.4 C 0 km/h
70 30-12-2003 13:57:00 -0.4 C 3.91 g/m*3 -0.4 C 0 km/h
71 30-12-2003 14:09:01 -0.5 C 3.88 g/m*3 -0.5 C 0 km/h
72 30-12-2003 14:21:01 -0.6 C 3.86 g/m*3 -0.6 C 0 km/h
73 30-12-2003 14:33:00 -0.5 C 3.88 g/m*3 -0.5 C 0 km/h
74 30-12-2003 14:45:01 -0.4 C 3.91 g/m*3 -0.4 C 0 km/h
75 30-12-2003 14:57:01 -0.5 C 3.88 g/m*3 -0.5 C 0 km/h
Sensor: Nr:Datum:Temp:Abs-Feuchte:Windchill:Wind:
Aussen-T/F 76 30-12-2003 15:09:00 -0.4 C 3.91 g/m*3 -0.4 C 0 km/h
77 30-12-2003 15:21:00 -0.4 C 3.91 g/m*3 -0.4 C 0 km/h
78 30-12-2003 15:33:00 -0.4 C 3.86 g/m*3 -0.4 C 0 km/h
79 30-12-2003 15:45:01 -0.7 C 3.78 g/m*3 -0.7 C 0 km/h
80 30-12-2003 15:57:01 -0.4 C 3.86 g/m*3 -0.4 C 0 km/h
81 30-12-2003 16:09:00 -0.6 C 3.81 g/m*3 -0.6 C 0 km/h
82 30-12-2003 16:21:00 -0.6 C 3.81 g/m*3 -0.6 C 0 km/h
83 30-12-2003 16:33:00 -0.9 C 3.69 g/m*3 -0.9 C 0 km/h
84 30-12-2003 16:45:00 -1 C 3.66 g/m*3 -1 C 0 km/h
85 30-12-2003 16:57:00 -1.2 C 3.61 g/m*3 -1.2 C 0 km/h
86 30-12-2003 17:09:01 -1.2 C 3.66 g/m*3 -1.2 C 0 km/h
87 30-12-2003 17:21:01 -1.6 C 3.55 g/m*3 -1.6 C 0 km/h
88 30-12-2003 17:33:00 -1.5 C 3.58 g/m*3 -1.5 C 0 km/h
89 30-12-2003 17:45:00 -1.7 C 3.57 g/m*3 -1.7 C 0 km/h
90 30-12-2003 17:57:01 -1.9 C 3.52 g/m*3 -1.9 C 0 km/h
91 30-12-2003 18:09:00 -2 C 3.5 g/m*3 -2 C 0 km/h
92 30-12-2003 18:21:00 -1.9 C 3.57 g/m*3 -1.9 C 0 km/h
93 30-12-2003 18:33:00 -2 C 3.54 g/m*3 -2 C 0 km/h
94 30-12-2003 18:45:00 -2 C 3.54 g/m*3 -2 C 0 km/h
95 30-12-2003 18:57:00 -2.2 C 3.49 g/m*3 -2.2 C 0 km/h
96 30-12-2003 19:10:00 -2.2 C 3.49 g/m*3 -2.2 C 0 km/h
97 30-12-2003 19:22:01 -2.5 C 3.42 g/m*3 -2.5 C 0 km/h
98 30-12-2003 19:33:00 -2.4 C 3.44 g/m*3 -2.4 C 0 km/h
99 30-12-2003 19:45:01 -2.6 C 3.39 g/m*3 -2.6 C 0 km/h
100 30-12-2003 19:57:01 -2.5 C 3.42 g/m*3 -2.5 C 0 km/h
Sensor: Nr:Datum:Temp:Abs-Feuchte:Windchill:Wind:
Aussen-T/F 101 30-12-2003 20:09:00 -2.6 C 3.39 g/m*3 -2.6 C 0 km/h
102 30-12-2003 20:21:00 -2.6 C 3.39 g/m*3 -2.6 C 0 km/h
103 30-12-2003 20:33:01 -2.7 C 3.37 g/m*3 -2.7 C 0 km/h
104 30-12-2003 20:45:01 -2.9 C 3.32 g/m*3 -2.9 C 0 km/h
105 30-12-2003 20:57:01 -2.7 C 3.41 g/m*3 -2.7 C 0 km/h
106 30-12-2003 21:09:00 -2.8 C 3.39 g/m*3 -2.8 C 0 km/h
107 30-12-2003 21:21:00 -3 C 3.34 g/m*3 -3 C 0 km/h
108 30-12-2003 21:33:00 -3.1 C 3.32 g/m*3 -3.1 C 0 km/h
109 30-12-2003 21:45:00 -3.2 C 3.29 g/m*3 -3.2 C 0 km/h
110 30-12-2003 21:57:00 -3.4 C 3.25 g/m*3 -3.4 C 0 km/h
111 30-12-2003 22:10:01 -3.5 C 3.22 g/m*3 -3.5 C 0 km/h
112 30-12-2003 22:22:01 -3.4 C 3.25 g/m*3 -3.4 C 0 km/h
113 30-12-2003 22:33:01 -3.5 C 3.22 g/m*3 -3.5 C 0 km/h
114 30-12-2003 22:45:01 -3.6 C 3.2 g/m*3 -3.6 C 0 km/h
115 30-12-2003 22:57:01 -3.5 C 3.22 g/m*3 -3.5 C 0 km/h
116 30-12-2003 23:09:00 -3.4 C 3.28 g/m*3 -3.4 C 0 km/h
117 30-12-2003 23:21:00 -3.3 C 3.31 g/m*3 -3.3 C 0 km/h
118 30-12-2003 23:33:00 -3.3 C 3.31 g/m*3 -3.3 C 0 km/h
119 30-12-2003 23:45:00 -3.1 C 3.35 g/m*3 -3.1 C 0 km/h
120 30-12-2003 23:57:00 -3 C 3.42 g/m*3 -3 C 0 km/h
121 31-12-2003 00:11:29 -3 C 3.42 g/m*3 -3 C 0 km/h
122 31-12-2003 00:23:29 -2.5 C 3.54 g/m*3 -2.5 C 0 km/h
123 31-12-2003 00:35:29 -2.4 C 3.57 g/m*3 -2.4 C 0 km/h
124 31-12-2003 00:47:29 -2.5 C 3.54 g/m*3 -2.5 C 0 km/h
125 31-12-2003 00:59:29 -2.4 C 3.57 g/m*3 -2.4 C 0 km/h
Sensor: Nr:Datum:Temp:Abs-Feuchte:Windchill:Wind:
Aussen-T/F 126 31-12-2003 01:11:29 -2.4 C 3.57 g/m*3 -2.4 C 0 km/h
127 31-12-2003 01:23:29 -2.4 C 3.57 g/m*3 -2.4 C 0 km/h
128 31-12-2003 01:35:29 -2.2 C 3.62 g/m*3 -2.2 C 0 km/h
129 31-12-2003 01:47:29 -2.2 C 3.62 g/m*3 -2.2 C 0 km/h
130 31-12-2003 01:59:29 -2.1 C 3.64 g/m*3 -2.1 C 0 km/h
131 31-12-2003 02:11:29 -1.8 C 3.72 g/m*3 -1.8 C 0 km/h
132 31-12-2003 02:23:29 -1.8 C 3.72 g/m*3 -1.8 C 0 km/h
133 31-12-2003 02:35:29 -2 C 3.67 g/m*3 -2 C 0 km/h
134 31-12-2003 02:47:29 -1.9 C 3.69 g/m*3 -1.9 C 0 km/h
135 31-12-2003 02:59:29 -1.9 C 3.69 g/m*3 -1.9 C 0 km/h
136 31-12-2003 03:11:29 -1.9 C 3.69 g/m*3 -1.9 C 0 km/h
137 31-12-2003 03:23:29 -2 C 3.63 g/m*3 -2 C 0 km/h
138 31-12-2003 03:35:29 -2.1 C 3.6 g/m*3 -2.1 C 0 km/h
139 31-12-2003 03:47:29 -2 C 3.63 g/m*3 -2 C 0 km/h
140 31-12-2003 03:59:29 -1.9 C 3.65 g/m*3 -1.9 C 0 km/h
141 31-12-2003 04:11:29 -1.9 C 3.65 g/m*3 -1.9 C 0 km/h
142 31-12-2003 04:23:29 -1.9 C 3.65 g/m*3 -1.9 C 0 km/h
143 31-12-2003 04:35:29 -2 C 3.58 g/m*3 -2 C 0 km/h
144 31-12-2003 04:47:29 -2.1 C 3.56 g/m*3 -2.1 C 0 km/h
145 31-12-2003 04:59:29 -2.2 C 3.53 g/m*3 -2.2 C 0 km/h
146 31-12-2003 05:11:29 -2.4 C 3.48 g/m*3 -2.4 C 0 km/h
147 31-12-2003 05:23:29 -2.7 C 3.37 g/m*3 -2.7 C 0 km/h
148 31-12-2003 05:35:29 -2.8 C 3.35 g/m*3 -2.8 C 0 km/h
149 31-12-2003 05:47:29 -2.8 C 3.35 g/m*3 -2.8 C 0 km/h
150 31-12-2003 05:59:29 -2.8 C 3.35 g/m*3 -2.8 C 0 km/h
Sensor: Nr:Datum:Temp:Abs-Feuchte:Windchill:Wind:
Aussen-T/F 151 31-12-2003 06:11:29 -3 C 3.3 g/m*3 -3 C 0 km/h
152 31-12-2003 06:23:29 -3 C 3.34 g/m*3 -3 C 0 km/h
153 31-12-2003 06:35:29 -2.7 C 3.41 g/m*3 -2.7 C 0 km/h
154 31-12-2003 06:47:29 -2.7 C 3.41 g/m*3 -2.7 C 0 km/h
155 31-12-2003 06:59:29 -2.4 C 3.48 g/m*3 -2.4 C 0 km/h
156 31-12-2003 07:11:29 -2.3 C 3.47 g/m*3 -2.3 C 0 km/h
157 31-12-2003 07:23:29 -2.2 C 3.45 g/m*3 -2.2 C 0 km/h
158 31-12-2003 07:35:29 -2.5 C 3.34 g/m*3 -2.5 C 0 km/h
159 31-12-2003 07:47:29 -2.6 C 3.35 g/m*3 -2.6 C 0 km/h
160 31-12-2003 07:59:29 -2.6 C 3.35 g/m*3 -2.6 C 0 km/h
161 31-12-2003 08:11:29 -2.6 C 3.35 g/m*3 -2.6 C 0 km/h
162 31-12-2003 08:23:29 -2.8 C 3.31 g/m*3 -2.8 C 0 km/h
163 31-12-2003 08:35:29 -2.8 C 3.31 g/m*3 -2.8 C 0 km/h
164 31-12-2003 08:47:01 -2.8 C 3.31 g/m*3 -2.8 C 0 km/h
165 31-12-2003 08:59:01 -2.8 C 3.31 g/m*3 -2.8 C 0 km/h
166 31-12-2003 09:11:00 -2.7 C 3.33 g/m*3 -2.7 C 0 km/h
167 31-12-2003 09:23:00 -2.7 C 3.33 g/m*3 -2.7 C 0 km/h
168 31-12-2003 09:35:01 -2.4 C 3.44 g/m*3 -2.4 C 0 km/h
169 31-12-2003 09:47:01 -2.4 C 3.4 g/m*3 -2.4 C 0 km/h
170 31-12-2003 09:59:01 -2 C 3.54 g/m*3 -2 C 0 km/h
171 31-12-2003 10:11:01 -1.7 C 3.62 g/m*3 -1.7 C 0 km/h
172 31-12-2003 10:23:01 -1.6 C 3.64 g/m*3 -1.6 C 0 km/h
173 31-12-2003 10:35:00 -1.3 C 3.72 g/m*3 -1.3 C 0 km/h
174 31-12-2003 10:47:00 -1 C 3.75 g/m*3 -1 C 0 km/h
175 31-12-2003 10:59:00 -0.7 C 3.83 g/m*3 -0.7 C 0 km/h
Sensor: Nr:Datum:Temp:Abs-Feuchte:Windchill:Wind:
Aussen-T/F 176 31-12-2003 11:11:59 -0.5 C 3.88 g/m*3 -0.5 C 0 km/h
177 31-12-2003 11:23:59 -0.3 C 3.8 g/m*3 -0.3 C 0 km/h
178 31-12-2003 11:35:01 0 C 3.83 g/m*3 0 C 0 km/h
179 31-12-2003 11:47:01 0.1 C 3.76 g/m*3 0.1 C 0 km/h
180 31-12-2003 11:59:01 0.3 C 3.76 g/m*3 0.3 C 0 km/h
181 31-12-2003 12:11:02 0.4 C 3.79 g/m*3 0.4 C 0 km/h
182 31-12-2003 12:23:02 0.6 C 3.79 g/m*3 0.6 C 0 km/h
183 31-12-2003 12:35:01 0.8 C 3.89 g/m*3 0.8 C 0 km/h
184 31-12-2003 12:47:01 1 C 3.89 g/m*3 1 C 0 km/h
185 31-12-2003 12:59:01 1.2 C 3.95 g/m*3 1.2 C 0 km/h
186 31-12-2003 13:11:59 1.3 C 3.97 g/m*3 1.3 C 0 km/h
187 31-12-2003 13:23:59 1.4 C 4 g/m*3 1.4 C 0 km/h
188 31-12-2003 13:35:01 1.5 C 4.03 g/m*3 1.5 C 0 km/h
189 31-12-2003 13:47:01 1.7 C 4.14 g/m*3 1.7 C 0 km/h
190 31-12-2003 13:59:01 1.8 C 4.11 g/m*3 1.8 C 0 km/h
191 31-12-2003 14:11:01 1.9 C 4.08 g/m*3 1.9 C 0 km/h
192 31-12-2003 14:23:01 2 C 4.06 g/m*3 2 C 0 km/h
193 31-12-2003 14:35:01 2 C 3.89 g/m*3 2 C 0 km/h
194 31-12-2003 14:47:01 2 C 3.89 g/m*3 2 C 0 km/h
195 31-12-2003 14:59:01 1.9 C 3.86 g/m*3 1.9 C 0 km/h
196 31-12-2003 15:11:01 1.8 C 3.89 g/m*3 1.8 C 0 km/h
197 31-12-2003 15:23:01 1.7 C 3.92 g/m*3 1.7 C 0 km/h
198 31-12-2003 15:35:01 1.7 C 3.92 g/m*3 1.7 C 0 km/h
199 31-12-2003 15:47:01 1.7 C 3.92 g/m*3 1.7 C 0 km/h
200 31-12-2003 15:59:01 1.6 C 3.89 g/m*3 1.6 C 0 km/h
Sensor: Nr:Datum:Temp:Abs-Feuchte:Windchill:Wind:
Aussen-T/F 201 31-12-2003 16:11:58 1.4 C 3.84 g/m*3 1.4 C 0 km/h
202 31-12-2003 16:23:58 1.2 C 3.79 g/m*3 1.2 C 0 km/h
203 31-12-2003 16:35:00 1.1 C 3.76 g/m*3 1.1 C 0 km/h
204 31-12-2003 16:47:00 1.1 C 3.71 g/m*3 1.1 C 0 km/h
205 31-12-2003 16:59:00 1.2 C 3.63 g/m*3 1.2 C 0 km/h
206 31-12-2003 17:11:01 1.1 C 3.61 g/m*3 1.1 C 0 km/h
207 31-12-2003 17:23:01 1.2 C 3.47 g/m*3 1.2 C 0 km/h
208 31-12-2003 17:35:00 1.1 C 3.4 g/m*3 1.1 C 0 km/h
209 31-12-2003 17:47:00 1.2 C 3.37 g/m*3 1.2 C 0 km/h
210 31-12-2003 17:59:00 0.9 C 3.4 g/m*3 0.9 C 0 km/h
211 31-12-2003 18:11:58 0.7 C 3.36 g/m*3 0.7 C 0 km/h
212 31-12-2003 18:23:58 0.5 C 3.41 g/m*3 0.5 C 0 km/h
213 31-12-2003 18:35:01 0.5 C 3.41 g/m*3 0.5 C 0 km/h
214 31-12-2003 18:47:01 0.5 C 3.41 g/m*3 0.5 C 0 km/h
215 31-12-2003 18:59:01 0.3 C 3.41 g/m*3 0.3 C 0 km/h
216 31-12-2003 19:11:01 0.4 C 3.34 g/m*3 0.4 C 0 km/h
217 31-12-2003 19:23:01 0.2 C 3.24 g/m*3 0.2 C 0 km/h
218 31-12-2003 19:35:00 -0.2 C 3.2 g/m*3 -0.2 C 0 km/h
219 31-12-2003 19:47:00 -0.6 C 3.21 g/m*3 -0.6 C 0 km/h
220 31-12-2003 19:59:00 -1 C 3.16 g/m*3 -1 C 0 km/h
221 31-12-2003 20:11:58 -1.2 C 3.21 g/m*3 -1.2 C 0 km/h
222 31-12-2003 20:23:58 -1.4 C 3.21 g/m*3 -1.4 C 0 km/h
223 31-12-2003 20:35:01 -1.5 C 3.23 g/m*3 -1.5 C 0 km/h
224 31-12-2003 20:47:01 -1.6 C 3.25 g/m*3 -1.6 C 0 km/h
225 31-12-2003 20:59:01 -1.8 C 3.12 g/m*3 -1.8 C 0 km/h
Sensor: Nr:Datum:Temp:Abs-Feuchte:Windchill:Wind:
Aussen-T/F 226 31-12-2003 21:11:01 -2 C 3.12 g/m*3 -2 C 0 km/h
227 31-12-2003 21:23:01 -2.3 C 3.1 g/m*3 -2.3 C 0 km/h
228 31-12-2003 21:35:01 -2.3 C 3.14 g/m*3 -2.3 C 0 km/h
229 31-12-2003 21:47:01 -2.3 C 3.14 g/m*3 -2.3 C 0 km/h
230 31-12-2003 21:59:01 -2.4 C 3.11 g/m*3 -2.4 C 0 km/h
231 31-12-2003 22:11:01 -2.6 C 3.11 g/m*3 -2.6 C 0 km/h
232 31-12-2003 22:23:01 -2.7 C 3.09 g/m*3 -2.7 C 0 km/h
233 31-12-2003 22:35:00 -2.8 C 3.11 g/m*3 -2.8 C 0 km/h
234 31-12-2003 22:47:00 -2.8 C 3.11 g/m*3 -2.8 C 0 km/h
235 31-12-2003 22:59:00 -2.8 C 3.07 g/m*3 -2.8 C 0 km/h
236 31-12-2003 23:11:58 -3 C 3.06 g/m*3 -3 C 0 km/h
237 31-12-2003 23:23:58 -3.3 C 2.96 g/m*3 -3.3 C 0 km/h
238 01-01-2004 02:35:55 -4.7 C 2.82 g/m*3 -4.7 C 0 km/h
239 01-01-2004 02:47:55 -4.8 C 2.8 g/m*3 -4.8 C 0 km/h
240 01-01-2004 02:59:55 -4.9 C 2.74 g/m*3 -4.9 C 0 km/h
241 01-01-2004 03:09:55 -5.1 C 2.7 g/m*3 -5.1 C 0 km/h
242 01-01-2004 03:21:55 -4.9 C 2.78 g/m*3 -4.9 C 0 km/h
243 01-01-2004 03:32:01 -5.1 C 2.74 g/m*3 -5.1 C 0 km/h
244 01-01-2004 03:44:01 -5.2 C 2.72 g/m*3 -5.2 C 0 km/h
245 01-01-2004 03:56:01 -5.2 C 2.72 g/m*3 -5.2 C 0 km/h
246 01-01-2004 04:08:00 -5.4 C 2.68 g/m*3 -5.4 C 0 km/h
247 01-01-2004 04:20:00 -5.4 C 2.68 g/m*3 -5.4 C 0 km/h
248 01-01-2004 04:30:55 -5.4 C 2.68 g/m*3 -5.4 C 0 km/h
249 01-01-2004 04:42:55 -5.5 C 2.66 g/m*3 -5.5 C 0 km/h
250 01-01-2004 04:54:55 -5.7 C 2.62 g/m*3 -5.7 C 0 km/h
Sensor: Nr:Datum:Temp:Abs-Feuchte:Windchill:Wind:
Aussen-T/F 251 01-01-2004 05:03:55 -5.7 C 2.62 g/m*3 -5.7 C 0 km/h
252 01-01-2004 05:15:55 -5.7 C 2.62 g/m*3 -5.7 C 0 km/h
253 01-01-2004 05:27:55 -5.8 C 2.6 g/m*3 -5.8 C 0 km/h
254 01-01-2004 05:37:55 -5.7 C 2.62 g/m*3 -5.7 C 0 km/h
255 01-01-2004 05:49:55 -5.8 C 2.6 g/m*3 -5.8 C 0 km/h
256 01-01-2004 05:58:55 -5.9 C 2.58 g/m*3 -5.9 C 0 km/h
257 01-01-2004 06:10:55 -6 C 2.57 g/m*3 -6 C 0 km/h
258 01-01-2004 06:22:55 -6 C 2.57 g/m*3 -6 C 0 km/h
259 01-01-2004 06:32:55 -5.9 C 2.58 g/m*3 -5.9 C 0 km/h
260 01-01-2004 06:44:55 -5.9 C 2.58 g/m*3 -5.9 C 0 km/h
261 01-01-2004 06:56:55 -5.9 C 2.58 g/m*3 -5.9 C 0 km/h
262 01-01-2004 07:05:55 -5.9 C 2.58 g/m*3 -5.9 C 0 km/h
263 01-01-2004 07:17:55 -5.8 C 2.6 g/m*3 -5.8 C 0 km/h
264 01-01-2004 07:29:55 -5.8 C 2.6 g/m*3 -5.8 C 0 km/h
265 01-01-2004 07:38:55 -5.8 C 2.6 g/m*3 -5.8 C 0 km/h
266 01-01-2004 07:50:55 -5.7 C 2.62 g/m*3 -5.7 C 0 km/h
267 01-01-2004 08:00:55 -5.6 C 2.64 g/m*3 -5.6 C 0 km/h
268 01-01-2004 08:12:55 -5.4 C 2.71 g/m*3 -5.4 C 0 km/h
269 01-01-2004 08:24:55 -5.4 C 2.71 g/m*3 -5.4 C 0 km/h
270 01-01-2004 08:33:55 -5.3 C 2.73 g/m*3 -5.3 C 0 km/h
271 01-01-2004 08:45:55 -5.1 C 2.77 g/m*3 -5.1 C 0 km/h
272 01-01-2004 08:57:55 -5 C 2.79 g/m*3 -5 C 0 km/h
273 01-01-2004 09:06:55 -4.8 C 2.8 g/m*3 -4.8 C 0 km/h
274 01-01-2004 09:18:55 -4.7 C 2.82 g/m*3 -4.7 C 0 km/h
275 01-01-2004 09:30:55 -4.5 C 2.86 g/m*3 -4.5 C 0 km/h
Sensor: Nr:Datum:Temp:Abs-Feuchte:Windchill:Wind:
Aussen-T/F 276 01-01-2004 09:40:55 -4.3 C 2.86 g/m*3 -4.3 C 0 km/h
277 01-01-2004 09:52:55 -4 C 2.93 g/m*3 -4 C 0 km/h
278 01-01-2004 10:01:55 -3.9 C 2.91 g/m*3 -3.9 C 0 km/h
279 01-01-2004 10:13:55 -3.7 C 2.92 g/m*3 -3.7 C 0 km/h
280 01-01-2004 10:25:55 -3.5 C 2.96 g/m*3 -3.5 C 0 km/h
281 01-01-2004 10:34:55 -3.2 C 3.02 g/m*3 -3.2 C 0 km/h
282 01-01-2004 10:46:55 -3 C 3.02 g/m*3 -3 C 0 km/h
283 01-01-2004 10:58:55 -2.5 C 3.13 g/m*3 -2.5 C 0 km/h
284 01-01-2004 11:08:55 -2.4 C 3.16 g/m*3 -2.4 C 0 km/h
285 01-01-2004 11:20:55 -2.3 C 3.14 g/m*3 -2.3 C 0 km/h
286 01-01-2004 11:29:55 -2 C 3.25 g/m*3 -2 C 0 km/h
287 01-01-2004 11:41:55 -1.7 C 3.31 g/m*3 -1.7 C 0 km/h
288 01-01-2004 11:53:55 -1.3 C 3.45 g/m*3 -1.3 C 0 km/h
289 01-01-2004 12:01:55 -1 C 3.53 g/m*3 -1 C 0 km/h
290 01-01-2004 12:13:55 -1 C 3.48 g/m*3 -1 C 0 km/h
291 01-01-2004 12:25:55 -0.7 C 3.55 g/m*3 -0.7 C 0 km/h
292 01-01-2004 12:34:55 -0.5 C 3.6 g/m*3 -0.5 C 0 km/h
293 01-01-2004 12:46:55 -0.4 C 3.63 g/m*3 -0.4 C 0 km/h
294 01-01-2004 12:58:55 -0.2 C 3.58 g/m*3 -0.2 C 0 km/h
295 01-01-2004 13:08:55 0.1 C 3.61 g/m*3 0.1 C 0 km/h
296 01-01-2004 13:20:55 0.3 C 3.56 g/m*3 0.3 C 0 km/h
297 01-01-2004 13:29:55 0.3 C 3.56 g/m*3 0.3 C 0 km/h
298 01-01-2004 13:41:55 0.4 C 3.49 g/m*3 0.4 C 0 km/h
299 01-01-2004 13:53:55 0.4 C 3.54 g/m*3 0.4 C 0 km/h
300 01-01-2004 14:03:55 0.2 C 3.49 g/m*3 0.2 C 0 km/h
Sensor: Nr:Datum:Temp:Abs-Feuchte:Windchill:Wind:
Aussen-T/F 301 01-01-2004 14:15:55 0.1 C 3.51 g/m*3 0.1 C 0 km/h
302 01-01-2004 14:27:55 0.1 C 3.51 g/m*3 0.1 C 0 km/h
303 01-01-2004 14:36:55 0 C 3.49 g/m*3 0 C 0 km/h
304 01-01-2004 14:48:55 0 C 3.54 g/m*3 0 C 0 km/h
305 01-01-2004 15:00:55 0 C 3.49 g/m*3 0 C 0 km/h
306 01-01-2004 15:09:56 0.1 C 3.56 g/m*3 0.1 C 0 km/h
307 01-01-2004 15:21:56 0 C 3.54 g/m*3 0 C 0 km/h
308 01-01-2004 15:31:55 0 C 3.54 g/m*3 0 C 0 km/h
309 01-01-2004 15:43:55 0 C 3.54 g/m*3 0 C 0 km/h
310 01-01-2004 15:55:55 0.1 C 3.56 g/m*3 0.1 C 0 km/h
311 01-01-2004 16:04:55 0.1 C 3.56 g/m*3 0.1 C 0 km/h
312 01-01-2004 16:16:55 0 C 3.54 g/m*3 0 C 0 km/h
313 01-01-2004 16:28:55 -0.1 C 3.51 g/m*3 -0.1 C 0 km/h
314 01-01-2004 16:38:55 -0.2 C 3.49 g/m*3 -0.2 C 0 km/h
315 01-01-2004 16:50:55 -0.2 C 3.49 g/m*3 -0.2 C 0 km/h
316 01-01-2004 16:59:55 -0.1 C 3.51 g/m*3 -0.1 C 0 km/h
317 01-01-2004 17:11:56 -0.1 C 3.51 g/m*3 -0.1 C 0 km/h
318 01-01-2004 17:23:56 -0.1 C 3.51 g/m*3 -0.1 C 0 km/h
319 01-01-2004 17:33:55 -0.1 C 3.51 g/m*3 -0.1 C 0 km/h
320 01-01-2004 17:45:56 0 C 3.54 g/m*3 0 C 0 km/h
321 01-01-2004 17:57:56 0 C 3.54 g/m*3 0 C 0 km/h
322 01-01-2004 18:06:55 0.1 C 3.56 g/m*3 0.1 C 0 km/h
323 01-01-2004 18:18:55 0.1 C 3.56 g/m*3 0.1 C 0 km/h
324 01-01-2004 18:30:55 0.1 C 3.56 g/m*3 0.1 C 0 km/h
325 01-01-2004 18:40:55 0.1 C 3.51 g/m*3 0.1 C 0 km/h
Sensor: Nr:Datum:Temp:Abs-Feuchte:Windchill:Wind:
Aussen-T/F 326 01-01-2004 18:52:55 0.1 C 3.51 g/m*3 0.1 C 0 km/h
327 01-01-2004 19:01:55 0.1 C 3.51 g/m*3 0.1 C 0 km/h
328 01-01-2004 19:13:55 0.2 C 3.54 g/m*3 0.2 C 0 km/h
329 01-01-2004 19:25:55 0.1 C 3.56 g/m*3 0.1 C 0 km/h
330 01-01-2004 19:34:55 0 C 3.54 g/m*3 0 C 0 km/h
331 01-01-2004 19:46:55 -0.1 C 3.61 g/m*3 -0.1 C 0 km/h
332 01-01-2004 19:58:55 -0.2 C 3.63 g/m*3 -0.2 C 0 km/h
333 01-01-2004 20:08:55 -0.2 C 3.73 g/m*3 -0.2 C 0 km/h
334 01-01-2004 20:20:55 -0.3 C 3.75 g/m*3 -0.3 C 0 km/h
335 01-01-2004 22:44:07 0 C 3.88 g/m*3 0 C 0 km/h
336 01-01-2004 22:56:07 0 C 3.63 g/m*3 0 C 0 km/h
337 01-01-2004 23:08:07 0 C 3.39 g/m*3 0 C 0 km/h
338 01-01-2004 23:20:07 0 C 3.15 g/m*3 0 C 0 km/h
339 01-01-2004 23:32:07 0 C 2.91 g/m*3 0 C 0 km/h
340 01-01-2004 23:44:07 0 C 2.66 g/m*3 0 C 0 km/h
341 01-01-2004 23:56:07 0 C 0.97 g/m*3 0 C 0 km/h
342 02-01-2004 00:08:07 0 C 0.97 g/m*3 0 C 0 km/h
343 02-01-2004 00:20:07 0 C 0.97 g/m*3 0 C 0 km/h
344 02-01-2004 00:32:07 0 C 0.97 g/m*3 0 C 0 km/h
345 02-01-2004 00:44:07 0 C 0.97 g/m*3 0 C 0 km/h
346 02-01-2004 00:56:07 0 C 0.97 g/m*3 0 C 0 km/h
347 02-01-2004 01:08:07 0 C 0.97 g/m*3 0 C 0 km/h
348 02-01-2004 01:20:07 0 C 0.97 g/m*3 0 C 0 km/h
349 02-01-2004 01:32:07 0 C 0.97 g/m*3 0 C 0 km/h
350 02-01-2004 01:44:07 0 C 0.97 g/m*3 0 C 0 km/h
Sensor: Nr:Datum:Temp:Abs-Feuchte:Windchill:Wind:
Aussen-T/F 351 02-01-2004 01:56:07 0 C 0.97 g/m*3 0 C 0 km/h
352 02-01-2004 02:08:07 0 C 0.97 g/m*3 0 C 0 km/h
353 02-01-2004 02:20:07 0 C 0.97 g/m*3 0 C 0 km/h
354 02-01-2004 02:32:07 0 C 0.97 g/m*3 0 C 0 km/h
355 02-01-2004 02:44:07 0 C 0.97 g/m*3 0 C 0 km/h
356 02-01-2004 02:56:07 0 C 0.97 g/m*3 0 C 0 km/h
357 02-01-2004 03:08:07 0 C 0.97 g/m*3 0 C 0 km/h
358 02-01-2004 03:20:07 0 C 0.97 g/m*3 0 C 0 km/h
359 02-01-2004 03:32:07 0 C 0.97 g/m*3 0 C 0 km/h
360 02-01-2004 03:44:07 0 C 0.97 g/m*3 0 C 0 km/h
361 02-01-2004 03:56:07 0 C 0.97 g/m*3 0 C 0 km/h
362 02-01-2004 04:08:07 0 C 0.97 g/m*3 0 C 0 km/h
363 02-01-2004 04:20:07 0 C 0.97 g/m*3 0 C 0 km/h
364 02-01-2004 04:32:07 0 C 0.97 g/m*3 0 C 0 km/h
365 02-01-2004 04:44:07 0 C 0.97 g/m*3 0 C 0 km/h
366 02-01-2004 04:56:07 0 C 0.97 g/m*3 0 C 0 km/h
367 02-01-2004 05:08:07 0 C 0.97 g/m*3 0 C 0 km/h
368 02-01-2004 05:20:07 0 C 0.97 g/m*3 0 C 0 km/h
369 02-01-2004 05:32:07 0 C 0.97 g/m*3 0 C 0 km/h
370 02-01-2004 05:44:07 0 C 0.97 g/m*3 0 C 0 km/h
371 02-01-2004 05:56:07 0 C 0.97 g/m*3 0 C 0 km/h
372 02-01-2004 06:08:07 0 C 0.97 g/m*3 0 C 0 km/h
373 02-01-2004 06:20:07 0 C 0.97 g/m*3 0 C 0 km/h
374 02-01-2004 06:32:07 0 C 0.97 g/m*3 0 C 0 km/h
375 02-01-2004 06:44:07 0 C 0.97 g/m*3 0 C 0 km/h
Sensor: Nr:Datum:Temp:Abs-Feuchte:Windchill:Wind:
Aussen-T/F 376 02-01-2004 06:56:07 0 C 0.97 g/m*3 0 C 0 km/h
377 02-01-2004 07:08:07 0 C 0.97 g/m*3 0 C 0 km/h
378 02-01-2004 07:20:07 0 C 0.97 g/m*3 0 C 0 km/h
379 02-01-2004 07:32:07 0 C 0.97 g/m*3 0 C 0 km/h
380 02-01-2004 07:44:07 0 C 0.97 g/m*3 0 C 0 km/h
381 02-01-2004 07:56:07 0 C 0.97 g/m*3 0 C 0 km/h
382 02-01-2004 08:08:07 -1.9 C 0.85 g/m*3 -1.9 C 0 km/h
383 02-01-2004 08:20:07 -2.1 C 1.05 g/m*3 -2.1 C 0 km/h
384 02-01-2004 08:32:07 -2.3 C 1.24 g/m*3 -2.3 C 0 km/h
385 02-01-2004 08:44:07 -2.7 C 1.4 g/m*3 -2.7 C 0 km/h
386 02-01-2004 08:56:07 -2.9 C 2.77 g/m*3 -2.9 C 0 km/h
387 02-01-2004 09:08:07 -3.1 C 2.73 g/m*3 -3.1 C 0 km/h
388 02-01-2004 09:20:07 -3 C 2.75 g/m*3 -3 C 0 km/h
389 02-01-2004 09:32:07 -3.2 C 2.71 g/m*3 -3.2 C 0 km/h
390 02-01-2004 09:44:07 -3.2 C 2.75 g/m*3 -3.2 C 0 km/h
391 02-01-2004 09:56:07 -3 C 2.83 g/m*3 -3 C 0 km/h
392 02-01-2004 10:11:00 -2.7 C 2.89 g/m*3 -2.7 C 0 km/h
393 02-01-2004 10:23:00 -2.7 C 2.89 g/m*3 -2.7 C 0 km/h
394 02-01-2004 10:35:06 -2.6 C 2.83 g/m*3 -2.6 C 0 km/h
395 02-01-2004 10:47:33 -2.4 C 2.87 g/m*3 -2.4 C 0 km/h
396 02-01-2004 10:59:01 -2.1 C 2.93 g/m*3 -2.1 C 0 km/h
397 02-01-2004 11:11:01 -2.1 C 2.8 g/m*3 -2.1 C 0 km/h
398 02-01-2004 11:23:01 -2.2 C 2.74 g/m*3 -2.2 C 0 km/h
399 02-01-2004 11:35:01 -2.2 C 2.74 g/m*3 -2.2 C 0 km/h
400 02-01-2004 11:47:01 -2.1 C 2.8 g/m*3 -2.1 C 0 km/h
Sensor: Nr:Datum:Temp:Abs-Feuchte:Windchill:Wind:
Aussen-T/F 401 02-01-2004 11:59:01 -1.9 C 2.84 g/m*3 -1.9 C 0 km/h
402 02-01-2004 12:11:01 -1.7 C 2.84 g/m*3 -1.7 C 0 km/h
403 02-01-2004 12:23:01 -1.7 C 2.84 g/m*3 -1.7 C 0 km/h
404 02-01-2004 12:35:01 -1.7 C 2.8 g/m*3 -1.7 C 0 km/h
405 02-01-2004 12:47:01 -1.2 C 2.81 g/m*3 -1.2 C 0 km/h
406 02-01-2004 12:59:01 -1.3 C 2.74 g/m*3 -1.3 C 0 km/h
407 02-01-2004 13:11:59 -1.6 C 2.69 g/m*3 -1.6 C 0 km/h
408 02-01-2004 13:23:59 -1.6 C 2.69 g/m*3 -1.6 C 0 km/h
409 02-01-2004 13:35:51 -1.7 C 2.67 g/m*3 -1.7 C 0 km/h
410 02-01-2004 13:47:51 -1.7 C 2.67 g/m*3 -1.7 C 0 km/h
411 02-01-2004 15:14:53 -1.4 C 2.64 g/m*3 -1.4 C 0 km/h
412 02-01-2004 15:26:53 -1.4 C 2.64 g/m*3 -1.4 C 0 km/h
413 02-01-2004 15:40:28 -1.1 C 2.69 g/m*3 -1.1 C 0 km/h
414 02-01-2004 15:52:28 -0.9 C 2.78 g/m*3 -0.9 C 0 km/h
415 02-01-2004 16:04:28 -0.9 C 2.73 g/m*3 -0.9 C 0 km/h
416 02-01-2004 16:16:28 -1.2 C 2.67 g/m*3 -1.2 C 0 km/h
417 02-01-2004 16:28:28 -1.5 C 2.62 g/m*3 -1.5 C 0 km/h
418 02-01-2004 16:40:28 -1.7 C 2.63 g/m*3 -1.7 C 0 km/h
419 02-01-2004 16:52:28 -2 C 2.53 g/m*3 -2 C 0 km/h
420 02-01-2004 17:04:30 -2.4 C 2.5 g/m*3 -2.4 C 0 km/h
421 02-01-2004 17:16:30 -2.5 C 2.52 g/m*3 -2.5 C 0 km/h
422 02-01-2004 17:28:30 -2.5 C 2.52 g/m*3 -2.5 C 0 km/h
423 02-01-2004 17:40:30 -2.5 C 2.52 g/m*3 -2.5 C 0 km/h
424 02-01-2004 17:49:01 -2.9 C 2.49 g/m*3 -2.9 C 0 km/h
425 02-01-2004 18:01:01 -3.4 C 2.44 g/m*3 -3.4 C 0 km/h
Sensor: Nr:Datum:Temp:Abs-Feuchte:Windchill:Wind:
Aussen-T/F 426 02-01-2004 18:13:02 -3.5 C 2.46 g/m*3 -3.5 C 0 km/h
427 02-01-2004 18:25:02 -3.8 C 2.41 g/m*3 -3.8 C 0 km/h
428 02-01-2004 18:48:59 -4 C 2.41 g/m*3 -4 C 0 km/h
429 02-01-2004 19:00:59 -4.1 C 2.36 g/m*3 -4.1 C 0 km/h
430 02-01-2004 19:01:58 -4.1 C 2.36 g/m*3 -4.1 C 0 km/h
431 02-01-2004 19:13:58 -4.3 C 2.36 g/m*3 -4.3 C 0 km/h
432 02-01-2004 19:25:58 -4.5 C 2.33 g/m*3 -4.5 C 0 km/h
433 02-01-2004 19:37:01 -4.3 C 2.36 g/m*3 -4.3 C 0 km/h
434 02-01-2004 19:49:01 -4.5 C 2.33 g/m*3 -4.5 C 0 km/h
435 02-01-2004 20:01:01 -4.4 C 2.35 g/m*3 -4.4 C 0 km/h
436 02-01-2004 20:13:01 -4.5 C 2.33 g/m*3 -4.5 C 0 km/h
437 02-01-2004 20:25:01 -4.8 C 2.31 g/m*3 -4.8 C 0 km/h
438 02-01-2004 20:37:01 -4.9 C 2.33 g/m*3 -4.9 C 0 km/h
439 02-01-2004 20:49:01 -5.1 C 2.3 g/m*3 -5.1 C 0 km/h
440 02-01-2004 21:01:01 -5.1 C 2.37 g/m*3 -5.1 C 0 km/h
441 02-01-2004 21:13:01 -5.1 C 2.37 g/m*3 -5.1 C 0 km/h
442 02-01-2004 21:25:01 -5.3 C 2.33 g/m*3 -5.3 C 0 km/h
443 02-01-2004 21:37:00 -5.5 C 2.33 g/m*3 -5.5 C 0 km/h
444 02-01-2004 21:49:00 -5.7 C 2.3 g/m*3 -5.7 C 0 km/h
445 02-01-2004 22:01:00 -5.8 C 2.31 g/m*3 -5.8 C 0 km/h
446 02-01-2004 22:13:58 -5.9 C 2.33 g/m*3 -5.9 C 0 km/h
447 02-01-2004 22:25:58 -5.8 C 2.38 g/m*3 -5.8 C 0 km/h
448 02-01-2004 22:37:01 -5.8 C 2.38 g/m*3 -5.8 C 0 km/h
449 02-01-2004 22:49:01 -5.8 C 2.35 g/m*3 -5.8 C 0 km/h
450 02-01-2004 23:01:01 -5.4 C 2.41 g/m*3 -5.4 C 0 km/h
Sensor: Nr:Datum:Temp:Abs-Feuchte:Windchill:Wind:
Aussen-T/F 451 02-01-2004 23:13:01 -5.6 C 2.38 g/m*3 -5.6 C 0 km/h
452 02-01-2004 23:25:01 -6.2 C 2.25 g/m*3 -6.2 C 0 km/h
453 02-01-2004 23:37:00 -6.5 C 2.23 g/m*3 -6.5 C 0 km/h
454 02-01-2004 23:49:00 -6.6 C 2.24 g/m*3 -6.6 C 0 km/h
455 03-01-2004 00:01:00 -6.8 C 2.24 g/m*3 -6.8 C 0 km/h
456 03-01-2004 00:13:58 -7.1 C 2.16 g/m*3 -7.1 C 0 km/h
457 03-01-2004 00:25:58 -7.4 C 2.12 g/m*3 -7.4 C 0 km/h
458 03-01-2004 00:37:01 -7.5 C 2.13 g/m*3 -7.5 C 0 km/h
459 03-01-2004 00:49:01 -7.6 C 2.11 g/m*3 -7.6 C 0 km/h
460 03-01-2004 01:01:01 -7.6 C 2.11 g/m*3 -7.6 C 0 km/h
461 03-01-2004 01:13:00 -7.7 C 2.13 g/m*3 -7.7 C 0 km/h
462 03-01-2004 01:25:00 -7.7 C 2.13 g/m*3 -7.7 C 0 km/h
463 03-01-2004 01:37:01 -7.7 C 2.15 g/m*3 -7.7 C 0 km/h
464 03-01-2004 01:49:01 -7.8 C 2.14 g/m*3 -7.8 C 0 km/h
465 03-01-2004 02:01:01 -8.1 C 2.09 g/m*3 -8.1 C 0 km/h
466 03-01-2004 02:13:01 -8.2 C 2.05 g/m*3 -8.2 C 0 km/h
467 03-01-2004 02:25:01 -8.1 C 2.09 g/m*3 -8.1 C 0 km/h
468 03-01-2004 02:37:00 -8.2 C 2.07 g/m*3 -8.2 C 0 km/h
469 03-01-2004 02:49:00 -8.2 C 2.07 g/m*3 -8.2 C 0 km/h
470 03-01-2004 03:01:00 -8.2 C 2.1 g/m*3 -8.2 C 0 km/h
471 03-01-2004 03:14:00 -8.2 C 2.1 g/m*3 -8.2 C 0 km/h
472 03-01-2004 03:26:00 -8.5 C 2.06 g/m*3 -8.5 C 0 km/h
473 03-01-2004 03:38:00 -8.4 C 2.07 g/m*3 -8.4 C 0 km/h
474 03-01-2004 03:50:00 -8.5 C 2.06 g/m*3 -8.5 C 0 km/h
475 03-01-2004 04:02:01 -8.5 C 2.06 g/m*3 -8.5 C 0 km/h
Sensor: Nr:Datum:Temp:Abs-Feuchte:Windchill:Wind:
Aussen-T/F 476 03-01-2004 04:14:01 -8.5 C 2.06 g/m*3 -8.5 C 0 km/h
477 03-01-2004 04:26:01 -8.6 C 2.01 g/m*3 -8.6 C 0 km/h
478 03-01-2004 04:38:00 -8.7 C 2 g/m*3 -8.7 C 0 km/h
479 03-01-2004 04:50:00 -8.9 C 1.97 g/m*3 -8.9 C 0 km/h
480 03-01-2004 05:02:01 -9 C 1.95 g/m*3 -9 C 0 km/h
481 03-01-2004 05:14:01 -9.2 C 1.9 g/m*3 -9.2 C 0 km/h
482 03-01-2004 05:26:01 -9.1 C 1.94 g/m*3 -9.1 C 0 km/h
483 03-01-2004 05:38:00 -9.3 C 1.91 g/m*3 -9.3 C 0 km/h
484 03-01-2004 05:50:00 -9.4 C 1.87 g/m*3 -9.4 C 0 km/h
485 03-01-2004 06:02:01 -9.2 C 1.93 g/m*3 -9.2 C 0 km/h
486 03-01-2004 06:14:01 -9.2 C 1.93 g/m*3 -9.2 C 0 km/h
487 03-01-2004 06:26:01 -9.2 C 1.93 g/m*3 -9.2 C 0 km/h
488 03-01-2004 06:38:00 -9.3 C 1.91 g/m*3 -9.3 C 0 km/h
489 03-01-2004 06:50:00 -8.9 C 1.97 g/m*3 -8.9 C 0 km/h
490 03-01-2004 07:02:01 -8.6 C 2.01 g/m*3 -8.6 C 0 km/h
491 03-01-2004 07:14:01 -8.3 C 2.03 g/m*3 -8.3 C 0 km/h
492 03-01-2004 07:26:01 -8.3 C 2.03 g/m*3 -8.3 C 0 km/h
493 03-01-2004 07:38:00 -8.2 C 2.02 g/m*3 -8.2 C 0 km/h
494 03-01-2004 07:50:00 -8.1 C 2.04 g/m*3 -8.1 C 0 km/h
495 03-01-2004 08:02:00 -8.1 C 2.04 g/m*3 -8.1 C 0 km/h
496 03-01-2004 08:14:00 -7.9 C 2.07 g/m*3 -7.9 C 0 km/h
497 03-01-2004 08:26:00 -7.8 C 2.08 g/m*3 -7.8 C 0 km/h
498 03-01-2004 08:38:00 -7.7 C 2.1 g/m*3 -7.7 C 0 km/h
499 03-01-2004 08:50:00 -7.7 C 2.07 g/m*3 -7.7 C 0 km/h
500 03-01-2004 09:02:00 -7.7 C 2.07 g/m*3 -7.7 C 0 km/h
Sensor: Nr:Datum:Temp:Abs-Feuchte:Windchill:Wind:
Aussen-T/F 501 03-01-2004 09:14:00 -7.7 C 2.07 g/m*3 -7.7 C 0 km/h
502 03-01-2004 09:26:00 -7.4 C 2.12 g/m*3 -7.4 C 0 km/h
503 03-01-2004 09:38:19 -7.2 C 2.15 g/m*3 -7.2 C 0 km/h
504 03-01-2004 09:41:08 -7.2 C 2.15 g/m*3 -7.2 C 0 km/h
505 03-01-2004 10:57:07 -5.9 C 2.3 g/m*3 -5.9 C 0 km/h
506 03-01-2004 11:09:07 -5.6 C 2.35 g/m*3 -5.6 C 0 km/h
507 03-01-2004 11:21:22 -5.4 C 2.35 g/m*3 -5.4 C 0 km/h
508 03-01-2004 11:33:22 -5.2 C 2.35 g/m*3 -5.2 C 0 km/h
509 03-01-2004 11:45:22 -4.8 C 2.42 g/m*3 -4.8 C 0 km/h
510 03-01-2004 11:57:46 -4.6 C 2.42 g/m*3 -4.6 C 0 km/h
511 03-01-2004 12:09:46 -4.4 C 2.45 g/m*3 -4.4 C 0 km/h
512 03-01-2004 12:21:46 -4.2 C 2.49 g/m*3 -4.2 C 0 km/h
513 03-01-2004 12:33:46 -4 C 2.52 g/m*3 -4 C 0 km/h
514 03-01-2004 12:45:46 -3.6 C 2.6 g/m*3 -3.6 C 0 km/h
515 03-01-2004 12:57:01 -3.2 C 2.67 g/m*3 -3.2 C 0 km/h
516 03-01-2004 13:09:01 -3 C 2.71 g/m*3 -3 C 0 km/h
517 03-01-2004 13:21:01 -2.9 C 2.73 g/m*3 -2.9 C 0 km/h
518 03-01-2004 13:33:00 -2.8 C 2.75 g/m*3 -2.8 C 0 km/h
519 03-01-2004 13:45:00 -2.7 C 2.77 g/m*3 -2.7 C 0 km/h
520 03-01-2004 13:57:00 -2.6 C 2.83 g/m*3 -2.6 C 0 km/h
521 03-01-2004 14:09:59 -2.5 C 2.85 g/m*3 -2.5 C 0 km/h
522 03-01-2004 14:21:59 -2.5 C 2.85 g/m*3 -2.5 C 0 km/h
523 03-01-2004 14:33:01 -2.3 C 2.93 g/m*3 -2.3 C 0 km/h
524 03-01-2004 14:45:01 -2.2 C 2.95 g/m*3 -2.2 C 0 km/h
525 03-01-2004 14:57:01 -2.1 C 2.97 g/m*3 -2.1 C 0 km/h
Sensor: Nr:Datum:Temp:Abs-Feuchte:Windchill:Wind:
Aussen-T/F 526 03-01-2004 15:09:00 -2.1 C 2.97 g/m*3 -2.1 C 0 km/h
527 03-01-2004 15:21:00 -2.2 C 2.95 g/m*3 -2.2 C 0 km/h
528 03-01-2004 15:33:01 -2.3 C 2.93 g/m*3 -2.3 C 0 km/h
529 03-01-2004 15:45:01 -2.3 C 2.97 g/m*3 -2.3 C 0 km/h
530 03-01-2004 15:57:01 -2.3 C 2.93 g/m*3 -2.3 C 0 km/h
531 03-01-2004 16:09:01 -2.4 C 2.91 g/m*3 -2.4 C 0 km/h
532 03-01-2004 16:21:01 -2.5 C 2.85 g/m*3 -2.5 C 0 km/h
533 03-01-2004 16:33:00 -2.5 C 2.73 g/m*3 -2.5 C 0 km/h
534 03-01-2004 16:45:00 -2.6 C 2.59 g/m*3 -2.6 C 0 km/h
535 03-01-2004 16:57:00 -2.7 C 2.53 g/m*3 -2.7 C 0 km/h
536 03-01-2004 17:09:59 -2.8 C 2.47 g/m*3 -2.8 C 0 km/h
537 03-01-2004 17:21:59 -2.8 C 2.51 g/m*3 -2.8 C 0 km/h
538 03-01-2004 17:33:01 -2.9 C 2.45 g/m*3 -2.9 C 0 km/h
539 03-01-2004 17:45:01 -2.9 C 2.45 g/m*3 -2.9 C 0 km/h
540 03-01-2004 17:57:01 -2.9 C 2.45 g/m*3 -2.9 C 0 km/h
541 03-01-2004 18:09:01 -3 C 2.44 g/m*3 -3 C 0 km/h
542 03-01-2004 18:21:01 -3 C 2.4 g/m*3 -3 C 0 km/h
543 03-01-2004 18:33:00 -2.9 C 2.41 g/m*3 -2.9 C 0 km/h
544 03-01-2004 18:45:00 -3 C 2.47 g/m*3 -3 C 0 km/h
545 03-01-2004 18:57:00 -3 C 2.51 g/m*3 -3 C 0 km/h
546 03-01-2004 19:09:58 -3.1 C 2.54 g/m*3 -3.1 C 0 km/h
547 03-01-2004 19:21:58 -3.2 C 2.52 g/m*3 -3.2 C 0 km/h
548 03-01-2004 19:33:01 -3.2 C 2.52 g/m*3 -3.2 C 0 km/h
549 03-01-2004 19:45:01 -3.2 C 2.48 g/m*3 -3.2 C 0 km/h
550 03-01-2004 19:57:01 -3.2 C 2.44 g/m*3 -3.2 C 0 km/h
Sensor: Nr:Datum:Temp:Abs-Feuchte:Windchill:Wind:
Aussen-T/F 551 03-01-2004 20:09:01 -3.2 C 2.4 g/m*3 -3.2 C 0 km/h
552 03-01-2004 20:21:01 -3.2 C 2.36 g/m*3 -3.2 C 0 km/h
553 03-01-2004 20:33:01 -3.3 C 2.42 g/m*3 -3.3 C 0 km/h
554 03-01-2004 20:45:01 -3.7 C 2.35 g/m*3 -3.7 C 0 km/h
555 03-01-2004 20:57:01 -4 C 2.3 g/m*3 -4 C 0 km/h
556 03-01-2004 21:09:01 -4.2 C 2.31 g/m*3 -4.2 C 0 km/h
557 03-01-2004 21:21:01 -4.5 C 2.26 g/m*3 -4.5 C 0 km/h
558 03-01-2004 21:33:00 -4.7 C 2.26 g/m*3 -4.7 C 0 km/h
559 03-01-2004 21:45:00 -4.9 C 2.23 g/m*3 -4.9 C 0 km/h
560 03-01-2004 21:57:00 -5.2 C 2.18 g/m*3 -5.2 C 0 km/h
561 03-01-2004 22:09:59 -5.7 C 2.17 g/m*3 -5.7 C 0 km/h
562 03-01-2004 22:21:59 -6 C 2.12 g/m*3 -6 C 0 km/h
563 03-01-2004 22:33:01 -6.1 C 2.14 g/m*3 -6.1 C 0 km/h
564 03-01-2004 22:45:01 -6.2 C 2.15 g/m*3 -6.2 C 0 km/h
565 03-01-2004 22:57:01 -6.3 C 2.17 g/m*3 -6.3 C 0 km/h
566 03-01-2004 23:09:00 -6.3 C 2.2 g/m*3 -6.3 C 0 km/h
567 03-01-2004 23:21:00 -6.4 C 2.18 g/m*3 -6.4 C 0 km/h
568 03-01-2004 23:33:01 -6.5 C 2.2 g/m*3 -6.5 C 0 km/h
569 03-01-2004 23:45:01 -6.6 C 2.18 g/m*3 -6.6 C 0 km/h
570 03-01-2004 23:57:01 -6.7 C 2.17 g/m*3 -6.7 C 0 km/h
571 04-01-2004 00:09:01 -6.7 C 2.2 g/m*3 -6.7 C 0 km/h
572 04-01-2004 00:21:01 -6.6 C 2.21 g/m*3 -6.6 C 0 km/h
573 04-01-2004 00:33:01 -6.4 C 2.25 g/m*3 -6.4 C 0 km/h
574 04-01-2004 00:45:01 -6.2 C 2.25 g/m*3 -6.2 C 0 km/h
575 04-01-2004 00:57:01 -6.3 C 2.23 g/m*3 -6.3 C 0 km/h
Sensor: Nr:Datum:Temp:Abs-Feuchte:Windchill:Wind:
Aussen-T/F 576 04-01-2004 01:09:01 -6.2 C 2.25 g/m*3 -6.2 C 0 km/h
577 04-01-2004 01:21:01 -6.3 C 2.23 g/m*3 -6.3 C 0 km/h
578 04-01-2004 01:33:00 -6.2 C 2.28 g/m*3 -6.2 C 0 km/h
579 04-01-2004 01:45:00 -6 C 2.28 g/m*3 -6 C 0 km/h
580 04-01-2004 01:57:00 -5.9 C 2.3 g/m*3 -5.9 C 0 km/h
581 04-01-2004 02:09:58 -5.8 C 2.31 g/m*3 -5.8 C 0 km/h
582 04-01-2004 02:21:58 -5.7 C 2.3 g/m*3 -5.7 C 0 km/h
583 04-01-2004 02:33:01 -5.6 C 2.31 g/m*3 -5.6 C 0 km/h
584 04-01-2004 02:45:01 -5.6 C 2.31 g/m*3 -5.6 C 0 km/h
585 04-01-2004 02:57:01 -5.6 C 2.31 g/m*3 -5.6 C 0 km/h
586 04-01-2004 03:09:00 -5.5 C 2.33 g/m*3 -5.5 C 0 km/h
587 04-01-2004 03:21:00 -5.2 C 2.38 g/m*3 -5.2 C 0 km/h
588 04-01-2004 03:33:00 -4.9 C 2.4 g/m*3 -4.9 C 0 km/h
589 04-01-2004 03:45:00 -4.9 C 2.4 g/m*3 -4.9 C 0 km/h
590 04-01-2004 03:57:00 -4.6 C 2.42 g/m*3 -4.6 C 0 km/h
591 04-01-2004 04:09:01 -4.5 C 2.4 g/m*3 -4.5 C 0 km/h
592 04-01-2004 04:21:01 -4.6 C 2.38 g/m*3 -4.6 C 0 km/h
593 04-01-2004 04:33:01 -4.5 C 2.4 g/m*3 -4.5 C 0 km/h
594 04-01-2004 04:45:01 -4.2 C 2.45 g/m*3 -4.2 C 0 km/h
595 04-01-2004 04:57:01 -4.1 C 2.43 g/m*3 -4.1 C 0 km/h
596 04-01-2004 05:09:00 -4.2 C 2.42 g/m*3 -4.2 C 0 km/h
597 04-01-2004 05:21:00 -4.1 C 2.43 g/m*3 -4.1 C 0 km/h
598 04-01-2004 05:33:00 -4 C 2.45 g/m*3 -4 C 0 km/h
599 04-01-2004 05:45:00 -4 C 2.41 g/m*3 -4 C 0 km/h
600 04-01-2004 05:57:00 -4 C 2.41 g/m*3 -4 C 0 km/h
Sensor: Nr:Datum:Temp:Abs-Feuchte:Windchill:Wind:
Aussen-T/F 601 04-01-2004 06:09:01 -4 C 2.41 g/m*3 -4 C 0 km/h
602 04-01-2004 06:21:01 -3.9 C 2.39 g/m*3 -3.9 C 0 km/h
603 04-01-2004 06:33:01 -3.9 C 2.39 g/m*3 -3.9 C 0 km/h
604 04-01-2004 06:45:01 -3.9 C 2.39 g/m*3 -3.9 C 0 km/h
605 04-01-2004 06:57:01 -3.8 C 2.37 g/m*3 -3.8 C 0 km/h
606 04-01-2004 07:09:00 -3.8 C 2.37 g/m*3 -3.8 C 0 km/h
607 04-01-2004 07:21:00 -3.8 C 2.37 g/m*3 -3.8 C 0 km/h
608 04-01-2004 07:33:00 -3.9 C 2.43 g/m*3 -3.9 C 0 km/h
609 04-01-2004 07:45:00 -3.8 C 2.41 g/m*3 -3.8 C 0 km/h
610 04-01-2004 07:57:00 -3.7 C 2.39 g/m*3 -3.7 C 0 km/h
611 04-01-2004 08:09:01 -3.6 C 2.41 g/m*3 -3.6 C 0 km/h
612 04-01-2004 08:21:01 -3.5 C 2.35 g/m*3 -3.5 C 0 km/h
613 04-01-2004 08:33:01 -3.5 C 2.39 g/m*3 -3.5 C 0 km/h
614 04-01-2004 08:45:01 -3.5 C 2.43 g/m*3 -3.5 C 0 km/h
615 04-01-2004 08:57:01 -3.7 C 2.47 g/m*3 -3.7 C 0 km/h
616 04-01-2004 09:09:00 -3.8 C 2.52 g/m*3 -3.8 C 0 km/h
617 04-01-2004 09:21:00 -3.8 C 2.6 g/m*3 -3.8 C 0 km/h
618 04-01-2004 09:33:21 -3.8 C 2.63 g/m*3 -3.8 C 0 km/h
619 04-01-2004 09:45:21 -3.7 C 2.62 g/m*3 -3.7 C 0 km/h
620 04-01-2004 09:53:00 -3.6 C 2.63 g/m*3 -3.6 C 0 km/h
621 04-01-2004 10:05:01 -3.5 C 2.65 g/m*3 -3.5 C 0 km/h
622 04-01-2004 10:17:01 -3.5 C 2.65 g/m*3 -3.5 C 0 km/h
623 04-01-2004 10:29:01 -3.3 C 2.69 g/m*3 -3.3 C 0 km/h
624 04-01-2004 10:41:01 -3.2 C 2.71 g/m*3 -3.2 C 0 km/h
625 04-01-2004 10:53:01 -3.2 C 2.71 g/m*3 -3.2 C 0 km/h
Sensor: Nr:Datum:Temp:Abs-Feuchte:Windchill:Wind:
Aussen-T/F 626 04-01-2004 11:05:00 -3.1 C 2.73 g/m*3 -3.1 C 0 km/h
627 04-01-2004 11:17:00 -3 C 2.75 g/m*3 -3 C 0 km/h
628 04-01-2004 11:29:00 -2.9 C 2.77 g/m*3 -2.9 C 0 km/h
629 04-01-2004 11:41:00 -2.8 C 2.79 g/m*3 -2.8 C 0 km/h
630 04-01-2004 11:53:00 -2.8 C 2.83 g/m*3 -2.8 C 0 km/h
631 04-01-2004 12:04:00 0 C 3.44 g/m*3 0 C 0 km/h
632 04-01-2004 12:09:00 -2.6 C 2.87 g/m*3 -2.6 C 0 km/h
633 04-01-2004 12:14:00 -2.5 C 2.89 g/m*3 -2.5 C 0 km/h
634 04-01-2004 12:19:00 -2.5 C 2.89 g/m*3 -2.5 C 0 km/h
635 04-01-2004 12:24:00 -2.5 C 2.89 g/m*3 -2.5 C 0 km/h
636 04-01-2004 12:29:00 -2.4 C 2.87 g/m*3 -2.4 C 0 km/h
637 04-01-2004 12:34:01 -2.4 C 2.87 g/m*3 -2.4 C 0 km/h
638 04-01-2004 12:39:01 -2.4 C 2.87 g/m*3 -2.4 C 0 km/h
639 04-01-2004 12:44:01 -2.3 C 2.89 g/m*3 -2.3 C 0 km/h
640 04-01-2004 12:49:01 -2.2 C 2.91 g/m*3 -2.2 C 0 km/h
641 04-01-2004 12:54:01 -2.2 C 2.91 g/m*3 -2.2 C 0 km/h
642 04-01-2004 12:59:01 -2.1 C 2.97 g/m*3 -2.1 C 0 km/h
643 04-01-2004 13:08:01 -2.1 C 2.97 g/m*3 -2.1 C 0 km/h
644 04-01-2004 13:20:01 -2.2 C 2.95 g/m*3 -2.2 C 0 km/h
645 04-01-2004 13:32:00 -2.5 C 3.09 g/m*3 -2.5 C 0 km/h
646 04-01-2004 13:44:00 -2.4 C 3.11 g/m*3 -2.4 C 0 km/h
647 04-01-2004 13:56:00 -2.3 C 3.1 g/m*3 -2.3 C 0 km/h
648 04-01-2004 14:08:58 -2.2 C 3.12 g/m*3 -2.2 C 0 km/h
649 04-01-2004 14:20:58 -2.1 C 3.14 g/m*3 -2.1 C 0 km/h
650 04-01-2004 14:32:01 -1.9 C 3.14 g/m*3 -1.9 C 0 km/h
Sensor: Nr:Datum:Temp:Abs-Feuchte:Windchill:Wind:
Aussen-T/F 651 04-01-2004 14:44:01 -1.8 C 3.16 g/m*3 -1.8 C 0 km/h
652 04-01-2004 14:56:01 -1.6 C 3.21 g/m*3 -1.6 C 0 km/h
653 04-01-2004 15:08:01 -1.6 C 3.25 g/m*3 -1.6 C 0 km/h
654 04-01-2004 15:20:01 -1.4 C 3.25 g/m*3 -1.4 C 0 km/h
655 04-01-2004 15:32:01 -1.4 C 3.25 g/m*3 -1.4 C 0 km/h
656 04-01-2004 15:44:01 -1.4 C 3.3 g/m*3 -1.4 C 0 km/h
657 04-01-2004 15:56:01 -1.6 C 3.38 g/m*3 -1.6 C 0 km/h
658 04-01-2004 16:08:01 -1.5 C 3.45 g/m*3 -1.5 C 0 km/h
659 04-01-2004 16:20:01 -1.3 C 3.41 g/m*3 -1.3 C 0 km/h
660 04-01-2004 16:32:00 -1 C 3.39 g/m*3 -1 C 0 km/h
661 04-01-2004 16:44:00 -1 C 3.39 g/m*3 -1 C 0 km/h
662 04-01-2004 16:56:00 -1.1 C 3.5 g/m*3 -1.1 C 0 km/h
663 04-01-2004 17:08:59 -0.9 C 3.55 g/m*3 -0.9 C 0 km/h
664 04-01-2004 17:20:59 -0.7 C 3.51 g/m*3 -0.7 C 0 km/h
665 04-01-2004 17:32:01 -0.8 C 3.48 g/m*3 -0.8 C 0 km/h
666 04-01-2004 17:44:01 -0.8 C 3.48 g/m*3 -0.8 C 0 km/h
667 04-01-2004 17:56:01 -0.9 C 3.51 g/m*3 -0.9 C 0 km/h
668 04-01-2004 18:08:01 -0.8 C 3.53 g/m*3 -0.8 C 0 km/h
669 04-01-2004 18:20:01 -0.9 C 3.55 g/m*3 -0.9 C 0 km/h
670 04-01-2004 18:32:00 -0.9 C 3.64 g/m*3 -0.9 C 0 km/h
671 04-01-2004 18:44:00 -0.8 C 3.71 g/m*3 -0.8 C 0 km/h
672 04-01-2004 18:56:00 -0.6 C 3.67 g/m*3 -0.6 C 0 km/h
673 04-01-2004 19:08:59 -0.4 C 3.68 g/m*3 -0.4 C 0 km/h
674 04-01-2004 19:20:59 -0.4 C 3.68 g/m*3 -0.4 C 0 km/h
675 04-01-2004 19:32:01 -0.3 C 3.7 g/m*3 -0.3 C 0 km/h
Sensor: Nr:Datum:Temp:Abs-Feuchte:Windchill:Wind:
Aussen-T/F 676 04-01-2004 19:44:01 -0.2 C 3.73 g/m*3 -0.2 C 0 km/h
677 04-01-2004 19:56:01 -0.1 C 3.75 g/m*3 -0.1 C 0 km/h
678 04-01-2004 20:08:01 0 C 3.78 g/m*3 0 C 0 km/h
679 04-01-2004 20:20:01 0 C 3.78 g/m*3 0 C 0 km/h
680 04-01-2004 20:32:00 0 C 3.78 g/m*3 0 C 0 km/h
681 04-01-2004 20:44:00 0.1 C 3.81 g/m*3 0.1 C 0 km/h
682 04-01-2004 20:56:00 0 C 3.73 g/m*3 0 C 0 km/h
683 04-01-2004 21:08:58 0.1 C 3.76 g/m*3 0.1 C 0 km/h
684 04-01-2004 21:20:58 0.1 C 3.76 g/m*3 0.1 C 0 km/h
685 04-01-2004 21:32:01 0.1 C 3.76 g/m*3 0.1 C 0 km/h
686 04-01-2004 21:44:01 0.1 C 3.81 g/m*3 0.1 C 0 km/h
687 04-01-2004 21:56:01 0.1 C 3.81 g/m*3 0.1 C 0 km/h
688 04-01-2004 22:08:01 0.1 C 3.81 g/m*3 0.1 C 0 km/h
689 04-01-2004 22:20:01 0.2 C 3.78 g/m*3 0.2 C 0 km/h
690 04-01-2004 22:32:00 0.2 C 3.78 g/m*3 0.2 C 0 km/h
691 04-01-2004 22:44:00 0.2 C 3.78 g/m*3 0.2 C 0 km/h
692 04-01-2004 22:56:00 0 C 3.83 g/m*3 0 C 0 km/h
693 04-01-2004 23:08:58 -0.2 C 3.92 g/m*3 -0.2 C 0 km/h
694 04-01-2004 23:20:58 0.1 C 3.95 g/m*3 0.1 C 0 km/h
695 04-01-2004 23:32:01 0.2 C 3.93 g/m*3 0.2 C 0 km/h
696 04-01-2004 23:44:01 0.2 C 3.98 g/m*3 0.2 C 0 km/h
697 04-01-2004 23:56:01 0.4 C 3.98 g/m*3 0.4 C 0 km/h
698 05-01-2004 00:08:01 0.3 C 3.96 g/m*3 0.3 C 0 km/h
699 05-01-2004 00:20:01 0.1 C 4 g/m*3 0.1 C 0 km/h
700 05-01-2004 00:32:00 0.3 C 4.01 g/m*3 0.3 C 0 km/h
Sensor: Nr:Datum:Temp:Abs-Feuchte:Windchill:Wind:
Aussen-T/F 701 05-01-2004 00:44:00 0.3 C 3.96 g/m*3 0.3 C 0 km/h
702 05-01-2004 00:56:00 0.4 C 3.93 g/m*3 0.4 C 0 km/h
703 05-01-2004 01:08:59 0.4 C 3.93 g/m*3 0.4 C 0 km/h
704 05-01-2004 01:20:59 0.4 C 3.93 g/m*3 0.4 C 0 km/h
705 05-01-2004 01:32:01 0.5 C 3.96 g/m*3 0.5 C 0 km/h
706 05-01-2004 01:44:01 0.5 C 3.96 g/m*3 0.5 C 0 km/h
707 05-01-2004 01:56:01 0.5 C 3.96 g/m*3 0.5 C 0 km/h
708 05-01-2004 02:08:01 0.5 C 3.96 g/m*3 0.5 C 0 km/h
709 05-01-2004 02:20:01 0.6 C 3.99 g/m*3 0.6 C 0 km/h
710 05-01-2004 02:32:00 0.6 C 3.99 g/m*3 0.6 C 0 km/h
711 05-01-2004 02:44:00 0.8 C 3.99 g/m*3 0.8 C 0 km/h
712 05-01-2004 02:56:00 0.9 C 4.02 g/m*3 0.9 C 0 km/h
713 05-01-2004 03:09:01 1 C 4 g/m*3 1 C 0 km/h
714 05-01-2004 03:21:01 1 C 4.05 g/m*3 1 C 0 km/h
715 05-01-2004 03:33:00 1.1 C 4.08 g/m*3 1.1 C 0 km/h
716 05-01-2004 03:45:00 1.3 C 4.13 g/m*3 1.3 C 0 km/h
717 05-01-2004 03:57:00 1.3 C 4.13 g/m*3 1.3 C 0 km/h
718 05-01-2004 04:09:01 1 C 4.1 g/m*3 1 C 0 km/h
719 05-01-2004 04:21:01 0.9 C 4.18 g/m*3 0.9 C 0 km/h
720 05-01-2004 04:33:00 0.8 C 4.2 g/m*3 0.8 C 0 km/h
721 05-01-2004 04:45:00 0.8 C 4.25 g/m*3 0.8 C 0 km/h
722 05-01-2004 04:57:01 0.7 C 4.22 g/m*3 0.7 C 0 km/h
723 05-01-2004 05:09:01 0.7 C 4.27 g/m*3 0.7 C 0 km/h
724 05-01-2004 05:21:01 0.9 C 4.33 g/m*3 0.9 C 0 km/h
725 05-01-2004 05:33:00 0.8 C 4.3 g/m*3 0.8 C 0 km/h
Sensor: Nr:Datum:Temp:Abs-Feuchte:Windchill:Wind:
Aussen-T/F 726 05-01-2004 05:45:00 0.9 C 4.33 g/m*3 0.9 C 0 km/h
727 05-01-2004 05:57:00 0.8 C 4.3 g/m*3 0.8 C 0 km/h
728 05-01-2004 06:09:01 0.8 C 4.35 g/m*3 0.8 C 0 km/h
729 05-01-2004 06:21:01 0.8 C 4.35 g/m*3 0.8 C 0 km/h
730 05-01-2004 06:33:00 0.8 C 4.4 g/m*3 0.8 C 0 km/h
731 05-01-2004 06:45:00 0.8 C 4.4 g/m*3 0.8 C 0 km/h
732 05-01-2004 06:57:00 0.9 C 4.43 g/m*3 0.9 C 0 km/h
733 05-01-2004 07:09:00 0.9 C 4.43 g/m*3 0.9 C 0 km/h
734 05-01-2004 07:21:00 1 C 4.41 g/m*3 1 C 0 km/h
735 05-01-2004 07:33:00 0.9 C 4.43 g/m*3 0.9 C 0 km/h
736 05-01-2004 07:45:01 0.9 C 4.43 g/m*3 0.9 C 0 km/h
737 05-01-2004 07:57:01 0.9 C 4.48 g/m*3 0.9 C 0 km/h
738 05-01-2004 08:09:00 0.9 C 4.48 g/m*3 0.9 C 0 km/h
739 05-01-2004 08:21:00 1 C 4.46 g/m*3 1 C 0 km/h
740 05-01-2004 08:33:01 1.1 C 4.49 g/m*3 1.1 C 0 km/h
741 05-01-2004 08:45:01 1 C 4.46 g/m*3 1 C 0 km/h
742 05-01-2004 08:57:01 1 C 4.41 g/m*3 1 C 0 km/h
743 05-01-2004 09:09:00 0.9 C 4.43 g/m*3 0.9 C 0 km/h
744 05-01-2004 09:21:00 0.9 C 4.48 g/m*3 0.9 C 0 km/h
745 05-01-2004 09:33:01 0.9 C 4.48 g/m*3 0.9 C 0 km/h
746 05-01-2004 09:45:01 0.8 C 4.45 g/m*3 0.8 C 0 km/h
747 05-01-2004 09:57:01 0.9 C 4.48 g/m*3 0.9 C 0 km/h
748 05-01-2004 10:09:00 1 C 4.52 g/m*3 1 C 0 km/h
749 05-01-2004 10:21:00 1 C 4.52 g/m*3 1 C 0 km/h
750 05-01-2004 10:33:01 1 C 4.52 g/m*3 1 C 0 km/h
Sensor: Nr:Datum:Temp:Abs-Feuchte:Windchill:Wind:
Aussen-T/F 751 05-01-2004 10:45:01 1 C 4.52 g/m*3 1 C 0 km/h
752 05-01-2004 10:57:01 1 C 4.52 g/m*3 1 C 0 km/h
753 05-01-2004 11:09:00 1 C 4.46 g/m*3 1 C 0 km/h
754 05-01-2004 11:21:00 1.1 C 4.49 g/m*3 1.1 C 0 km/h
755 05-01-2004 11:33:00 1.3 C 4.56 g/m*3 1.3 C 0 km/h
756 05-01-2004 11:45:00 1.2 C 4.47 g/m*3 1.2 C 0 km/h
757 05-01-2004 11:57:00 1.3 C 4.5 g/m*3 1.3 C 0 km/h
758 05-01-2004 12:09:01 1.4 C 4.48 g/m*3 1.4 C 0 km/h
759 05-01-2004 12:21:01 1.5 C 4.51 g/m*3 1.5 C 0 km/h
760 05-01-2004 12:33:00 1.5 C 4.46 g/m*3 1.5 C 0 km/h
761 05-01-2004 12:45:00 1.6 C 4.43 g/m*3 1.6 C 0 km/h
762 05-01-2004 12:57:00 1.8 C 4.44 g/m*3 1.8 C 0 km/h
763 05-01-2004 13:09:01 2 C 4.39 g/m*3 2 C 0 km/h
764 05-01-2004 13:21:01 2.1 C 4.42 g/m*3 2.1 C 0 km/h
765 05-01-2004 13:33:00 2.1 C 4.36 g/m*3 2.1 C 0 km/h
766 05-01-2004 13:45:00 2 C 4.39 g/m*3 2 C 0 km/h
767 05-01-2004 13:57:00 2 C 4.39 g/m*3 2 C 0 km/h
768 05-01-2004 14:09:01 2 C 4.33 g/m*3 2 C 0 km/h
769 05-01-2004 14:21:01 1.9 C 4.36 g/m*3 1.9 C 0 km/h
770 05-01-2004 14:33:00 1.9 C 4.36 g/m*3 1.9 C 0 km/h
771 05-01-2004 14:45:00 1.9 C 4.36 g/m*3 1.9 C 0 km/h
772 05-01-2004 14:57:00 1.9 C 4.42 g/m*3 1.9 C 0 km/h
773 05-01-2004 15:09:00 1.8 C 4.39 g/m*3 1.8 C 0 km/h
774 05-01-2004 15:21:00 1.8 C 4.44 g/m*3 1.8 C 0 km/h
775 05-01-2004 15:33:00 1.8 C 4.39 g/m*3 1.8 C 0 km/h
Sensor: Nr:Datum:Temp:Abs-Feuchte:Windchill:Wind:
Aussen-T/F 776 05-01-2004 15:45:00 1.7 C 4.41 g/m*3 1.7 C 0 km/h
777 05-01-2004 15:57:01 1.7 C 4.41 g/m*3 1.7 C 0 km/h
778 05-01-2004 16:09:00 1.7 C 4.41 g/m*3 1.7 C 0 km/h
779 05-01-2004 16:21:00 1.7 C 4.41 g/m*3 1.7 C 0 km/h
780 05-01-2004 16:33:01 1.7 C 4.41 g/m*3 1.7 C 0 km/h
781 05-01-2004 16:45:01 1.6 C 4.38 g/m*3 1.6 C 0 km/h
782 05-01-2004 16:57:01 1.5 C 4.4 g/m*3 1.5 C 0 km/h
783 05-01-2004 17:09:00 1.5 C 4.4 g/m*3 1.5 C 0 km/h
784 05-01-2004 17:21:00 1.5 C 4.4 g/m*3 1.5 C 0 km/h
785 05-01-2004 17:33:01 1.4 C 4.43 g/m*3 1.4 C 0 km/h
786 05-01-2004 17:45:01 1.4 C 4.43 g/m*3 1.4 C 0 km/h
787 05-01-2004 17:57:01 1.4 C 4.43 g/m*3 1.4 C 0 km/h
788 05-01-2004 18:09:00 1.4 C 4.48 g/m*3 1.4 C 0 km/h
789 05-01-2004 18:21:00 1.4 C 4.48 g/m*3 1.4 C 0 km/h
790 05-01-2004 18:33:01 1.4 C 4.48 g/m*3 1.4 C 0 km/h
791 05-01-2004 18:45:01 1.3 C 4.45 g/m*3 1.3 C 0 km/h
792 05-01-2004 18:57:01 1.3 C 4.45 g/m*3 1.3 C 0 km/h
793 05-01-2004 19:09:00 1.3 C 4.45 g/m*3 1.3 C 0 km/h
794 05-01-2004 19:21:00 1.1 C 4.44 g/m*3 1.1 C 0 km/h
795 05-01-2004 19:34:01 1.1 C 4.44 g/m*3 1.1 C 0 km/h
796 05-01-2004 19:46:01 1.1 C 4.44 g/m*3 1.1 C 0 km/h
797 05-01-2004 19:58:01 1.1 C 4.44 g/m*3 1.1 C 0 km/h
798 05-01-2004 20:10:00 1.1 C 4.44 g/m*3 1.1 C 0 km/h
799 05-01-2004 20:22:00 1.1 C 4.49 g/m*3 1.1 C 0 km/h
800 05-01-2004 20:34:00 1.1 C 4.49 g/m*3 1.1 C 0 km/h
Sensor: Nr:Datum:Temp:Abs-Feuchte:Windchill:Wind:
Aussen-T/F 801 05-01-2004 20:46:00 1.1 C 4.49 g/m*3 1.1 C 0 km/h
802 05-01-2004 20:58:00 1.1 C 4.49 g/m*3 1.1 C 0 km/h
803 05-01-2004 21:07:01 1.1 C 4.49 g/m*3 1.1 C 0 km/h
804 05-01-2004 21:19:01 1.2 C 4.58 g/m*3 1.2 C 0 km/h
805 05-01-2004 21:31:01 1.2 C 4.58 g/m*3 1.2 C 0 km/h
806 05-01-2004 21:43:00 1.2 C 4.58 g/m*3 1.2 C 0 km/h
807 05-01-2004 21:55:00 1.2 C 4.58 g/m*3 1.2 C 0 km/h
808 05-01-2004 22:07:01 1.2 C 4.58 g/m*3 1.2 C 0 km/h
809 05-01-2004 22:19:01 1.3 C 4.61 g/m*3 1.3 C 0 km/h
810 05-01-2004 22:31:01 1.3 C 4.61 g/m*3 1.3 C 0 km/h
811 05-01-2004 22:43:00 1.3 C 4.61 g/m*3 1.3 C 0 km/h
812 05-01-2004 22:55:00 1.3 C 4.61 g/m*3 1.3 C 0 km/h
813 05-01-2004 23:07:01 1.3 C 4.61 g/m*3 1.3 C 0 km/h
814 05-01-2004 23:19:01 1.4 C 4.64 g/m*3 1.4 C 0 km/h
815 05-01-2004 23:31:01 1.4 C 4.64 g/m*3 1.4 C 0 km/h
816 05-01-2004 23:43:00 1.4 C 4.64 g/m*3 1.4 C 0 km/h
817 05-01-2004 23:55:00 1.4 C 4.64 g/m*3 1.4 C 0 km/h
818 06-01-2004 00:07:01 1.4 C 4.64 g/m*3 1.4 C 0 km/h
819 06-01-2004 00:19:01 1.5 C 4.73 g/m*3 1.5 C 0 km/h
820 06-01-2004 00:31:01 1.5 C 4.73 g/m*3 1.5 C 0 km/h
821 06-01-2004 00:43:00 1.6 C 4.76 g/m*3 1.6 C 0 km/h
822 06-01-2004 00:55:00 1.6 C 4.7 g/m*3 1.6 C 0 km/h
823 06-01-2004 01:07:00 1.5 C 4.67 g/m*3 1.5 C 0 km/h
824 06-01-2004 01:19:00 1.5 C 4.67 g/m*3 1.5 C 0 km/h
825 06-01-2004 01:31:00 1.5 C 4.73 g/m*3 1.5 C 0 km/h
Sensor: Nr:Datum:Temp:Abs-Feuchte:Windchill:Wind:
Aussen-T/F 826 06-01-2004 01:43:00 1.5 C 4.73 g/m*3 1.5 C 0 km/h
827 06-01-2004 01:55:01 1.4 C 4.69 g/m*3 1.4 C 0 km/h
828 06-01-2004 02:07:00 1.4 C 4.69 g/m*3 1.4 C 0 km/h
829 06-01-2004 02:19:00 1.4 C 4.69 g/m*3 1.4 C 0 km/h
830 06-01-2004 02:31:00 1.5 C 4.73 g/m*3 1.5 C 0 km/h
831 06-01-2004 02:43:01 1.5 C 4.73 g/m*3 1.5 C 0 km/h
832 06-01-2004 02:55:01 1.5 C 4.73 g/m*3 1.5 C 0 km/h
833 06-01-2004 03:07:00 1.5 C 4.73 g/m*3 1.5 C 0 km/h
834 06-01-2004 03:19:00 1.5 C 4.73 g/m*3 1.5 C 0 km/h
835 06-01-2004 03:31:00 1.6 C 4.76 g/m*3 1.6 C 0 km/h
836 06-01-2004 03:43:01 1.6 C 4.76 g/m*3 1.6 C 0 km/h
837 06-01-2004 03:55:01 1.6 C 4.76 g/m*3 1.6 C 0 km/h
838 06-01-2004 04:07:00 1.6 C 4.76 g/m*3 1.6 C 0 km/h
839 06-01-2004 04:19:00 1.5 C 4.73 g/m*3 1.5 C 0 km/h
840 06-01-2004 04:31:00 1.6 C 4.76 g/m*3 1.6 C 0 km/h
841 06-01-2004 04:43:01 1.5 C 4.73 g/m*3 1.5 C 0 km/h
842 06-01-2004 04:55:01 1.6 C 4.76 g/m*3 1.6 C 0 km/h
843 06-01-2004 05:07:00 1.6 C 4.76 g/m*3 1.6 C 0 km/h
844 06-01-2004 05:19:00 1.6 C 4.76 g/m*3 1.6 C 0 km/h
845 06-01-2004 05:31:00 1.6 C 4.76 g/m*3 1.6 C 0 km/h
846 06-01-2004 05:43:00 1.6 C 4.76 g/m*3 1.6 C 0 km/h
847 06-01-2004 05:55:00 1.6 C 4.76 g/m*3 1.6 C 0 km/h
848 06-01-2004 06:07:00 1.6 C 4.76 g/m*3 1.6 C 0 km/h
849 06-01-2004 06:19:00 1.6 C 4.76 g/m*3 1.6 C 0 km/h
850 06-01-2004 06:31:01 1.6 C 4.76 g/m*3 1.6 C 0 km/h
Sensor: Nr:Datum:Temp:Abs-Feuchte:Windchill:Wind:
Aussen-T/F 851 06-01-2004 06:43:00 1.6 C 4.76 g/m*3 1.6 C 0 km/h
852 06-01-2004 06:55:00 1.6 C 4.76 g/m*3 1.6 C 0 km/h
853 06-01-2004 07:07:01 1.7 C 4.79 g/m*3 1.7 C 0 km/h
854 06-01-2004 07:19:01 1.6 C 4.76 g/m*3 1.6 C 0 km/h
855 06-01-2004 07:31:01 1.6 C 4.76 g/m*3 1.6 C 0 km/h
856 06-01-2004 07:43:00 1.6 C 4.76 g/m*3 1.6 C 0 km/h
857 06-01-2004 07:55:00 1.6 C 4.76 g/m*3 1.6 C 0 km/h
858 06-01-2004 08:07:01 1.7 C 4.85 g/m*3 1.7 C 0 km/h
859 06-01-2004 08:19:01 1.7 C 4.85 g/m*3 1.7 C 0 km/h
860 06-01-2004 08:31:01 1.8 C 4.88 g/m*3 1.8 C 0 km/h
861 06-01-2004 08:43:00 1.8 C 4.88 g/m*3 1.8 C 0 km/h
862 06-01-2004 08:55:00 1.8 C 4.88 g/m*3 1.8 C 0 km/h
863 06-01-2004 09:07:01 1.9 C 4.91 g/m*3 1.9 C 0 km/h
864 06-01-2004 09:19:01 2 C 4.95 g/m*3 2 C 0 km/h
865 06-01-2004 09:31:01 2.1 C 4.98 g/m*3 2.1 C 0 km/h
866 06-01-2004 09:43:00 2.1 C 4.98 g/m*3 2.1 C 0 km/h
867 06-01-2004 09:55:00 2.2 C 5.01 g/m*3 2.2 C 0 km/h
868 06-01-2004 10:07:01 2.3 C 5.05 g/m*3 2.3 C 0 km/h
869 06-01-2004 10:19:01 2.3 C 5.05 g/m*3 2.3 C 0 km/h
870 06-01-2004 10:31:01 2.5 C 5.12 g/m*3 2.5 C 0 km/h
871 06-01-2004 10:43:00 2.6 C 5.15 g/m*3 2.6 C 0 km/h
872 06-01-2004 10:55:00 2.7 C 5.19 g/m*3 2.7 C 0 km/h
873 06-01-2004 11:07:00 2.9 C 5.26 g/m*3 2.9 C 0 km/h
874 06-01-2004 11:19:00 3.2 C 5.36 g/m*3 3.2 C 0 km/h
875 06-01-2004 11:31:00 3.3 C 5.4 g/m*3 3.3 C 0 km/h
Sensor: Nr:Datum:Temp:Abs-Feuchte:Windchill:Wind:
Aussen-T/F 876 06-01-2004 11:43:00 3.4 C 5.37 g/m*3 3.4 C 0 km/h
877 06-01-2004 11:55:01 3.4 C 5.37 g/m*3 3.4 C 0 km/h
878 06-01-2004 12:08:00 3.6 C 5.39 g/m*3 3.6 C 0 km/h
879 06-01-2004 12:20:00 3.8 C 5.46 g/m*3 3.8 C 0 km/h
880 06-01-2004 12:32:01 3.9 C 5.43 g/m*3 3.9 C 0 km/h
881 06-01-2004 12:44:01 3.9 C 5.43 g/m*3 3.9 C 0 km/h
882 06-01-2004 12:56:01 4 C 5.4 g/m*3 4 C 0 km/h
883 06-01-2004 13:08:00 4 C 5.4 g/m*3 4 C 0 km/h
884 06-01-2004 13:20:00 4.1 C 5.44 g/m*3 4.1 C 0 km/h
885 06-01-2004 13:32:01 4.2 C 5.48 g/m*3 4.2 C 0 km/h
886 06-01-2004 13:44:01 4.2 C 5.41 g/m*3 4.2 C 0 km/h
887 06-01-2004 13:56:01 4.2 C 5.41 g/m*3 4.2 C 0 km/h
888 06-01-2004 14:08:00 4.1 C 5.44 g/m*3 4.1 C 0 km/h
889 06-01-2004 14:20:00 4 C 5.4 g/m*3 4 C 0 km/h
890 06-01-2004 14:32:00 3.7 C 5.42 g/m*3 3.7 C 0 km/h
891 06-01-2004 14:44:00 3.6 C 5.39 g/m*3 3.6 C 0 km/h
892 06-01-2004 14:56:00 3.4 C 5.31 g/m*3 3.4 C 0 km/h
893 06-01-2004 15:08:00 3.4 C 5.37 g/m*3 3.4 C 0 km/h
894 06-01-2004 15:20:00 3.5 C 5.41 g/m*3 3.5 C 0 km/h
895 06-01-2004 15:32:00 3.6 C 5.51 g/m*3 3.6 C 0 km/h
896 06-01-2004 15:44:00 3.7 C 5.55 g/m*3 3.7 C 0 km/h
897 06-01-2004 15:56:00 3.6 C 5.51 g/m*3 3.6 C 0 km/h
898 06-01-2004 16:08:01 3.5 C 5.47 g/m*3 3.5 C 0 km/h
899 06-01-2004 16:20:01 3.4 C 5.44 g/m*3 3.4 C 0 km/h
900 06-01-2004 16:32:00 3.4 C 5.44 g/m*3 3.4 C 0 km/h
Sensor: Nr:Datum:Temp:Abs-Feuchte:Windchill:Wind:
Aussen-T/F 901 06-01-2004 16:44:00 3.6 C 5.51 g/m*3 3.6 C 0 km/h
902 06-01-2004 16:56:00 3.6 C 5.51 g/m*3 3.6 C 0 km/h
903 06-01-2004 17:08:01 3.6 C 5.51 g/m*3 3.6 C 0 km/h
904 06-01-2004 17:20:01 3.5 C 5.47 g/m*3 3.5 C 0 km/h
905 06-01-2004 17:32:01 3.7 C 5.61 g/m*3 3.7 C 0 km/h
906 06-01-2004 17:44:01 4 C 5.66 g/m*3 4 C 0 km/h
907 06-01-2004 17:56:01 4 C 5.59 g/m*3 4 C 0 km/h
908 06-01-2004 18:08:01 4 C 5.59 g/m*3 4 C 0 km/h
909 06-01-2004 18:20:00 4.1 C 5.57 g/m*3 4.1 C 0 km/h
910 06-01-2004 18:32:00 4.2 C 5.61 g/m*3 4.2 C 0 km/h
911 06-01-2004 18:44:00 4.4 C 5.62 g/m*3 4.4 C 0 km/h
912 06-01-2004 18:56:00 4.3 C 5.58 g/m*3 4.3 C 0 km/h
913 06-01-2004 19:08:01 4.3 C 5.58 g/m*3 4.3 C 0 km/h
914 06-01-2004 19:20:01 4.4 C 5.62 g/m*3 4.4 C 0 km/h
915 06-01-2004 19:32:00 4.4 C 5.55 g/m*3 4.4 C 0 km/h
916 06-01-2004 19:44:00 4.4 C 5.55 g/m*3 4.4 C 0 km/h
917 06-01-2004 19:56:00 4.4 C 5.55 g/m*3 4.4 C 0 km/h
918 06-01-2004 20:08:01 4.4 C 5.48 g/m*3 4.4 C 0 km/h
919 06-01-2004 20:20:01 4.4 C 5.48 g/m*3 4.4 C 0 km/h
920 06-01-2004 20:32:01 4.5 C 5.52 g/m*3 4.5 C 0 km/h
921 06-01-2004 20:44:01 4.5 C 5.52 g/m*3 4.5 C 0 km/h
922 06-01-2004 20:56:01 4.5 C 5.52 g/m*3 4.5 C 0 km/h
923 06-01-2004 21:08:00 4.5 C 5.46 g/m*3 4.5 C 0 km/h
924 06-01-2004 21:20:00 4.7 C 5.53 g/m*3 4.7 C 0 km/h
925 06-01-2004 21:32:01 4.7 C 5.53 g/m*3 4.7 C 0 km/h
Sensor: Nr:Datum:Temp:Abs-Feuchte:Windchill:Wind:
Aussen-T/F 926 06-01-2004 21:44:01 4.8 C 5.57 g/m*3 4.8 C 0 km/h
927 06-01-2004 21:56:01 5 C 5.57 g/m*3 5 C 0 km/h
928 06-01-2004 22:08:00 4.9 C 5.6 g/m*3 4.9 C 0 km/h
929 06-01-2004 22:20:00 4.8 C 5.57 g/m*3 4.8 C 0 km/h
930 06-01-2004 22:32:01 4.8 C 5.57 g/m*3 4.8 C 0 km/h
931 06-01-2004 22:44:01 4.8 C 5.57 g/m*3 4.8 C 0 km/h
932 06-01-2004 22:56:01 4.8 C 5.57 g/m*3 4.8 C 0 km/h
933 06-01-2004 23:08:00 4.8 C 5.57 g/m*3 4.8 C 0 km/h
934 06-01-2004 23:20:00 4.8 C 5.57 g/m*3 4.8 C 0 km/h
935 06-01-2004 23:32:01 4.8 C 5.57 g/m*3 4.8 C 0 km/h
936 06-01-2004 23:44:01 4.6 C 5.49 g/m*3 4.6 C 0 km/h
937 06-01-2004 23:56:01 4.6 C 5.56 g/m*3 4.6 C 0 km/h
938 07-01-2004 00:08:00 4.5 C 5.52 g/m*3 4.5 C 0 km/h
939 07-01-2004 00:20:00 4.5 C 5.52 g/m*3 4.5 C 0 km/h
940 07-01-2004 00:32:01 4.5 C 5.59 g/m*3 4.5 C 0 km/h
941 07-01-2004 00:44:01 4.6 C 5.56 g/m*3 4.6 C 0 km/h
942 07-01-2004 00:56:01 4.7 C 5.6 g/m*3 4.7 C 0 km/h
943 07-01-2004 01:06:17 4.8 C 5.63 g/m*3 4.8 C 0 km/h
944 07-01-2004 01:18:17 4.9 C 5.67 g/m*3 4.9 C 0 km/h
945 07-01-2004 01:30:47 4.9 C 5.67 g/m*3 4.9 C 0 km/h
946 07-01-2004 01:42:47 4.8 C 5.63 g/m*3 4.8 C 0 km/h
947 07-01-2004 01:54:47 4.6 C 5.56 g/m*3 4.6 C 0 km/h
948 07-01-2004 02:06:00 4.6 C 5.56 g/m*3 4.6 C 0 km/h
949 07-01-2004 02:18:00 4.6 C 5.56 g/m*3 4.6 C 0 km/h
950 07-01-2004 02:30:00 4.7 C 5.6 g/m*3 4.7 C 0 km/h
Sensor: Nr:Datum:Temp:Abs-Feuchte:Windchill:Wind:
Aussen-T/F 951 07-01-2004 02:42:01 4.6 C 5.56 g/m*3 4.6 C 0 km/h
952 07-01-2004 02:54:01 4.5 C 5.52 g/m*3 4.5 C 0 km/h
953 07-01-2004 03:06:00 4.4 C 5.48 g/m*3 4.4 C 0 km/h
954 07-01-2004 03:18:00 4.2 C 5.41 g/m*3 4.2 C 0 km/h
955 07-01-2004 03:30:00 4.1 C 5.44 g/m*3 4.1 C 0 km/h
956 07-01-2004 03:42:00 4.3 C 5.51 g/m*3 4.3 C 0 km/h
957 07-01-2004 03:54:00 4.3 C 5.51 g/m*3 4.3 C 0 km/h
958 07-01-2004 04:06:00 4.2 C 5.48 g/m*3 4.2 C 0 km/h
959 07-01-2004 04:18:00 4.1 C 5.44 g/m*3 4.1 C 0 km/h
960 07-01-2004 04:30:00 4.1 C 5.5 g/m*3 4.1 C 0 km/h
961 07-01-2004 04:42:01 4.2 C 5.54 g/m*3 4.2 C 0 km/h
962 07-01-2004 04:54:01 4.4 C 5.62 g/m*3 4.4 C 0 km/h
963 07-01-2004 05:06:00 4.5 C 5.59 g/m*3 4.5 C 0 km/h
964 07-01-2004 05:18:00 4.6 C 5.62 g/m*3 4.6 C 0 km/h
965 07-01-2004 05:30:01 4.7 C 5.66 g/m*3 4.7 C 0 km/h
966 07-01-2004 05:42:00 4.9 C 5.67 g/m*3 4.9 C 0 km/h
967 07-01-2004 05:54:00 5 C 5.64 g/m*3 5 C 0 km/h
968 07-01-2004 06:06:00 5.1 C 5.61 g/m*3 5.1 C 0 km/h
969 07-01-2004 06:18:00 5.2 C 5.58 g/m*3 5.2 C 0 km/h
970 07-01-2004 06:30:00 5.1 C 5.54 g/m*3 5.1 C 0 km/h
971 07-01-2004 06:42:01 5.1 C 5.54 g/m*3 5.1 C 0 km/h
972 07-01-2004 06:54:01 5 C 5.5 g/m*3 5 C 0 km/h
973 07-01-2004 07:06:01 5 C 5.5 g/m*3 5 C 0 km/h
974 07-01-2004 07:18:01 4.9 C 5.6 g/m*3 4.9 C 0 km/h
975 07-01-2004 07:30:01 4.8 C 5.57 g/m*3 4.8 C 0 km/h
Sensor: Nr:Datum:Temp:Abs-Feuchte:Windchill:Wind:
Aussen-T/F 976 07-01-2004 07:42:00 4.9 C 5.6 g/m*3 4.9 C 0 km/h
977 07-01-2004 07:54:00 5 C 5.57 g/m*3 5 C 0 km/h
978 07-01-2004 08:06:00 5.1 C 5.54 g/m*3 5.1 C 0 km/h
979 07-01-2004 08:18:00 5 C 5.5 g/m*3 5 C 0 km/h
980 07-01-2004 08:30:00 5.2 C 5.58 g/m*3 5.2 C 0 km/h
981 07-01-2004 08:42:00 5.2 C 5.58 g/m*3 5.2 C 0 km/h
982 07-01-2004 08:54:00 5.2 C 5.58 g/m*3 5.2 C 0 km/h
983 07-01-2004 09:06:01 5.1 C 5.54 g/m*3 5.1 C 0 km/h
984 07-01-2004 09:18:01 5.1 C 5.54 g/m*3 5.1 C 0 km/h
985 07-01-2004 09:30:01 5.1 C 5.54 g/m*3 5.1 C 0 km/h
986 07-01-2004 09:42:01 5.1 C 5.61 g/m*3 5.1 C 0 km/h
987 07-01-2004 09:54:01 5.3 C 5.68 g/m*3 5.3 C 0 km/h
988 07-01-2004 10:06:00 5.6 C 5.8 g/m*3 5.6 C 0 km/h
989 07-01-2004 10:18:00 5.9 C 5.84 g/m*3 5.9 C 0 km/h
990 07-01-2004 10:30:00 5.7 C 5.69 g/m*3 5.7 C 0 km/h
991 07-01-2004 10:42:00 5.6 C 5.73 g/m*3 5.6 C 0 km/h
992 07-01-2004 10:54:00 5.6 C 5.73 g/m*3 5.6 C 0 km/h
993 07-01-2004 11:06:00 5.4 C 5.65 g/m*3 5.4 C 0 km/h
994 07-01-2004 11:18:00 5.5 C 5.76 g/m*3 5.5 C 0 km/h
995 07-01-2004 11:30:00 6.1 C 5.92 g/m*3 6.1 C 0 km/h
996 07-01-2004 11:42:01 6.6 C 5.89 g/m*3 6.6 C 0 km/h
997 07-01-2004 11:54:01 6.6 C 5.89 g/m*3 6.6 C 0 km/h
998 07-01-2004 12:06:01 6.7 C 5.85 g/m*3 6.7 C 0 km/h
999 07-01-2004 12:18:01 6.7 C 5.85 g/m*3 6.7 C 0 km/h
1000 07-01-2004 12:30:01 6.7 C 5.85 g/m*3 6.7 C 0 km/h
Sensor: Nr:Datum:Temp:Abs-Feuchte:Windchill:Wind:
Aussen-T/F 1001 07-01-2004 12:42:00 6.7 C 5.85 g/m*3 6.7 C 0 km/h
1002 07-01-2004 12:54:00 6.6 C 5.89 g/m*3 6.6 C 0 km/h
1003 07-01-2004 13:06:00 6.8 C 5.97 g/m*3 6.8 C 0 km/h
1004 07-01-2004 13:18:00 7 C 5.89 g/m*3 7 C 0 km/h
1005 07-01-2004 13:30:00 6.9 C 6 g/m*3 6.9 C 0 km/h
1006 07-01-2004 13:42:00 6.9 C 6 g/m*3 6.9 C 0 km/h
1007 07-01-2004 13:54:00 7.2 C 6.04 g/m*3 7.2 C 0 km/h
1008 07-01-2004 14:06:01 7.4 C 6.04 g/m*3 7.4 C 0 km/h
1009 07-01-2004 14:18:01 7.4 C 5.96 g/m*3 7.4 C 0 km/h
1010 07-01-2004 14:30:01 7.5 C 6 g/m*3 7.5 C 0 km/h
1011 07-01-2004 14:42:00 7.6 C 6.04 g/m*3 7.6 C 0 km/h
1012 07-01-2004 14:54:00 7.6 C 6.04 g/m*3 7.6 C 0 km/h
1013 07-01-2004 15:06:00 7.6 C 5.96 g/m*3 7.6 C 0 km/h
1014 07-01-2004 15:18:00 7.5 C 6 g/m*3 7.5 C 0 km/h
1015 07-01-2004 15:30:00 7.3 C 6 g/m*3 7.3 C 0 km/h
1016 07-01-2004 15:42:00 7.2 C 5.97 g/m*3 7.2 C 0 km/h
1017 07-01-2004 15:54:00 7 C 5.89 g/m*3 7 C 0 km/h
1018 07-01-2004 16:06:01 7 C 5.89 g/m*3 7 C 0 km/h
1019 07-01-2004 16:18:01 7 C 5.97 g/m*3 7 C 0 km/h
1020 07-01-2004 16:30:01 6.9 C 6 g/m*3 6.9 C 0 km/h
1021 07-01-2004 16:42:01 6.8 C 6.04 g/m*3 6.8 C 0 km/h
1022 07-01-2004 16:54:01 6.8 C 6.04 g/m*3 6.8 C 0 km/h
1023 07-01-2004 17:06:00 6.7 C 6 g/m*3 6.7 C 0 km/h
1024 07-01-2004 17:18:00 6.5 C 5.92 g/m*3 6.5 C 0 km/h
1025 07-01-2004 17:30:00 6.5 C 6 g/m*3 6.5 C 0 km/h
Sensor: Nr:Datum:Temp:Abs-Feuchte:Windchill:Wind:
Aussen-T/F 1026 07-01-2004 17:42:46 6.3 C 5.92 g/m*3 6.3 C 0 km/h
1027 07-01-2004 17:57:00 6.3 C 5.92 g/m*3 6.3 C 0 km/h
1028 07-01-2004 18:09:00 6.3 C 5.92 g/m*3 6.3 C 0 km/h
1029 07-01-2004 18:21:57 6.2 C 5.88 g/m*3 6.2 C 0 km/h
1030 07-01-2004 18:33:57 6.2 C 5.96 g/m*3 6.2 C 0 km/h
1031 07-01-2004 18:45:01 6.2 C 5.96 g/m*3 6.2 C 0 km/h
1032 07-01-2004 18:57:01 6.1 C 5.92 g/m*3 6.1 C 0 km/h
1033 07-01-2004 19:09:01 6.1 C 5.92 g/m*3 6.1 C 0 km/h
1034 07-01-2004 19:21:01 6 C 5.88 g/m*3 6 C 0 km/h
1035 07-01-2004 19:33:00 6.1 C 5.92 g/m*3 6.1 C 0 km/h
1036 07-01-2004 19:45:00 6.1 C 5.92 g/m*3 6.1 C 0 km/h
1037 07-01-2004 19:57:00 6.2 C 5.88 g/m*3 6.2 C 0 km/h
1038 07-01-2004 20:09:59 6.2 C 5.81 g/m*3 6.2 C 0 km/h
1039 07-01-2004 20:21:59 6.2 C 5.81 g/m*3 6.2 C 0 km/h
1040 07-01-2004 20:33:01 6.2 C 5.81 g/m*3 6.2 C 0 km/h
1041 07-01-2004 20:45:01 6.2 C 5.81 g/m*3 6.2 C 0 km/h
1042 07-01-2004 20:57:01 6 C 5.73 g/m*3 6 C 0 km/h
1043 07-01-2004 21:09:00 5.8 C 5.73 g/m*3 5.8 C 0 km/h
1044 07-01-2004 21:21:00 5.6 C 5.66 g/m*3 5.6 C 0 km/h
1045 07-01-2004 21:33:01 5.6 C 5.66 g/m*3 5.6 C 0 km/h
1046 07-01-2004 21:45:01 5.6 C 5.73 g/m*3 5.6 C 0 km/h
1047 07-01-2004 21:57:01 5.6 C 5.73 g/m*3 5.6 C 0 km/h
1048 07-01-2004 22:09:01 5.6 C 5.73 g/m*3 5.6 C 0 km/h
1049 07-01-2004 22:21:01 5.5 C 5.69 g/m*3 5.5 C 0 km/h
1050 07-01-2004 22:33:00 5.4 C 5.58 g/m*3 5.4 C 0 km/h
Sensor: Nr:Datum:Temp:Abs-Feuchte:Windchill:Wind:
Aussen-T/F 1051 07-01-2004 22:45:00 5.4 C 5.65 g/m*3 5.4 C 0 km/h
1052 07-01-2004 22:57:00 5.4 C 5.58 g/m*3 5.4 C 0 km/h
1053 07-01-2004 23:09:59 5.4 C 5.58 g/m*3 5.4 C 0 km/h
1054 07-01-2004 23:21:59 5.4 C 5.58 g/m*3 5.4 C 0 km/h
1055 07-01-2004 23:33:01 5.4 C 5.58 g/m*3 5.4 C 0 km/h
1056 07-01-2004 23:45:01 5.4 C 5.51 g/m*3 5.4 C 0 km/h
1057 07-01-2004 23:57:01 5.4 C 5.51 g/m*3 5.4 C 0 km/h
1058 08-01-2004 00:09:01 5.3 C 5.48 g/m*3 5.3 C 0 km/h
1059 08-01-2004 00:21:01 5.2 C 5.44 g/m*3 5.2 C 0 km/h
1060 08-01-2004 00:33:00 5.1 C 5.4 g/m*3 5.1 C 0 km/h
1061 08-01-2004 00:45:00 4.9 C 5.33 g/m*3 4.9 C 0 km/h
1062 08-01-2004 00:57:00 4.8 C 5.3 g/m*3 4.8 C 0 km/h
1063 08-01-2004 01:09:58 4.9 C 5.33 g/m*3 4.9 C 0 km/h
1064 08-01-2004 01:21:58 4.9 C 5.33 g/m*3 4.9 C 0 km/h
1065 08-01-2004 01:33:01 4.8 C 5.3 g/m*3 4.8 C 0 km/h
1066 08-01-2004 01:45:01 4.8 C 5.3 g/m*3 4.8 C 0 km/h
1067 08-01-2004 01:57:01 4.7 C 5.26 g/m*3 4.7 C 0 km/h
1068 08-01-2004 02:09:01 4.6 C 5.23 g/m*3 4.6 C 0 km/h
1069 08-01-2004 02:21:01 4.6 C 5.23 g/m*3 4.6 C 0 km/h
1070 08-01-2004 02:34:00 4.7 C 5.26 g/m*3 4.7 C 0 km/h
1071 08-01-2004 02:45:00 4.7 C 5.26 g/m*3 4.7 C 0 km/h
1072 08-01-2004 02:57:00 4.6 C 5.23 g/m*3 4.6 C 0 km/h
1073 08-01-2004 03:10:00 4.6 C 5.23 g/m*3 4.6 C 0 km/h
1074 08-01-2004 03:22:01 4.6 C 5.23 g/m*3 4.6 C 0 km/h
1075 08-01-2004 03:34:00 4.6 C 5.23 g/m*3 4.6 C 0 km/h
Sensor: Nr:Datum:Temp:Abs-Feuchte:Windchill:Wind:
Aussen-T/F 1076 08-01-2004 03:46:00 4.5 C 5.19 g/m*3 4.5 C 0 km/h
1077 08-01-2004 03:58:00 4.6 C 5.23 g/m*3 4.6 C 0 km/h
1078 08-01-2004 04:10:01 4.6 C 5.23 g/m*3 4.6 C 0 km/h
1079 08-01-2004 04:22:01 4.7 C 5.26 g/m*3 4.7 C 0 km/h
1080 08-01-2004 04:34:00 4.6 C 5.29 g/m*3 4.6 C 0 km/h
1081 08-01-2004 04:46:00 4.6 C 5.29 g/m*3 4.6 C 0 km/h
1082 08-01-2004 04:58:00 4.6 C 5.29 g/m*3 4.6 C 0 km/h
1083 08-01-2004 05:10:00 4.6 C 5.29 g/m*3 4.6 C 0 km/h
1084 08-01-2004 05:22:00 4.6 C 5.29 g/m*3 4.6 C 0 km/h
1085 08-01-2004 05:34:00 4.6 C 5.29 g/m*3 4.6 C 0 km/h
1086 08-01-2004 05:46:01 4.6 C 5.29 g/m*3 4.6 C 0 km/h
1087 08-01-2004 05:58:01 4.6 C 5.29 g/m*3 4.6 C 0 km/h
1088 08-01-2004 06:10:00 4.7 C 5.33 g/m*3 4.7 C 0 km/h
1089 08-01-2004 06:22:00 4.7 C 5.26 g/m*3 4.7 C 0 km/h
1090 08-01-2004 06:33:23 4.7 C 5.26 g/m*3 4.7 C 0 km/h
1091 08-01-2004 06:45:23 4.8 C 5.23 g/m*3 4.8 C 0 km/h
1092 08-01-2004 07:07:45 4.7 C 5.13 g/m*3 4.7 C 0 km/h
1093 08-01-2004 07:19:44 4.6 C 5.16 g/m*3 4.6 C 0 km/h
1094 08-01-2004 07:31:44 4.7 C 5.2 g/m*3 4.7 C 0 km/h
1095 08-01-2004 07:43:01 4.7 C 5.26 g/m*3 4.7 C 0 km/h
1096 08-01-2004 07:55:01 4.7 C 5.26 g/m*3 4.7 C 0 km/h
1097 08-01-2004 08:07:01 4.7 C 5.26 g/m*3 4.7 C 0 km/h
1098 08-01-2004 08:19:01 4.7 C 5.26 g/m*3 4.7 C 0 km/h
1099 08-01-2004 08:31:01 4.7 C 5.26 g/m*3 4.7 C 0 km/h
1100 08-01-2004 08:43:00 4.6 C 5.23 g/m*3 4.6 C 0 km/h
Sensor: Nr:Datum:Temp:Abs-Feuchte:Windchill:Wind:
Aussen-T/F 1101 08-01-2004 08:55:00 4.7 C 5.26 g/m*3 4.7 C 0 km/h
1102 08-01-2004 09:07:59 4.6 C 5.16 g/m*3 4.6 C 0 km/h
1103 08-01-2004 09:19:59 4.6 C 5.16 g/m*3 4.6 C 0 km/h
1104 08-01-2004 09:31:01 4.6 C 5.16 g/m*3 4.6 C 0 km/h
1105 08-01-2004 09:43:01 4.6 C 5.1 g/m*3 4.6 C 0 km/h
1106 08-01-2004 09:55:01 4.8 C 5.16 g/m*3 4.8 C 0 km/h
1107 08-01-2004 10:07:01 5 C 5.1 g/m*3 5 C 0 km/h
1108 08-01-2004 10:19:01 5 C 4.96 g/m*3 5 C 0 km/h
1109 08-01-2004 10:31:01 5 C 4.89 g/m*3 5 C 0 km/h
1110 08-01-2004 10:43:00 5.2 C 4.89 g/m*3 5.2 C 0 km/h
1111 08-01-2004 10:55:00 5.4 C 4.95 g/m*3 5.4 C 0 km/h
1112 08-01-2004 11:07:58 5.3 C 4.85 g/m*3 5.3 C 0 km/h
1113 08-01-2004 11:19:58 5.3 C 4.85 g/m*3 5.3 C 0 km/h
1114 08-01-2004 11:31:00 5.3 C 4.85 g/m*3 5.3 C 0 km/h
1115 08-01-2004 11:43:00 5.6 C 4.95 g/m*3 5.6 C 0 km/h
1116 08-01-2004 11:55:00 5.6 C 5.02 g/m*3 5.6 C 0 km/h
1117 08-01-2004 12:07:00 5.5 C 5.06 g/m*3 5.5 C 0 km/h
1118 08-01-2004 12:19:00 5.2 C 5.03 g/m*3 5.2 C 0 km/h
1119 08-01-2004 12:31:00 5.1 C 4.99 g/m*3 5.1 C 0 km/h
1120 08-01-2004 12:43:01 5 C 5.03 g/m*3 5 C 0 km/h
1121 08-01-2004 12:55:01 5.1 C 5.06 g/m*3 5.1 C 0 km/h
1122 08-01-2004 13:07:01 5.2 C 5.1 g/m*3 5.2 C 0 km/h
1123 08-01-2004 13:19:01 5.2 C 5.1 g/m*3 5.2 C 0 km/h
1124 08-01-2004 13:31:01 5.3 C 5.13 g/m*3 5.3 C 0 km/h
1125 08-01-2004 13:43:01 5.6 C 5.16 g/m*3 5.6 C 0 km/h
Sensor: Nr:Datum:Temp:Abs-Feuchte:Windchill:Wind:
Aussen-T/F 1126 08-01-2004 13:55:01 5.4 C 5.02 g/m*3 5.4 C 0 km/h
1127 08-01-2004 14:07:02 5.3 C 5.06 g/m*3 5.3 C 0 km/h
1128 08-01-2004 14:19:02 5.4 C 5.09 g/m*3 5.4 C 0 km/h
1129 08-01-2004 14:31:02 5.3 C 5.06 g/m*3 5.3 C 0 km/h
1130 08-01-2004 14:43:01 5 C 4.96 g/m*3 5 C 0 km/h
1131 08-01-2004 14:55:01 4.9 C 5.06 g/m*3 4.9 C 0 km/h
1132 08-01-2004 15:07:59 4.9 C 5 g/m*3 4.9 C 0 km/h
1133 08-01-2004 15:19:59 4.7 C 4.93 g/m*3 4.7 C 0 km/h
1134 08-01-2004 15:31:01 4.7 C 5 g/m*3 4.7 C 0 km/h
1135 08-01-2004 15:43:01 4.5 C 4.93 g/m*3 4.5 C 0 km/h
1136 08-01-2004 15:55:01 4.5 C 4.93 g/m*3 4.5 C 0 km/h
1137 08-01-2004 16:07:00 4.4 C 4.9 g/m*3 4.4 C 0 km/h
1138 08-01-2004 16:19:00 4.4 C 4.9 g/m*3 4.4 C 0 km/h
1139 08-01-2004 16:31:00 3.9 C 5.05 g/m*3 3.9 C 0 km/h
1140 08-01-2004 16:43:01 3.7 C 5.11 g/m*3 3.7 C 0 km/h
1141 08-01-2004 16:55:01 3.5 C 5.1 g/m*3 3.5 C 0 km/h
1142 08-01-2004 17:07:01 3.4 C 5.13 g/m*3 3.4 C 0 km/h
1143 08-01-2004 17:19:01 3.4 C 5.13 g/m*3 3.4 C 0 km/h
1144 08-01-2004 17:31:01 3.4 C 5.13 g/m*3 3.4 C 0 km/h
1145 08-01-2004 17:43:00 3.4 C 5.19 g/m*3 3.4 C 0 km/h
1146 08-01-2004 17:55:00 3.5 C 5.16 g/m*3 3.5 C 0 km/h
1147 08-01-2004 18:07:59 3.5 C 5.16 g/m*3 3.5 C 0 km/h
1148 08-01-2004 18:19:59 3.5 C 5.1 g/m*3 3.5 C 0 km/h
1149 08-01-2004 18:31:01 3.6 C 5.14 g/m*3 3.6 C 0 km/h
1150 08-01-2004 18:43:01 3.6 C 5.08 g/m*3 3.6 C 0 km/h
Sensor: Nr:Datum:Temp:Abs-Feuchte:Windchill:Wind:
Aussen-T/F 1151 08-01-2004 18:55:01 3.6 C 5.08 g/m*3 3.6 C 0 km/h
1152 08-01-2004 19:07:01 3.5 C 5.04 g/m*3 3.5 C 0 km/h
1153 08-01-2004 19:19:01 3.5 C 5.04 g/m*3 3.5 C 0 km/h
1154 08-01-2004 19:31:01 3.6 C 5.08 g/m*3 3.6 C 0 km/h
1155 08-01-2004 19:43:01 3.5 C 5.04 g/m*3 3.5 C 0 km/h
1156 08-01-2004 19:55:01 3.5 C 5.1 g/m*3 3.5 C 0 km/h
1157 08-01-2004 20:07:59 3.4 C 5.13 g/m*3 3.4 C 0 km/h
1158 08-01-2004 20:19:59 3.4 C 5.13 g/m*3 3.4 C 0 km/h
1159 08-01-2004 20:31:01 3.4 C 5.13 g/m*3 3.4 C 0 km/h
1160 08-01-2004 20:43:01 3.4 C 5.07 g/m*3 3.4 C 0 km/h
1161 08-01-2004 20:55:01 3.4 C 5.07 g/m*3 3.4 C 0 km/h
1162 08-01-2004 21:07:02 3.5 C 5.1 g/m*3 3.5 C 0 km/h
1163 08-01-2004 21:19:02 3.5 C 5.16 g/m*3 3.5 C 0 km/h
1164 08-01-2004 21:31:02 3.5 C 5.23 g/m*3 3.5 C 0 km/h
1165 08-01-2004 21:43:02 3.5 C 5.23 g/m*3 3.5 C 0 km/h
1166 08-01-2004 21:55:02 3.5 C 5.23 g/m*3 3.5 C 0 km/h
1167 08-01-2004 22:07:02 3.6 C 5.32 g/m*3 3.6 C 0 km/h
1168 08-01-2004 22:19:02 3.7 C 5.36 g/m*3 3.7 C 0 km/h
1169 08-01-2004 22:31:02 3.7 C 5.36 g/m*3 3.7 C 0 km/h
1170 08-01-2004 22:43:02 3.7 C 5.36 g/m*3 3.7 C 0 km/h
1171 08-01-2004 22:55:02 3.7 C 5.36 g/m*3 3.7 C 0 km/h
1172 08-01-2004 23:07:03 3.7 C 5.36 g/m*3 3.7 C 0 km/h
1173 08-01-2004 23:19:03 3.7 C 5.36 g/m*3 3.7 C 0 km/h
1174 08-01-2004 23:31:03 3.7 C 5.36 g/m*3 3.7 C 0 km/h
1175 08-01-2004 23:43:00 3.7 C 5.36 g/m*3 3.7 C 0 km/h
Sensor: Nr:Datum:Temp:Abs-Feuchte:Windchill:Wind:
Aussen-T/F 1176 08-01-2004 23:55:00 3.7 C 5.36 g/m*3 3.7 C 0 km/h
1177 09-01-2004 00:07:58 3.7 C 5.36 g/m*3 3.7 C 0 km/h
1178 09-01-2004 00:19:58 3.7 C 5.36 g/m*3 3.7 C 0 km/h
1179 09-01-2004 00:31:01 3.7 C 5.36 g/m*3 3.7 C 0 km/h
1180 09-01-2004 00:43:01 3.7 C 5.36 g/m*3 3.7 C 0 km/h
1181 09-01-2004 00:55:01 3.7 C 5.36 g/m*3 3.7 C 0 km/h
1182 09-01-2004 01:07:01 3.7 C 5.36 g/m*3 3.7 C 0 km/h
1183 09-01-2004 01:19:01 3.7 C 5.36 g/m*3 3.7 C 0 km/h
1184 09-01-2004 01:31:01 3.7 C 5.36 g/m*3 3.7 C 0 km/h
1185 09-01-2004 01:43:01 3.7 C 5.36 g/m*3 3.7 C 0 km/h
1186 09-01-2004 01:55:01 3.7 C 5.36 g/m*3 3.7 C 0 km/h
1187 09-01-2004 02:07:01 3.7 C 5.36 g/m*3 3.7 C 0 km/h
1188 09-01-2004 02:19:01 3.7 C 5.36 g/m*3 3.7 C 0 km/h
1189 09-01-2004 02:31:01 3.7 C 5.36 g/m*3 3.7 C 0 km/h
1190 09-01-2004 02:43:00 3.7 C 5.36 g/m*3 3.7 C 0 km/h
1191 09-01-2004 02:55:00 3.7 C 5.36 g/m*3 3.7 C 0 km/h
1192 09-01-2004 03:08:01 3.7 C 5.36 g/m*3 3.7 C 0 km/h
1193 09-01-2004 03:20:01 3.7 C 5.36 g/m*3 3.7 C 0 km/h
1194 09-01-2004 03:32:00 3.7 C 5.36 g/m*3 3.7 C 0 km/h
1195 09-01-2004 03:44:00 3.7 C 5.36 g/m*3 3.7 C 0 km/h
1196 09-01-2004 03:56:00 3.7 C 5.36 g/m*3 3.7 C 0 km/h
1197 09-01-2004 04:08:01 3.7 C 5.36 g/m*3 3.7 C 0 km/h
1198 09-01-2004 04:20:01 3.7 C 5.36 g/m*3 3.7 C 0 km/h
1199 09-01-2004 04:32:00 3.7 C 5.36 g/m*3 3.7 C 0 km/h
1200 09-01-2004 04:44:00 3.7 C 5.36 g/m*3 3.7 C 0 km/h
Sensor: Nr:Datum:Temp:Abs-Feuchte:Windchill:Wind:
Aussen-T/F 1201 09-01-2004 04:56:00 4.9 C 5.87 g/m*3 4.9 C 0 km/h
1202 09-01-2004 05:08:01 5 C 5.91 g/m*3 5 C 0 km/h
1203 09-01-2004 05:20:01 5 C 5.91 g/m*3 5 C 0 km/h
1204 09-01-2004 05:32:00 4.9 C 5.94 g/m*3 4.9 C 0 km/h
1205 09-01-2004 05:44:00 4.9 C 5.94 g/m*3 4.9 C 0 km/h
1206 09-01-2004 05:56:01 5 C 5.91 g/m*3 5 C 0 km/h
1207 09-01-2004 06:08:00 5 C 5.98 g/m*3 5 C 0 km/h
1208 09-01-2004 06:20:00 5 C 5.98 g/m*3 5 C 0 km/h
1209 09-01-2004 06:32:00 5.2 C 6.13 g/m*3 5.2 C 0 km/h
1210 09-01-2004 06:44:00 5.2 C 6.13 g/m*3 5.2 C 0 km/h
1211 09-01-2004 06:56:00 5.1 C 6.09 g/m*3 5.1 C 0 km/h
1212 09-01-2004 07:26:45 5.3 C 6.24 g/m*3 5.3 C 0 km/h
1213 09-01-2004 07:38:01 5.1 C 6.09 g/m*3 5.1 C 0 km/h
1214 09-01-2004 07:50:01 5 C 6.05 g/m*3 5 C 0 km/h
1215 09-01-2004 08:02:01 5.2 C 6.13 g/m*3 5.2 C 0 km/h
1216 09-01-2004 08:14:01 5.3 C 6.17 g/m*3 5.3 C 0 km/h
1217 09-01-2004 08:26:01 5.2 C 6.13 g/m*3 5.2 C 0 km/h
1218 09-01-2004 08:38:00 5.2 C 6.13 g/m*3 5.2 C 0 km/h
1219 09-01-2004 08:50:00 5.3 C 6.17 g/m*3 5.3 C 0 km/h
1220 09-01-2004 09:02:59 5.4 C 6.21 g/m*3 5.4 C 0 km/h
1221 09-01-2004 09:14:59 5.4 C 6.21 g/m*3 5.4 C 0 km/h
1222 09-01-2004 09:26:59 5.6 C 6.29 g/m*3 5.6 C 0 km/h
1223 09-01-2004 09:38:01 5.8 C 6.38 g/m*3 5.8 C 0 km/h
1224 09-01-2004 09:50:01 5.8 C 6.3 g/m*3 5.8 C 0 km/h
1225 09-01-2004 10:02:01 6 C 6.31 g/m*3 6 C 0 km/h
Sensor: Nr:Datum:Temp:Abs-Feuchte:Windchill:Wind:
Aussen-T/F 1226 09-01-2004 10:14:01 5.9 C 6.27 g/m*3 5.9 C 0 km/h
1227 09-01-2004 10:26:01 5.9 C 6.13 g/m*3 5.9 C 0 km/h
1228 09-01-2004 10:38:00 6.1 C 5.92 g/m*3 6.1 C 0 km/h
1229 09-01-2004 10:50:00 6.6 C 5.89 g/m*3 6.6 C 0 km/h
1230 09-01-2004 11:02:59 6.9 C 6 g/m*3 6.9 C 0 km/h
1231 09-01-2004 11:14:59 7.2 C 5.97 g/m*3 7.2 C 0 km/h
1232 09-01-2004 11:26:59 7.1 C 5.85 g/m*3 7.1 C 0 km/h
1233 09-01-2004 11:38:01 7.2 C 5.89 g/m*3 7.2 C 0 km/h
1234 09-01-2004 11:50:01 7.4 C 6.04 g/m*3 7.4 C 0 km/h
1235 09-01-2004 12:02:01 7.5 C 6 g/m*3 7.5 C 0 km/h
1236 09-01-2004 12:14:01 7.7 C 6 g/m*3 7.7 C 0 km/h
1237 09-01-2004 12:26:01 7.7 C 5.92 g/m*3 7.7 C 0 km/h
1238 09-01-2004 12:38:00 7.6 C 6.04 g/m*3 7.6 C 0 km/h
1239 09-01-2004 12:50:00 7.6 C 5.96 g/m*3 7.6 C 0 km/h
1240 09-01-2004 13:02:59 7.6 C 5.96 g/m*3 7.6 C 0 km/h
1241 09-01-2004 13:14:59 7.5 C 5.92 g/m*3 7.5 C 0 km/h
1242 09-01-2004 13:26:59 7.4 C 5.88 g/m*3 7.4 C 0 km/h
1243 09-01-2004 13:38:01 7.6 C 5.88 g/m*3 7.6 C 0 km/h
1244 09-01-2004 13:50:01 7.7 C 5.76 g/m*3 7.7 C 0 km/h
1245 09-01-2004 14:02:00 7.5 C 5.84 g/m*3 7.5 C 0 km/h
1246 09-01-2004 14:14:00 7.1 C 5.93 g/m*3 7.1 C 0 km/h
1247 09-01-2004 14:26:00 6.8 C 6.04 g/m*3 6.8 C 0 km/h
1248 09-01-2004 14:38:01 6.7 C 6 g/m*3 6.7 C 0 km/h
1249 09-01-2004 14:50:01 7.1 C 6.01 g/m*3 7.1 C 0 km/h
1250 09-01-2004 15:02:01 7.4 C 5.88 g/m*3 7.4 C 0 km/h
Sensor: Nr:Datum:Temp:Abs-Feuchte:Windchill:Wind:
Aussen-T/F 1251 09-01-2004 15:14:01 7.3 C 5.61 g/m*3 7.3 C 0 km/h
1252 09-01-2004 15:26:01 7.2 C 5.57 g/m*3 7.2 C 0 km/h
1253 09-01-2004 15:38:00 7.4 C 5.49 g/m*3 7.4 C 0 km/h
1254 09-01-2004 15:50:00 7.4 C 5.41 g/m*3 7.4 C 0 km/h
1255 09-01-2004 16:02:58 7.3 C 5.37 g/m*3 7.3 C 0 km/h
1256 09-01-2004 16:14:58 7 C 5.35 g/m*3 7 C 0 km/h
1257 09-01-2004 16:26:58 6.8 C 5.51 g/m*3 6.8 C 0 km/h
1258 09-01-2004 16:38:01 6.7 C 5.55 g/m*3 6.7 C 0 km/h
1259 09-01-2004 16:50:01 7 C 5.42 g/m*3 7 C 0 km/h
1260 09-01-2004 17:02:01 7 C 5.42 g/m*3 7 C 0 km/h
1261 09-01-2004 17:14:01 6.5 C 5.62 g/m*3 6.5 C 0 km/h
1262 09-01-2004 17:26:01 5.9 C 5.77 g/m*3 5.9 C 0 km/h
1263 09-01-2004 17:38:00 5.6 C 5.59 g/m*3 5.6 C 0 km/h
1264 09-01-2004 17:50:00 5.4 C 5.65 g/m*3 5.4 C 0 km/h
1265 09-01-2004 18:02:59 5.1 C 5.61 g/m*3 5.1 C 0 km/h
1266 09-01-2004 18:14:59 4.8 C 5.57 g/m*3 4.8 C 0 km/h
1267 09-01-2004 18:26:59 4.6 C 5.56 g/m*3 4.6 C 0 km/h
1268 09-01-2004 18:38:01 5 C 5.71 g/m*3 5 C 0 km/h
1269 09-01-2004 18:50:01 5.4 C 5.72 g/m*3 5.4 C 0 km/h
1270 09-01-2004 19:02:01 5.6 C 5.73 g/m*3 5.6 C 0 km/h
1271 09-01-2004 19:14:01 5.6 C 5.59 g/m*3 5.6 C 0 km/h
1272 09-01-2004 19:26:01 5.3 C 5.41 g/m*3 5.3 C 0 km/h
1273 09-01-2004 19:38:01 5.1 C 5.13 g/m*3 5.1 C 0 km/h
1274 09-01-2004 19:50:01 4.7 C 5 g/m*3 4.7 C 0 km/h
1275 09-01-2004 20:02:59 4.4 C 4.96 g/m*3 4.4 C 0 km/h
Sensor: Nr:Datum:Temp:Abs-Feuchte:Windchill:Wind:
Aussen-T/F 1276 09-01-2004 20:14:59 4.4 C 4.83 g/m*3 4.4 C 0 km/h
1277 09-01-2004 20:26:59 4.3 C 4.8 g/m*3 4.3 C 0 km/h
1278 09-01-2004 20:38:01 4.5 C 4.8 g/m*3 4.5 C 0 km/h
1279 09-01-2004 20:50:01 4.5 C 4.8 g/m*3 4.5 C 0 km/h
1280 09-01-2004 21:02:00 4.7 C 4.8 g/m*3 4.7 C 0 km/h
1281 09-01-2004 21:14:00 4.6 C 4.9 g/m*3 4.6 C 0 km/h
1282 09-01-2004 21:26:00 4.8 C 4.9 g/m*3 4.8 C 0 km/h
1283 09-01-2004 21:38:01 4.7 C 4.86 g/m*3 4.7 C 0 km/h
1284 09-01-2004 21:50:01 4.7 C 4.93 g/m*3 4.7 C 0 km/h
1285 09-01-2004 22:02:01 4.5 C 4.93 g/m*3 4.5 C 0 km/h
1286 09-01-2004 22:14:01 4.5 C 5 g/m*3 4.5 C 0 km/h
1287 09-01-2004 22:26:01 4.6 C 5.03 g/m*3 4.6 C 0 km/h
1288 09-01-2004 22:38:00 4.6 C 5.03 g/m*3 4.6 C 0 km/h
1289 09-01-2004 22:50:00 4.2 C 5.03 g/m*3 4.2 C 0 km/h
1290 09-01-2004 23:02:59 3.8 C 4.96 g/m*3 3.8 C 0 km/h
1291 09-01-2004 23:14:59 3.5 C 4.86 g/m*3 3.5 C 0 km/h
1292 09-01-2004 23:26:59 3.4 C 4.83 g/m*3 3.4 C 0 km/h
1293 09-01-2004 23:38:01 3.6 C 4.89 g/m*3 3.6 C 0 km/h
1294 09-01-2004 23:50:01 3.6 C 4.89 g/m*3 3.6 C 0 km/h
1295 10-01-2004 00:02:01 3.8 C 4.96 g/m*3 3.8 C 0 km/h
1296 10-01-2004 00:14:01 3.8 C 4.89 g/m*3 3.8 C 0 km/h
1297 10-01-2004 00:26:01 3.9 C 4.99 g/m*3 3.9 C 0 km/h
1298 10-01-2004 00:38:01 4 C 4.96 g/m*3 4 C 0 km/h
1299 10-01-2004 00:50:01 3.9 C 4.99 g/m*3 3.9 C 0 km/h
1300 10-01-2004 01:02:01 3.7 C 4.99 g/m*3 3.7 C 0 km/h
Sensor: Nr:Datum:Temp:Abs-Feuchte:Windchill:Wind:
Aussen-T/F 1301 10-01-2004 01:14:01 3.6 C 4.95 g/m*3 3.6 C 0 km/h
1302 10-01-2004 01:26:01 3.8 C 5.02 g/m*3 3.8 C 0 km/h
1303 10-01-2004 01:38:00 3.7 C 4.99 g/m*3 3.7 C 0 km/h
1304 10-01-2004 01:50:00 3.7 C 5.05 g/m*3 3.7 C 0 km/h
1305 10-01-2004 02:02:58 3.7 C 5.11 g/m*3 3.7 C 0 km/h
1306 10-01-2004 02:14:58 3.8 C 5.08 g/m*3 3.8 C 0 km/h
1307 10-01-2004 02:26:58 3.9 C 5.05 g/m*3 3.9 C 0 km/h
1308 10-01-2004 02:39:02 4 C 5.02 g/m*3 4 C 0 km/h
1309 10-01-2004 02:51:02 4.2 C 4.96 g/m*3 4.2 C 0 km/h
1310 10-01-2004 03:03:02 4 C 4.96 g/m*3 4 C 0 km/h
1311 10-01-2004 03:15:02 4 C 4.96 g/m*3 4 C 0 km/h
1312 10-01-2004 03:27:02 4.2 C 5.03 g/m*3 4.2 C 0 km/h
1313 10-01-2004 03:39:00 4.2 C 4.96 g/m*3 4.2 C 0 km/h
1314 10-01-2004 03:51:00 4.3 C 4.99 g/m*3 4.3 C 0 km/h
1315 10-01-2004 04:03:59 4.4 C 4.96 g/m*3 4.4 C 0 km/h
1316 10-01-2004 04:15:59 4.4 C 4.96 g/m*3 4.4 C 0 km/h
1317 10-01-2004 04:27:59 4.4 C 4.96 g/m*3 4.4 C 0 km/h
1318 10-01-2004 04:39:01 4.3 C 4.99 g/m*3 4.3 C 0 km/h
1319 10-01-2004 04:51:01 4.2 C 4.96 g/m*3 4.2 C 0 km/h
1320 10-01-2004 05:03:00 4.2 C 4.96 g/m*3 4.2 C 0 km/h
1321 10-01-2004 05:15:00 4.2 C 4.96 g/m*3 4.2 C 0 km/h
1322 10-01-2004 05:27:00 4.3 C 4.99 g/m*3 4.3 C 0 km/h
1323 10-01-2004 05:39:01 4.3 C 4.99 g/m*3 4.3 C 0 km/h
1324 10-01-2004 05:51:01 4.3 C 4.99 g/m*3 4.3 C 0 km/h
1325 10-01-2004 06:03:01 4.4 C 5.03 g/m*3 4.4 C 0 km/h
Sensor: Nr:Datum:Temp:Abs-Feuchte:Windchill:Wind:
Aussen-T/F 1326 10-01-2004 06:15:01 4.3 C 4.99 g/m*3 4.3 C 0 km/h
1327 10-01-2004 06:27:01 4.4 C 4.96 g/m*3 4.4 C 0 km/h
1328 10-01-2004 06:39:01 4.4 C 5.03 g/m*3 4.4 C 0 km/h
1329 10-01-2004 06:51:01 4.4 C 4.96 g/m*3 4.4 C 0 km/h
1330 10-01-2004 07:03:01 4.5 C 5 g/m*3 4.5 C 0 km/h
1331 10-01-2004 07:15:01 4.5 C 4.93 g/m*3 4.5 C 0 km/h
1332 10-01-2004 07:27:01 4.6 C 4.96 g/m*3 4.6 C 0 km/h
1333 10-01-2004 07:39:00 4.6 C 4.9 g/m*3 4.6 C 0 km/h
1334 10-01-2004 07:51:00 4.5 C 4.93 g/m*3 4.5 C 0 km/h
1335 10-01-2004 08:03:59 4.6 C 4.9 g/m*3 4.6 C 0 km/h
1336 10-01-2004 08:15:59 4.6 C 4.9 g/m*3 4.6 C 0 km/h
1337 10-01-2004 08:27:59 4.6 C 4.9 g/m*3 4.6 C 0 km/h
1338 10-01-2004 08:39:02 4.6 C 4.9 g/m*3 4.6 C 0 km/h
1339 10-01-2004 08:51:02 4.7 C 4.86 g/m*3 4.7 C 0 km/h
1340 10-01-2004 09:03:02 4.6 C 4.9 g/m*3 4.6 C 0 km/h
1341 10-01-2004 09:15:02 4.4 C 4.83 g/m*3 4.4 C 0 km/h
1342 10-01-2004 09:27:02 4.2 C 4.83 g/m*3 4.2 C 0 km/h
1343 10-01-2004 09:39:00 4 C 4.83 g/m*3 4 C 0 km/h
1344 10-01-2004 09:51:00 3.9 C 4.86 g/m*3 3.9 C 0 km/h
1345 10-01-2004 10:03:58 3.8 C 4.83 g/m*3 3.8 C 0 km/h
1346 10-01-2004 10:15:58 3.8 C 4.83 g/m*3 3.8 C 0 km/h
1347 10-01-2004 10:27:58 3.7 C 4.86 g/m*3 3.7 C 0 km/h
1348 10-01-2004 10:39:01 4.3 C 5.06 g/m*3 4.3 C 0 km/h
1349 10-01-2004 10:51:01 4.9 C 5.06 g/m*3 4.9 C 0 km/h
1350 10-01-2004 11:03:01 5.1 C 4.86 g/m*3 5.1 C 0 km/h
Sensor: Nr:Datum:Temp:Abs-Feuchte:Windchill:Wind:
Aussen-T/F 1351 10-01-2004 11:15:01 4.9 C 5 g/m*3 4.9 C 0 km/h
1352 10-01-2004 11:27:01 5.1 C 4.86 g/m*3 5.1 C 0 km/h
1353 10-01-2004 11:39:02 5.1 C 4.86 g/m*3 5.1 C 0 km/h
1354 10-01-2004 11:51:02 5.1 C 4.86 g/m*3 5.1 C 0 km/h
1355 10-01-2004 12:03:01 5.1 C 4.79 g/m*3 5.1 C 0 km/h
1356 10-01-2004 12:15:01 5.1 C 4.72 g/m*3 5.1 C 0 km/h
1357 10-01-2004 12:27:01 5 C 4.62 g/m*3 5 C 0 km/h
1358 10-01-2004 12:39:01 5.2 C 4.68 g/m*3 5.2 C 0 km/h
1359 10-01-2004 12:51:01 5.1 C 4.65 g/m*3 5.1 C 0 km/h
1360 10-01-2004 13:03:59 5.2 C 4.68 g/m*3 5.2 C 0 km/h
1361 10-01-2004 13:15:59 5.3 C 4.64 g/m*3 5.3 C 0 km/h
1362 10-01-2004 13:27:59 5.4 C 4.67 g/m*3 5.4 C 0 km/h
1363 10-01-2004 13:39:01 5.3 C 4.64 g/m*3 5.3 C 0 km/h
1364 10-01-2004 13:51:01 5.4 C 4.67 g/m*3 5.4 C 0 km/h
1365 10-01-2004 14:03:00 5.3 C 4.64 g/m*3 5.3 C 0 km/h
1366 10-01-2004 14:15:00 5.2 C 4.61 g/m*3 5.2 C 0 km/h
1367 10-01-2004 14:27:00 5.2 C 4.61 g/m*3 5.2 C 0 km/h
1368 10-01-2004 14:39:59 5.2 C 4.61 g/m*3 5.2 C 0 km/h
1369 10-01-2004 14:51:59 5.1 C 4.51 g/m*3 5.1 C 0 km/h
1370 10-01-2004 15:03:58 4.9 C 4.52 g/m*3 4.9 C 0 km/h
1371 10-01-2004 15:15:58 4.9 C 4.52 g/m*3 4.9 C 0 km/h
1372 10-01-2004 15:27:58 4.8 C 4.49 g/m*3 4.8 C 0 km/h
1373 10-01-2004 15:39:01 4.8 C 4.49 g/m*3 4.8 C 0 km/h
1374 10-01-2004 15:51:01 4.8 C 4.56 g/m*3 4.8 C 0 km/h
1375 10-01-2004 16:03:01 4.9 C 4.59 g/m*3 4.9 C 0 km/h
Sensor: Nr:Datum:Temp:Abs-Feuchte:Windchill:Wind:
Aussen-T/F 1376 10-01-2004 16:15:01 5 C 4.55 g/m*3 5 C 0 km/h
1377 10-01-2004 16:27:01 4.9 C 4.59 g/m*3 4.9 C 0 km/h
1378 10-01-2004 16:39:01 4.7 C 4.66 g/m*3 4.7 C 0 km/h
1379 10-01-2004 16:51:01 4.6 C 4.63 g/m*3 4.6 C 0 km/h
1380 10-01-2004 17:03:01 4.6 C 4.76 g/m*3 4.6 C 0 km/h
1381 10-01-2004 17:15:01 4.6 C 4.83 g/m*3 4.6 C 0 km/h
1382 10-01-2004 17:27:01 4.6 C 4.83 g/m*3 4.6 C 0 km/h
1383 10-01-2004 17:39:00 4.6 C 4.83 g/m*3 4.6 C 0 km/h
1384 10-01-2004 17:51:00 4.5 C 4.8 g/m*3 4.5 C 0 km/h
1385 10-01-2004 18:03:59 4.5 C 4.8 g/m*3 4.5 C 0 km/h
1386 10-01-2004 18:15:59 4.4 C 4.77 g/m*3 4.4 C 0 km/h
1387 10-01-2004 18:27:59 4.5 C 4.86 g/m*3 4.5 C 0 km/h
1388 10-01-2004 18:39:01 4.5 C 4.93 g/m*3 4.5 C 0 km/h
1389 10-01-2004 18:51:01 4.4 C 4.96 g/m*3 4.4 C 0 km/h
1390 10-01-2004 19:03:01 4.4 C 5.03 g/m*3 4.4 C 0 km/h
1391 10-01-2004 19:15:01 4.3 C 4.99 g/m*3 4.3 C 0 km/h
1392 10-01-2004 19:27:01 4.4 C 4.96 g/m*3 4.4 C 0 km/h
1393 10-01-2004 19:39:00 4.5 C 5 g/m*3 4.5 C 0 km/h
1394 10-01-2004 19:51:00 4.6 C 5.1 g/m*3 4.6 C 0 km/h
1395 10-01-2004 20:03:58 4.8 C 5.23 g/m*3 4.8 C 0 km/h
1396 10-01-2004 20:15:58 4.8 C 5.23 g/m*3 4.8 C 0 km/h
1397 10-01-2004 20:27:58 4.8 C 5.16 g/m*3 4.8 C 0 km/h
1398 10-01-2004 20:39:01 4.9 C 5.13 g/m*3 4.9 C 0 km/h
1399 10-01-2004 20:51:01 5 C 5.1 g/m*3 5 C 0 km/h
1400 10-01-2004 21:03:01 5 C 5.16 g/m*3 5 C 0 km/h
Sensor: Nr:Datum:Temp:Abs-Feuchte:Windchill:Wind:
Aussen-T/F 1401 10-01-2004 21:15:01 5.1 C 5.2 g/m*3 5.1 C 0 km/h
1402 10-01-2004 21:27:01 5.1 C 5.2 g/m*3 5.1 C 0 km/h
1403 10-01-2004 21:39:02 5.3 C 5.34 g/m*3 5.3 C 0 km/h
1404 10-01-2004 21:51:02 5.4 C 5.44 g/m*3 5.4 C 0 km/h
1405 10-01-2004 22:03:01 5.5 C 5.55 g/m*3 5.5 C 0 km/h
1406 10-01-2004 22:15:01 5.6 C 5.66 g/m*3 5.6 C 0 km/h
1407 10-01-2004 22:27:01 5.6 C 5.66 g/m*3 5.6 C 0 km/h
1408 10-01-2004 22:39:01 5.5 C 5.62 g/m*3 5.5 C 0 km/h
1409 10-01-2004 22:51:01 5.5 C 5.62 g/m*3 5.5 C 0 km/h
1410 10-01-2004 23:03:01 5.4 C 5.58 g/m*3 5.4 C 0 km/h
1411 10-01-2004 23:15:01 5.5 C 5.55 g/m*3 5.5 C 0 km/h
1412 10-01-2004 23:27:01 5.6 C 5.66 g/m*3 5.6 C 0 km/h
1413 10-01-2004 23:39:00 5.6 C 5.66 g/m*3 5.6 C 0 km/h
1414 10-01-2004 23:51:00 5.6 C 5.66 g/m*3 5.6 C 0 km/h
1415 11-01-2004 00:03:59 5.7 C 5.76 g/m*3 5.7 C 0 km/h
1416 11-01-2004 00:15:59 5.8 C 5.8 g/m*3 5.8 C 0 km/h
1417 11-01-2004 00:27:59 6.3 C 6 g/m*3 6.3 C 0 km/h
1418 11-01-2004 00:39:01 6.6 C 6.04 g/m*3 6.6 C 0 km/h
1419 11-01-2004 00:51:01 6.6 C 5.96 g/m*3 6.6 C 0 km/h
1420 11-01-2004 01:03:01 6.9 C 6.08 g/m*3 6.9 C 0 km/h
1421 11-01-2004 01:15:01 7.2 C 6.12 g/m*3 7.2 C 0 km/h
1422 11-01-2004 01:27:01 7.3 C 6.16 g/m*3 7.3 C 0 km/h
1423 11-01-2004 01:39:00 7.3 C 6.24 g/m*3 7.3 C 0 km/h
1424 11-01-2004 01:51:00 7.6 C 6.36 g/m*3 7.6 C 0 km/h
1425 11-01-2004 02:03:58 7.8 C 6.45 g/m*3 7.8 C 0 km/h
Sensor: Nr:Datum:Temp:Abs-Feuchte:Windchill:Wind:
Aussen-T/F 1426 11-01-2004 02:15:58 8 C 6.37 g/m*3 8 C 0 km/h
1427 11-01-2004 02:27:58 8 C 6.37 g/m*3 8 C 0 km/h
1428 11-01-2004 02:40:02 8 C 6.37 g/m*3 8 C 0 km/h
1429 11-01-2004 02:52:02 8 C 6.37 g/m*3 8 C 0 km/h
1430 11-01-2004 03:04:02 8.1 C 6.41 g/m*3 8.1 C 0 km/h
1431 11-01-2004 03:16:02 7.9 C 6.41 g/m*3 7.9 C 0 km/h
1432 11-01-2004 03:28:02 7.9 C 6.49 g/m*3 7.9 C 0 km/h
1433 11-01-2004 03:40:00 7.8 C 6.45 g/m*3 7.8 C 0 km/h
1434 11-01-2004 03:52:00 7.6 C 6.36 g/m*3 7.6 C 0 km/h
1435 11-01-2004 04:04:59 7.7 C 6.49 g/m*3 7.7 C 0 km/h
1436 11-01-2004 04:16:59 7.9 C 6.57 g/m*3 7.9 C 0 km/h
1437 11-01-2004 04:28:59 8.1 C 6.49 g/m*3 8.1 C 0 km/h
1438 11-01-2004 04:40:01 8.2 C 6.53 g/m*3 8.2 C 0 km/h
1439 11-01-2004 04:52:01 8.3 C 6.57 g/m*3 8.3 C 0 km/h
1440 11-01-2004 05:04:01 8.8 C 6.7 g/m*3 8.8 C 0 km/h
1441 11-01-2004 05:16:01 8.8 C 6.7 g/m*3 8.8 C 0 km/h
1442 11-01-2004 05:28:01 8.7 C 6.66 g/m*3 8.7 C 0 km/h
1443 11-01-2004 05:40:00 8.6 C 6.62 g/m*3 8.6 C 0 km/h
1444 11-01-2004 05:52:00 8.6 C 6.7 g/m*3 8.6 C 0 km/h
1445 11-01-2004 06:04:58 8.5 C 6.74 g/m*3 8.5 C 0 km/h
1446 11-01-2004 06:16:58 8.5 C 6.74 g/m*3 8.5 C 0 km/h
1447 11-01-2004 06:28:58 8.2 C 6.78 g/m*3 8.2 C 0 km/h
1448 11-01-2004 06:40:01 8.4 C 6.87 g/m*3 8.4 C 0 km/h
1449 11-01-2004 06:52:01 8.7 C 6.92 g/m*3 8.7 C 0 km/h
1450 11-01-2004 07:04:01 8.6 C 6.87 g/m*3 8.6 C 0 km/h
Sensor: Nr:Datum:Temp:Abs-Feuchte:Windchill:Wind:
Aussen-T/F 1451 11-01-2004 07:16:01 8.6 C 6.87 g/m*3 8.6 C 0 km/h
1452 11-01-2004 07:28:01 8.6 C 6.87 g/m*3 8.6 C 0 km/h
1453 11-01-2004 07:40:01 8.7 C 6.92 g/m*3 8.7 C 0 km/h
1454 11-01-2004 07:52:01 8.6 C 6.87 g/m*3 8.6 C 0 km/h
1455 11-01-2004 08:04:01 8.6 C 6.87 g/m*3 8.6 C 0 km/h
1456 11-01-2004 08:16:01 9.1 C 6.92 g/m*3 9.1 C 0 km/h
1457 11-01-2004 08:28:01 9.3 C 7.01 g/m*3 9.3 C 0 km/h
1458 11-01-2004 08:40:00 9.4 C 6.96 g/m*3 9.4 C 0 km/h
1459 11-01-2004 08:52:00 9.3 C 7.01 g/m*3 9.3 C 0 km/h
1460 11-01-2004 09:04:59 9.3 C 7.01 g/m*3 9.3 C 0 km/h
1461 11-01-2004 09:16:59 9.2 C 6.97 g/m*3 9.2 C 0 km/h
1462 11-01-2004 09:28:59 9.3 C 7.01 g/m*3 9.3 C 0 km/h
1463 11-01-2004 09:40:01 9.4 C 7.05 g/m*3 9.4 C 0 km/h
1464 11-01-2004 09:52:01 9.3 C 7.01 g/m*3 9.3 C 0 km/h
1465 11-01-2004 10:04:01 9.5 C 7.1 g/m*3 9.5 C 0 km/h
1466 11-01-2004 10:16:01 9.5 C 7.1 g/m*3 9.5 C 0 km/h
1467 11-01-2004 10:28:01 9.6 C 7.15 g/m*3 9.6 C 0 km/h
1468 11-01-2004 10:40:00 10 C 7.14 g/m*3 10 C 0 km/h
1469 11-01-2004 10:52:00 10.2 C 7.23 g/m*3 10.2 C 0 km/h
1470 11-01-2004 11:04:59 10.7 C 7.27 g/m*3 10.7 C 0 km/h
1471 11-01-2004 11:16:59 11.3 C 7.34 g/m*3 11.3 C 0 km/h
1472 11-01-2004 11:28:59 11.5 C 7.33 g/m*3 11.5 C 0 km/h
1473 11-01-2004 11:40:01 11.4 C 7.29 g/m*3 11.4 C 0 km/h
1474 11-01-2004 11:52:01 11.4 C 7.39 g/m*3 11.4 C 0 km/h
1475 11-01-2004 12:04:01 11.1 C 7.35 g/m*3 11.1 C 0 km/h
Sensor: Nr:Datum:Temp:Abs-Feuchte:Windchill:Wind:
Aussen-T/F 1476 11-01-2004 12:16:01 11 C 7.41 g/m*3 11 C 0 km/h
1477 11-01-2004 12:28:01 11 C 7.41 g/m*3 11 C 0 km/h
1478 11-01-2004 12:40:59 10.9 C 7.56 g/m*3 10.9 C 0 km/h
1479 11-01-2004 12:51:59 10.8 C 7.61 g/m*3 10.8 C 0 km/h
1480 11-01-2004 13:04:58 10.9 C 7.66 g/m*3 10.9 C 0 km/h
1481 11-01-2004 13:16:58 11.1 C 7.76 g/m*3 11.1 C 0 km/h
1482 11-01-2004 13:28:58 10.7 C 7.76 g/m*3 10.7 C 0 km/h
1483 11-01-2004 13:40:01 10.8 C 8.01 g/m*3 10.8 C 0 km/h
1484 11-01-2004 13:52:01 11 C 8.01 g/m*3 11 C 0 km/h
1485 11-01-2004 14:04:01 11.2 C 8.11 g/m*3 11.2 C 0 km/h
1486 11-01-2004 14:16:01 11.2 C 8.11 g/m*3 11.2 C 0 km/h
1487 11-01-2004 14:28:01 11.3 C 8.16 g/m*3 11.3 C 0 km/h
1488 11-01-2004 14:40:01 11.6 C 8.32 g/m*3 11.6 C 0 km/h
1489 11-01-2004 14:52:01 11.5 C 8.26 g/m*3 11.5 C 0 km/h
1490 11-01-2004 15:04:59 11.3 C 8.36 g/m*3 11.3 C 0 km/h
1491 11-01-2004 15:16:59 11.2 C 8.41 g/m*3 11.2 C 0 km/h
1492 11-01-2004 15:28:59 11.1 C 8.06 g/m*3 11.1 C 0 km/h
1493 11-01-2004 15:40:01 11.1 C 8.06 g/m*3 11.1 C 0 km/h
1494 11-01-2004 15:52:01 11.4 C 8.01 g/m*3 11.4 C 0 km/h
1495 11-01-2004 16:04:01 11.8 C 7.89 g/m*3 11.8 C 0 km/h
1496 11-01-2004 16:16:01 11.8 C 7.89 g/m*3 11.8 C 0 km/h
1497 11-01-2004 16:28:01 11.6 C 7.8 g/m*3 11.6 C 0 km/h
1498 11-01-2004 16:40:01 11.4 C 7.7 g/m*3 11.4 C 0 km/h
1499 11-01-2004 16:52:01 11.4 C 7.39 g/m*3 11.4 C 0 km/h
1500 11-01-2004 17:04:01 11.1 C 7.25 g/m*3 11.1 C 0 km/h
Sensor: Nr:Datum:Temp:Abs-Feuchte:Windchill:Wind:
Aussen-T/F 1501 11-01-2004 17:16:01 11.1 C 6.95 g/m*3 11.1 C 0 km/h
1502 11-01-2004 17:28:01 11.1 C 6.85 g/m*3 11.1 C 0 km/h
1503 11-01-2004 17:40:00 11 C 6.71 g/m*3 11 C 0 km/h
1504 11-01-2004 17:52:00 11 C 6.51 g/m*3 11 C 0 km/h
1505 11-01-2004 18:04:59 10.8 C 6.42 g/m*3 10.8 C 0 km/h
1506 11-01-2004 18:16:59 10.3 C 6.42 g/m*3 10.3 C 0 km/h
1507 11-01-2004 18:28:59 10.2 C 6.38 g/m*3 10.2 C 0 km/h
1508 11-01-2004 18:40:01 10.1 C 6.34 g/m*3 10.1 C 0 km/h
1509 11-01-2004 18:52:01 10.1 C 6.43 g/m*3 10.1 C 0 km/h
1510 11-01-2004 19:04:01 10.1 C 5.67 g/m*3 10.1 C 0 km/h
1511 11-01-2004 19:16:01 10.1 C 5.2 g/m*3 10.1 C 0 km/h
1512 11-01-2004 19:28:01 9.9 C 5.04 g/m*3 9.9 C 0 km/h
1513 11-01-2004 19:40:01 9.6 C 5.13 g/m*3 9.6 C 0 km/h
1514 11-01-2004 19:52:01 9.4 C 5.16 g/m*3 9.4 C 0 km/h
1515 11-01-2004 20:04:59 9.2 C 5.09 g/m*3 9.2 C 0 km/h
1516 11-01-2004 20:16:59 8.8 C 5.05 g/m*3 8.8 C 0 km/h
1517 11-01-2004 20:28:59 8.5 C 5.04 g/m*3 8.5 C 0 km/h
1518 11-01-2004 20:40:01 8.2 C 5.11 g/m*3 8.2 C 0 km/h
1519 11-01-2004 20:52:01 7.8 C 5.22 g/m*3 7.8 C 0 km/h
1520 11-01-2004 21:04:01 7.5 C 5.28 g/m*3 7.5 C 0 km/h
1521 11-01-2004 21:16:01 7.3 C 5.37 g/m*3 7.3 C 0 km/h
1522 11-01-2004 21:28:01 7.3 C 5.29 g/m*3 7.3 C 0 km/h
1523 11-01-2004 21:40:02 7.3 C 5.29 g/m*3 7.3 C 0 km/h
1524 11-01-2004 21:52:02 7.4 C 5.33 g/m*3 7.4 C 0 km/h
1525 11-01-2004 22:04:02 7.4 C 5.33 g/m*3 7.4 C 0 km/h
Sensor: Nr:Datum:Temp:Abs-Feuchte:Windchill:Wind:
Aussen-T/F 1526 11-01-2004 22:16:02 7.4 C 5.33 g/m*3 7.4 C 0 km/h
1527 11-01-2004 22:28:02 7.4 C 5.33 g/m*3 7.4 C 0 km/h
1528 11-01-2004 22:40:00 7.3 C 5.37 g/m*3 7.3 C 0 km/h
1529 11-01-2004 22:52:00 7.4 C 5.41 g/m*3 7.4 C 0 km/h
1530 11-01-2004 23:04:58 7.6 C 5.4 g/m*3 7.6 C 0 km/h
1531 11-01-2004 23:16:58 7.7 C 5.43 g/m*3 7.7 C 0 km/h
1532 11-01-2004 23:28:58 7.7 C 5.51 g/m*3 7.7 C 0 km/h
1533 11-01-2004 23:40:01 7.8 C 5.63 g/m*3 7.8 C 0 km/h
1534 11-01-2004 23:52:01 7.8 C 5.55 g/m*3 7.8 C 0 km/h
1535 12-01-2004 00:04:01 7.6 C 5.56 g/m*3 7.6 C 0 km/h
1536 12-01-2004 00:16:01 7.5 C 5.6 g/m*3 7.5 C 0 km/h
1537 12-01-2004 00:28:01 7.5 C 5.68 g/m*3 7.5 C 0 km/h
1538 12-01-2004 00:40:01 7.3 C 5.77 g/m*3 7.3 C 0 km/h
1539 12-01-2004 00:52:01 7.1 C 5.77 g/m*3 7.1 C 0 km/h
1540 12-01-2004 01:04:00 7 C 5.73 g/m*3 7 C 0 km/h
1541 12-01-2004 01:16:00 7 C 5.58 g/m*3 7 C 0 km/h
1542 12-01-2004 01:28:00 7.3 C 5.21 g/m*3 7.3 C 0 km/h
1543 12-01-2004 01:40:01 7.4 C 5.01 g/m*3 7.4 C 0 km/h
1544 12-01-2004 01:52:01 7.2 C 5.02 g/m*3 7.2 C 0 km/h
1545 12-01-2004 02:04:01 7.1 C 4.84 g/m*3 7.1 C 0 km/h
1546 12-01-2004 02:16:01 7 C 4.8 g/m*3 7 C 0 km/h
1547 12-01-2004 02:28:01 6.9 C 4.77 g/m*3 6.9 C 0 km/h
1548 12-01-2004 02:41:02 6.8 C 4.74 g/m*3 6.8 C 0 km/h
1549 12-01-2004 02:53:02 6.7 C 4.79 g/m*3 6.7 C 0 km/h
1550 12-01-2004 03:05:02 6.4 C 4.55 g/m*3 6.4 C 0 km/h
Sensor: Nr:Datum:Temp:Abs-Feuchte:Windchill:Wind:
Aussen-T/F 1551 12-01-2004 03:17:02 6.1 C 4.46 g/m*3 6.1 C 0 km/h
1552 12-01-2004 03:29:02 5.9 C 4.54 g/m*3 5.9 C 0 km/h
1553 12-01-2004 03:41:00 6 C 4.5 g/m*3 6 C 0 km/h
1554 12-01-2004 03:53:00 6 C 4.43 g/m*3 6 C 0 km/h
1555 12-01-2004 04:05:58 5.8 C 4.3 g/m*3 5.8 C 0 km/h
1556 12-01-2004 04:17:58 5.8 C 4.3 g/m*3 5.8 C 0 km/h
1557 12-01-2004 04:29:58 5.6 C 4.31 g/m*3 5.6 C 0 km/h
1558 12-01-2004 04:41:01 5.2 C 4.27 g/m*3 5.2 C 0 km/h
1559 12-01-2004 04:53:01 4.7 C 4.4 g/m*3 4.7 C 0 km/h
1560 12-01-2004 05:05:01 5.6 C 4.52 g/m*3 5.6 C 0 km/h
1561 12-01-2004 05:17:01 5.5 C 4.49 g/m*3 5.5 C 0 km/h
1562 12-01-2004 05:29:01 5.8 C 4.58 g/m*3 5.8 C 0 km/h
1563 12-01-2004 05:41:00 5.6 C 4.6 g/m*3 5.6 C 0 km/h
1564 12-01-2004 05:53:00 5.8 C 4.66 g/m*3 5.8 C 0 km/h
1565 12-01-2004 06:05:58 5.7 C 4.7 g/m*3 5.7 C 0 km/h
1566 12-01-2004 06:17:58 5.5 C 4.71 g/m*3 5.5 C 0 km/h
1567 12-01-2004 06:29:58 5.6 C 4.74 g/m*3 5.6 C 0 km/h
1568 12-01-2004 06:41:01 5.9 C 4.76 g/m*3 5.9 C 0 km/h
1569 12-01-2004 06:53:01 5.6 C 4.74 g/m*3 5.6 C 0 km/h
1570 12-01-2004 07:05:01 5.7 C 4.77 g/m*3 5.7 C 0 km/h
1571 12-01-2004 07:17:01 5.8 C 4.8 g/m*3 5.8 C 0 km/h
1572 12-01-2004 07:29:01 5.6 C 4.74 g/m*3 5.6 C 0 km/h
1573 12-01-2004 07:41:01 5.4 C 4.74 g/m*3 5.4 C 0 km/h
1574 12-01-2004 07:53:01 5.3 C 4.78 g/m*3 5.3 C 0 km/h
1575 12-01-2004 08:05:01 5.1 C 4.79 g/m*3 5.1 C 0 km/h
Sensor: Nr:Datum:Temp:Abs-Feuchte:Windchill:Wind:
Aussen-T/F 1576 12-01-2004 08:17:01 5.1 C 4.86 g/m*3 5.1 C 0 km/h
1577 12-01-2004 08:29:01 5.2 C 4.82 g/m*3 5.2 C 0 km/h
1578 12-01-2004 08:41:00 5.1 C 4.79 g/m*3 5.1 C 0 km/h
1579 12-01-2004 08:53:00 5.5 C 4.92 g/m*3 5.5 C 0 km/h
1580 12-01-2004 09:05:59 5.5 C 4.85 g/m*3 5.5 C 0 km/h
1581 12-01-2004 09:17:59 5.6 C 4.88 g/m*3 5.6 C 0 km/h
1582 12-01-2004 09:29:59 5.9 C 4.9 g/m*3 5.9 C 0 km/h
1583 12-01-2004 09:41:00 5.9 C 4.9 g/m*3 5.9 C 0 km/h
1584 12-01-2004 09:53:00 6.2 C 4.85 g/m*3 6.2 C 0 km/h
1585 12-01-2004 10:05:00 6.4 C 4.84 g/m*3 6.4 C 0 km/h
1586 12-01-2004 10:17:00 6.5 C 4.8 g/m*3 6.5 C 0 km/h
1587 12-01-2004 10:29:00 6.5 C 4.8 g/m*3 6.5 C 0 km/h
1588 12-01-2004 10:41:01 6.7 C 4.86 g/m*3 6.7 C 0 km/h
1589 12-01-2004 10:53:01 6.7 C 4.86 g/m*3 6.7 C 0 km/h
1590 12-01-2004 11:05:01 6.8 C 4.97 g/m*3 6.8 C 0 km/h
1591 12-01-2004 11:17:01 6.8 C 4.89 g/m*3 6.8 C 0 km/h
1592 12-01-2004 11:29:01 6.9 C 5 g/m*3 6.9 C 0 km/h
1593 12-01-2004 11:41:00 7 C 4.96 g/m*3 7 C 0 km/h
1594 12-01-2004 11:53:00 7.2 C 4.95 g/m*3 7.2 C 0 km/h
1595 12-01-2004 12:05:59 7.2 C 4.95 g/m*3 7.2 C 0 km/h
1596 12-01-2004 12:17:59 7.1 C 4.99 g/m*3 7.1 C 0 km/h
1597 12-01-2004 12:29:59 7.1 C 5.15 g/m*3 7.1 C 0 km/h
1598 12-01-2004 12:41:00 7.1 C 5.07 g/m*3 7.1 C 0 km/h
1599 12-01-2004 12:53:00 6.9 C 5.23 g/m*3 6.9 C 0 km/h
1600 12-01-2004 13:05:00 6.8 C 5.28 g/m*3 6.8 C 0 km/h
Sensor: Nr:Datum:Temp:Abs-Feuchte:Windchill:Wind:
Aussen-T/F 1601 12-01-2004 13:17:00 6.8 C 5.28 g/m*3 6.8 C 0 km/h
1602 12-01-2004 13:29:00 6.8 C 5.28 g/m*3 6.8 C 0 km/h
1603 12-01-2004 13:41:01 6.6 C 5.36 g/m*3 6.6 C 0 km/h
1604 12-01-2004 13:53:01 6.3 C 5.33 g/m*3 6.3 C 0 km/h
1605 12-01-2004 14:05:01 6 C 5.3 g/m*3 6 C 0 km/h
1606 12-01-2004 14:17:01 5.7 C 5.48 g/m*3 5.7 C 0 km/h
1607 12-01-2004 14:29:01 5.5 C 5.55 g/m*3 5.5 C 0 km/h
1608 12-01-2004 14:41:01 5.4 C 5.58 g/m*3 5.4 C 0 km/h
1609 12-01-2004 14:53:01 5.4 C 5.65 g/m*3 5.4 C 0 km/h
1610 12-01-2004 15:05:00 5.3 C 5.68 g/m*3 5.3 C 0 km/h
1611 12-01-2004 15:17:00 5.3 C 5.75 g/m*3 5.3 C 0 km/h
1612 12-01-2004 15:29:00 5.2 C 5.78 g/m*3 5.2 C 0 km/h
1613 12-01-2004 15:41:01 5.1 C 5.75 g/m*3 5.1 C 0 km/h
1614 12-01-2004 15:53:01 5 C 5.78 g/m*3 5 C 0 km/h
1615 12-01-2004 16:05:01 4.9 C 5.81 g/m*3 4.9 C 0 km/h
1616 12-01-2004 16:17:01 4.9 C 5.81 g/m*3 4.9 C 0 km/h
1617 12-01-2004 16:29:01 4.7 C 5.73 g/m*3 4.7 C 0 km/h
1618 12-01-2004 16:41:01 4.6 C 5.69 g/m*3 4.6 C 0 km/h
1619 12-01-2004 16:53:01 4.5 C 5.65 g/m*3 4.5 C 0 km/h
1620 12-01-2004 17:05:01 4.4 C 5.62 g/m*3 4.4 C 0 km/h
1621 12-01-2004 17:17:01 4.5 C 5.65 g/m*3 4.5 C 0 km/h
1622 12-01-2004 17:29:01 4.4 C 5.68 g/m*3 4.4 C 0 km/h
1623 12-01-2004 17:41:01 4.5 C 5.72 g/m*3 4.5 C 0 km/h
1624 12-01-2004 17:53:01 4.4 C 5.75 g/m*3 4.4 C 0 km/h
1625 12-01-2004 18:05:01 4.6 C 5.82 g/m*3 4.6 C 0 km/h
Sensor: Nr:Datum:Temp:Abs-Feuchte:Windchill:Wind:
Aussen-T/F 1626 12-01-2004 18:17:01 4.6 C 5.82 g/m*3 4.6 C 0 km/h
1627 12-01-2004 18:29:01 4.6 C 5.82 g/m*3 4.6 C 0 km/h
1628 12-01-2004 18:41:00 4.7 C 5.93 g/m*3 4.7 C 0 km/h
1629 12-01-2004 18:53:00 4.7 C 5.93 g/m*3 4.7 C 0 km/h
1630 12-01-2004 19:05:01 4.7 C 5.93 g/m*3 4.7 C 0 km/h
1631 12-01-2004 19:17:01 5 C 6.05 g/m*3 5 C 0 km/h
1632 12-01-2004 19:29:01 5.6 C 6.29 g/m*3 5.6 C 0 km/h
1633 12-01-2004 19:41:59 5.5 C 6.25 g/m*3 5.5 C 0 km/h
1634 12-01-2004 19:52:59 5.3 C 5.89 g/m*3 5.3 C 0 km/h
1635 12-01-2004 20:05:58 4.8 C 5.63 g/m*3 4.8 C 0 km/h
1636 12-01-2004 20:17:58 4.4 C 5.35 g/m*3 4.4 C 0 km/h
1637 12-01-2004 20:29:58 4.4 C 5.29 g/m*3 4.4 C 0 km/h
1638 12-01-2004 20:41:01 4.4 C 5.29 g/m*3 4.4 C 0 km/h
1639 12-01-2004 20:53:01 4.4 C 5.29 g/m*3 4.4 C 0 km/h
1640 12-01-2004 21:05:01 4.4 C 5.29 g/m*3 4.4 C 0 km/h
1641 12-01-2004 21:17:01 4.5 C 5.32 g/m*3 4.5 C 0 km/h
1642 12-01-2004 21:29:01 4.8 C 5.43 g/m*3 4.8 C 0 km/h
1643 12-01-2004 21:41:01 5.1 C 5.34 g/m*3 5.1 C 0 km/h
1644 12-01-2004 21:53:01 5.1 C 5.34 g/m*3 5.1 C 0 km/h
1645 12-01-2004 22:05:01 5.1 C 5.34 g/m*3 5.1 C 0 km/h
1646 12-01-2004 22:17:01 5.1 C 5.4 g/m*3 5.1 C 0 km/h
1647 12-01-2004 22:29:01 5.1 C 5.4 g/m*3 5.1 C 0 km/h
1648 12-01-2004 22:41:01 5.4 C 5.51 g/m*3 5.4 C 0 km/h
1649 12-01-2004 22:53:01 5.7 C 5.48 g/m*3 5.7 C 0 km/h
1650 12-01-2004 23:05:00 5.7 C 5.48 g/m*3 5.7 C 0 km/h
Sensor: Nr:Datum:Temp:Abs-Feuchte:Windchill:Wind:
Aussen-T/F 1651 12-01-2004 23:17:00 6 C 5.44 g/m*3 6 C 0 km/h
1652 12-01-2004 23:29:00 6.2 C 5.44 g/m*3 6.2 C 0 km/h
1653 12-01-2004 23:41:01 6.3 C 5.4 g/m*3 6.3 C 0 km/h
1654 12-01-2004 23:53:01 6.5 C 5.47 g/m*3 6.5 C 0 km/h
1655 13-01-2004 00:05:01 6.4 C 5.44 g/m*3 6.4 C 0 km/h
1656 13-01-2004 00:17:01 6.4 C 5.51 g/m*3 6.4 C 0 km/h
1657 13-01-2004 00:29:01 6.4 C 5.51 g/m*3 6.4 C 0 km/h
1658 13-01-2004 00:41:01 6.5 C 5.55 g/m*3 6.5 C 0 km/h
1659 13-01-2004 00:53:01 6.6 C 5.59 g/m*3 6.6 C 0 km/h
1660 13-01-2004 01:05:01 6.7 C 5.55 g/m*3 6.7 C 0 km/h
1661 13-01-2004 01:17:01 6.7 C 5.55 g/m*3 6.7 C 0 km/h
1662 13-01-2004 01:29:01 6.7 C 5.55 g/m*3 6.7 C 0 km/h
1663 13-01-2004 01:41:00 6.7 C 5.47 g/m*3 6.7 C 0 km/h
1664 13-01-2004 01:53:00 6.7 C 5.47 g/m*3 6.7 C 0 km/h
1665 13-01-2004 02:05:59 6.6 C 5.51 g/m*3 6.6 C 0 km/h
1666 13-01-2004 02:17:59 6.4 C 5.44 g/m*3 6.4 C 0 km/h
1667 13-01-2004 02:29:59 6.1 C 5.41 g/m*3 6.1 C 0 km/h
1668 13-01-2004 02:42:02 6.1 C 5.41 g/m*3 6.1 C 0 km/h
1669 13-01-2004 02:54:02 6.4 C 5.44 g/m*3 6.4 C 0 km/h
1670 13-01-2004 03:06:02 6.5 C 5.4 g/m*3 6.5 C 0 km/h
1671 13-01-2004 03:18:02 6.4 C 5.36 g/m*3 6.4 C 0 km/h
1672 13-01-2004 03:30:02 6.5 C 5.47 g/m*3 6.5 C 0 km/h
1673 13-01-2004 03:42:00 6.4 C 5.44 g/m*3 6.4 C 0 km/h
1674 13-01-2004 03:54:00 6.3 C 5.48 g/m*3 6.3 C 0 km/h
1675 13-01-2004 04:06:59 6.2 C 5.44 g/m*3 6.2 C 0 km/h
Sensor: Nr:Datum:Temp:Abs-Feuchte:Windchill:Wind:
Aussen-T/F 1676 13-01-2004 04:18:59 6.3 C 5.48 g/m*3 6.3 C 0 km/h
1677 13-01-2004 04:30:59 6.4 C 5.51 g/m*3 6.4 C 0 km/h
1678 13-01-2004 04:42:01 6.5 C 5.47 g/m*3 6.5 C 0 km/h
1679 13-01-2004 04:54:01 6.7 C 5.55 g/m*3 6.7 C 0 km/h
1680 13-01-2004 05:06:00 6.6 C 5.51 g/m*3 6.6 C 0 km/h
1681 13-01-2004 05:18:00 6.7 C 5.62 g/m*3 6.7 C 0 km/h
1682 13-01-2004 05:30:00 6.6 C 5.59 g/m*3 6.6 C 0 km/h
1683 13-01-2004 05:42:01 6.5 C 5.55 g/m*3 6.5 C 0 km/h
1684 13-01-2004 05:54:01 6.2 C 5.74 g/m*3 6.2 C 0 km/h
1685 13-01-2004 06:06:01 6 C 5.88 g/m*3 6 C 0 km/h
1686 13-01-2004 06:18:01 6 C 5.95 g/m*3 6 C 0 km/h
1687 13-01-2004 06:30:01 6 C 5.95 g/m*3 6 C 0 km/h
1688 13-01-2004 06:42:01 5.9 C 6.06 g/m*3 5.9 C 0 km/h
1689 13-01-2004 06:54:01 5.9 C 6.13 g/m*3 5.9 C 0 km/h
1690 13-01-2004 07:06:01 5.8 C 6.09 g/m*3 5.8 C 0 km/h
1691 13-01-2004 07:18:01 5.8 C 6.16 g/m*3 5.8 C 0 km/h
1692 13-01-2004 07:30:01 5.8 C 6.16 g/m*3 5.8 C 0 km/h
1693 13-01-2004 07:42:00 5.9 C 6.27 g/m*3 5.9 C 0 km/h
1694 13-01-2004 07:54:00 6.1 C 6.28 g/m*3 6.1 C 0 km/h
1695 13-01-2004 08:06:58 6.3 C 6.37 g/m*3 6.3 C 0 km/h
1696 13-01-2004 08:18:58 6.4 C 6.41 g/m*3 6.4 C 0 km/h
1697 13-01-2004 08:30:58 6.4 C 6.41 g/m*3 6.4 C 0 km/h
1698 13-01-2004 08:42:01 6.5 C 6.45 g/m*3 6.5 C 0 km/h
1699 13-01-2004 08:54:01 6.7 C 6.53 g/m*3 6.7 C 0 km/h
1700 13-01-2004 09:06:01 6.7 C 6.53 g/m*3 6.7 C 0 km/h
Sensor: Nr:Datum:Temp:Abs-Feuchte:Windchill:Wind:
Aussen-T/F 1701 13-01-2004 09:18:01 6.7 C 6.53 g/m*3 6.7 C 0 km/h
1702 13-01-2004 09:30:01 6.7 C 6.61 g/m*3 6.7 C 0 km/h
1703 13-01-2004 09:42:00 6.9 C 6.7 g/m*3 6.9 C 0 km/h
1704 13-01-2004 09:54:00 6.9 C 6.77 g/m*3 6.9 C 0 km/h
1705 13-01-2004 10:06:59 7 C 6.74 g/m*3 7 C 0 km/h
1706 13-01-2004 10:18:59 7.3 C 6.95 g/m*3 7.3 C 0 km/h
1707 13-01-2004 10:30:59 7.4 C 7 g/m*3 7.4 C 0 km/h
1708 13-01-2004 10:42:01 7.5 C 7.04 g/m*3 7.5 C 0 km/h
1709 13-01-2004 10:54:01 7.7 C 7.05 g/m*3 7.7 C 0 km/h
1710 13-01-2004 11:06:01 8.2 C 7.2 g/m*3 8.2 C 0 km/h
1711 13-01-2004 11:18:01 9.1 C 7.45 g/m*3 9.1 C 0 km/h
1712 13-01-2004 11:30:01 10 C 7.33 g/m*3 10 C 0 km/h
1713 13-01-2004 11:42:00 10.2 C 7.14 g/m*3 10.2 C 0 km/h
1714 13-01-2004 11:54:00 10.3 C 7.18 g/m*3 10.3 C 0 km/h
1715 13-01-2004 12:06:59 10.2 C 7.04 g/m*3 10.2 C 0 km/h
1716 13-01-2004 12:18:59 10.5 C 6.98 g/m*3 10.5 C 0 km/h
1717 13-01-2004 12:30:59 10.4 C 6.84 g/m*3 10.4 C 0 km/h
1718 13-01-2004 12:42:01 10.8 C 6.62 g/m*3 10.8 C 0 km/h
1719 13-01-2004 12:54:01 11 C 6.41 g/m*3 11 C 0 km/h
1720 13-01-2004 13:06:01 11 C 6.21 g/m*3 11 C 0 km/h
1721 13-01-2004 13:18:01 11 C 6.21 g/m*3 11 C 0 km/h
1722 13-01-2004 13:30:01 11.2 C 5.78 g/m*3 11.2 C 0 km/h
1723 13-01-2004 13:42:00 11.1 C 5.74 g/m*3 11.1 C 0 km/h
1724 13-01-2004 13:54:00 11 C 5.81 g/m*3 11 C 0 km/h
1725 13-01-2004 14:06:59 11 C 5.71 g/m*3 11 C 0 km/h
Sensor: Nr:Datum:Temp:Abs-Feuchte:Windchill:Wind:
Aussen-T/F 1726 13-01-2004 14:18:59 10.4 C 5.98 g/m*3 10.4 C 0 km/h
1727 13-01-2004 14:30:59 10.6 C 5.86 g/m*3 10.6 C 0 km/h
1728 13-01-2004 14:42:01 10.6 C 5.56 g/m*3 10.6 C 0 km/h
1729 13-01-2004 14:54:01 10.6 C 5.47 g/m*3 10.6 C 0 km/h
1730 13-01-2004 15:06:01 10.4 C 5.3 g/m*3 10.4 C 0 km/h
1731 13-01-2004 15:18:01 10.4 C 5.3 g/m*3 10.4 C 0 km/h
1732 13-01-2004 15:30:01 10.1 C 5.3 g/m*3 10.1 C 0 km/h
1733 13-01-2004 15:42:00 10.2 C 5.23 g/m*3 10.2 C 0 km/h
1734 13-01-2004 15:54:00 10 C 5.26 g/m*3 10 C 0 km/h
1735 13-01-2004 16:06:59 9.6 C 5.4 g/m*3 9.6 C 0 km/h
1736 13-01-2004 16:18:59 9.4 C 5.25 g/m*3 9.4 C 0 km/h
1737 13-01-2004 16:30:59 9.2 C 5.27 g/m*3 9.2 C 0 km/h
1738 13-01-2004 16:42:01 9 C 5.03 g/m*3 9 C 0 km/h
1739 13-01-2004 16:54:01 8.9 C 4.99 g/m*3 8.9 C 0 km/h
1740 13-01-2004 17:06:01 8.8 C 5.05 g/m*3 8.8 C 0 km/h
1741 13-01-2004 17:18:01 8.6 C 5.07 g/m*3 8.6 C 0 km/h
1742 13-01-2004 17:30:01 8.6 C 5.07 g/m*3 8.6 C 0 km/h
1743 13-01-2004 17:42:00 8.5 C 5.21 g/m*3 8.5 C 0 km/h
1744 13-01-2004 17:54:00 8.4 C 5.17 g/m*3 8.4 C 0 km/h
1745 13-01-2004 18:06:59 8.3 C 5.23 g/m*3 8.3 C 0 km/h
1746 13-01-2004 18:18:59 8.2 C 5.19 g/m*3 8.2 C 0 km/h
1747 13-01-2004 18:30:59 8 C 5.29 g/m*3 8 C 0 km/h
1748 13-01-2004 18:42:01 8 C 5.29 g/m*3 8 C 0 km/h
1749 13-01-2004 18:54:01 8.1 C 5.24 g/m*3 8.1 C 0 km/h
1750 13-01-2004 19:06:01 8 C 5.29 g/m*3 8 C 0 km/h
Sensor: Nr:Datum:Temp:Abs-Feuchte:Windchill:Wind:
Aussen-T/F 1751 13-01-2004 19:18:01 8 C 5.21 g/m*3 8 C 0 km/h
1752 13-01-2004 19:30:01 8 C 5.21 g/m*3 8 C 0 km/h
1753 13-01-2004 19:42:01 7.9 C 5.34 g/m*3 7.9 C 0 km/h
1754 13-01-2004 19:54:01 7.6 C 5.24 g/m*3 7.6 C 0 km/h
1755 13-01-2004 20:06:02 7.6 C 5.16 g/m*3 7.6 C 0 km/h
1756 13-01-2004 20:18:02 7.7 C 5.11 g/m*3 7.7 C 0 km/h
1757 13-01-2004 20:30:02 7.8 C 5.14 g/m*3 7.8 C 0 km/h
1758 13-01-2004 20:42:00 7.7 C 5.11 g/m*3 7.7 C 0 km/h
1759 13-01-2004 20:54:00 7.8 C 5.06 g/m*3 7.8 C 0 km/h
1760 13-01-2004 21:06:59 7.8 C 4.9 g/m*3 7.8 C 0 km/h
1761 13-01-2004 21:18:59 7.9 C 4.93 g/m*3 7.9 C 0 km/h
1762 13-01-2004 21:30:59 7.8 C 4.98 g/m*3 7.8 C 0 km/h
1763 13-01-2004 21:42:01 7.7 C 4.95 g/m*3 7.7 C 0 km/h
1764 13-01-2004 21:54:01 7.6 C 4.91 g/m*3 7.6 C 0 km/h
1765 13-01-2004 22:06:01 7.6 C 4.83 g/m*3 7.6 C 0 km/h
1766 13-01-2004 22:18:01 7.7 C 4.62 g/m*3 7.7 C 0 km/h
1767 13-01-2004 22:30:01 7.7 C 4.54 g/m*3 7.7 C 0 km/h
1768 13-01-2004 22:42:01 7.6 C 4.51 g/m*3 7.6 C 0 km/h
1769 13-01-2004 22:54:01 7.5 C 4.48 g/m*3 7.5 C 0 km/h
1770 13-01-2004 23:06:01 7.2 C 4.4 g/m*3 7.2 C 0 km/h
1771 13-01-2004 23:18:01 7.1 C 4.29 g/m*3 7.1 C 0 km/h
1772 13-01-2004 23:30:01 6.9 C 4.23 g/m*3 6.9 C 0 km/h
1773 13-01-2004 23:42:00 6.8 C 4.21 g/m*3 6.8 C 0 km/h
1774 13-01-2004 23:54:00 6.7 C 4.33 g/m*3 6.7 C 0 km/h
1775 14-01-2004 00:06:59 6.8 C 4.44 g/m*3 6.8 C 0 km/h
Sensor: Nr:Datum:Temp:Abs-Feuchte:Windchill:Wind:
Aussen-T/F 1776 14-01-2004 00:18:59 6.5 C 4.27 g/m*3 6.5 C 0 km/h
1777 14-01-2004 00:30:59 6.8 C 4.28 g/m*3 6.8 C 0 km/h
1778 14-01-2004 00:42:01 6.5 C 4.12 g/m*3 6.5 C 0 km/h
1779 14-01-2004 00:54:01 6.5 C 4.2 g/m*3 6.5 C 0 km/h
1780 14-01-2004 01:06:01 6.3 C 4.15 g/m*3 6.3 C 0 km/h
1781 14-01-2004 01:18:01 6.2 C 4.27 g/m*3 6.2 C 0 km/h
1782 14-01-2004 01:30:01 6.2 C 4.34 g/m*3 6.2 C 0 km/h
1783 14-01-2004 01:42:00 6 C 4.28 g/m*3 6 C 0 km/h
1784 14-01-2004 01:54:00 5.9 C 4.4 g/m*3 5.9 C 0 km/h
1785 14-01-2004 02:06:58 6 C 4.35 g/m*3 6 C 0 km/h
1786 14-01-2004 02:18:58 5.9 C 4.47 g/m*3 5.9 C 0 km/h
1787 14-01-2004 02:30:58 5.9 C 4.47 g/m*3 5.9 C 0 km/h
1788 14-01-2004 02:43:02 6.1 C 4.46 g/m*3 6.1 C 0 km/h
1789 14-01-2004 02:55:02 6.7 C 4.41 g/m*3 6.7 C 0 km/h
1790 14-01-2004 03:07:02 6.4 C 4.4 g/m*3 6.4 C 0 km/h
1791 14-01-2004 03:19:02 6.2 C 4.41 g/m*3 6.2 C 0 km/h
1792 14-01-2004 03:31:02 6.5 C 4.35 g/m*3 6.5 C 0 km/h
1793 14-01-2004 03:43:00 6.4 C 4.47 g/m*3 6.4 C 0 km/h
1794 14-01-2004 03:55:00 6 C 4.57 g/m*3 6 C 0 km/h
1795 14-01-2004 04:07:59 5.8 C 4.66 g/m*3 5.8 C 0 km/h
1796 14-01-2004 04:19:59 5.5 C 4.71 g/m*3 5.5 C 0 km/h
1797 14-01-2004 04:31:01 5.1 C 4.72 g/m*3 5.1 C 0 km/h
1798 14-01-2004 04:43:01 5 C 4.62 g/m*3 5 C 0 km/h
1799 14-01-2004 04:55:01 5 C 4.55 g/m*3 5 C 0 km/h
1800 14-01-2004 05:07:01 5.1 C 4.51 g/m*3 5.1 C 0 km/h
Sensor: Nr:Datum:Temp:Abs-Feuchte:Windchill:Wind:
Aussen-T/F 1801 14-01-2004 05:19:01 5.3 C 4.51 g/m*3 5.3 C 0 km/h
1802 14-01-2004 05:31:01 5.7 C 4.41 g/m*3 5.7 C 0 km/h
1803 14-01-2004 05:43:00 5.7 C 4.2 g/m*3 5.7 C 0 km/h
1804 14-01-2004 05:55:00 5.4 C 4.26 g/m*3 5.4 C 0 km/h
1805 14-01-2004 06:07:58 5.3 C 4.23 g/m*3 5.3 C 0 km/h
1806 14-01-2004 06:19:58 5.4 C 4.26 g/m*3 5.4 C 0 km/h
1807 14-01-2004 06:31:01 5.1 C 4.24 g/m*3 5.1 C 0 km/h
1808 14-01-2004 06:43:01 5 C 4.21 g/m*3 5 C 0 km/h
1809 14-01-2004 06:55:01 4.8 C 4.22 g/m*3 4.8 C 0 km/h
1810 14-01-2004 07:07:01 4.8 C 4.16 g/m*3 4.8 C 0 km/h
1811 14-01-2004 07:19:01 4.7 C 4.13 g/m*3 4.7 C 0 km/h
1812 14-01-2004 07:31:01 4.7 C 4.06 g/m*3 4.7 C 0 km/h
1813 14-01-2004 07:43:01 4.8 C 4.09 g/m*3 4.8 C 0 km/h
1814 14-01-2004 07:55:01 4.7 C 4.06 g/m*3 4.7 C 0 km/h
1815 14-01-2004 08:07:01 4.7 C 4 g/m*3 4.7 C 0 km/h
1816 14-01-2004 08:19:01 4.6 C 3.97 g/m*3 4.6 C 0 km/h
1817 14-01-2004 08:31:01 4.5 C 3.94 g/m*3 4.5 C 0 km/h
1818 14-01-2004 08:43:00 4.4 C 3.98 g/m*3 4.4 C 0 km/h
1819 14-01-2004 08:55:00 4.3 C 3.96 g/m*3 4.3 C 0 km/h
1820 14-01-2004 09:07:59 4.3 C 3.96 g/m*3 4.3 C 0 km/h
1821 14-01-2004 09:19:59 4.3 C 4.02 g/m*3 4.3 C 0 km/h
1822 14-01-2004 09:31:01 4.8 C 4.16 g/m*3 4.8 C 0 km/h
1823 14-01-2004 09:43:01 5.2 C 4.13 g/m*3 5.2 C 0 km/h
1824 14-01-2004 09:55:01 5.5 C 4.21 g/m*3 5.5 C 0 km/h
1825 14-01-2004 10:07:01 5.4 C 4.33 g/m*3 5.4 C 0 km/h
Sensor: Nr:Datum:Temp:Abs-Feuchte:Windchill:Wind:
Aussen-T/F 1826 14-01-2004 10:19:01 5.7 C 4.41 g/m*3 5.7 C 0 km/h
1827 14-01-2004 10:31:01 5.9 C 4.47 g/m*3 5.9 C 0 km/h
1828 14-01-2004 10:43:00 6.1 C 4.38 g/m*3 6.1 C 0 km/h
1829 14-01-2004 10:55:00 6.4 C 4.47 g/m*3 6.4 C 0 km/h
1830 14-01-2004 11:07:59 6.8 C 4.51 g/m*3 6.8 C 0 km/h
1831 14-01-2004 11:19:59 6.9 C 4.46 g/m*3 6.9 C 0 km/h
1832 14-01-2004 11:31:01 6.9 C 4.39 g/m*3 6.9 C 0 km/h
1833 14-01-2004 11:43:01 6.8 C 4.28 g/m*3 6.8 C 0 km/h
1834 14-01-2004 11:55:01 6.6 C 4.23 g/m*3 6.6 C 0 km/h
1835 14-01-2004 12:07:01 6.8 C 4.21 g/m*3 6.8 C 0 km/h
1836 14-01-2004 12:19:01 7.2 C 4.24 g/m*3 7.2 C 0 km/h
1837 14-01-2004 12:31:01 7.4 C 4.29 g/m*3 7.4 C 0 km/h
1838 14-01-2004 12:43:00 7.5 C 4.24 g/m*3 7.5 C 0 km/h
1839 14-01-2004 12:55:00 7.7 C 4.22 g/m*3 7.7 C 0 km/h
1840 14-01-2004 13:07:59 7.9 C 4.19 g/m*3 7.9 C 0 km/h
1841 14-01-2004 13:19:59 8 C 4.13 g/m*3 8 C 0 km/h
1842 14-01-2004 13:31:01 7.8 C 4.16 g/m*3 7.8 C 0 km/h
1843 14-01-2004 13:43:01 7.8 C 4.16 g/m*3 7.8 C 0 km/h
1844 14-01-2004 13:55:01 7.6 C 4.19 g/m*3 7.6 C 0 km/h
1845 14-01-2004 14:07:01 7.6 C 4.27 g/m*3 7.6 C 0 km/h
1846 14-01-2004 14:19:01 7.5 C 4.32 g/m*3 7.5 C 0 km/h
1847 14-01-2004 14:31:01 7.4 C 4.37 g/m*3 7.4 C 0 km/h
1848 14-01-2004 14:43:00 7.6 C 4.51 g/m*3 7.6 C 0 km/h
1849 14-01-2004 14:55:00 8 C 4.46 g/m*3 8 C 0 km/h
1850 14-01-2004 15:07:58 8.3 C 4.47 g/m*3 8.3 C 0 km/h
Sensor: Nr:Datum:Temp:Abs-Feuchte:Windchill:Wind:
Aussen-T/F 1851 14-01-2004 15:19:58 8.2 C 4.35 g/m*3 8.2 C 0 km/h
1852 14-01-2004 15:31:01 8.1 C 4.33 g/m*3 8.1 C 0 km/h
1853 14-01-2004 15:43:01 8 C 4.3 g/m*3 8 C 0 km/h
1854 14-01-2004 15:55:01 8 C 4.3 g/m*3 8 C 0 km/h
1855 14-01-2004 16:07:01 8 C 4.3 g/m*3 8 C 0 km/h
1856 14-01-2004 16:19:01 7.7 C 4.38 g/m*3 7.7 C 0 km/h
1857 14-01-2004 16:31:01 7.7 C 4.38 g/m*3 7.7 C 0 km/h
1858 14-01-2004 16:43:00 7.4 C 4.45 g/m*3 7.4 C 0 km/h
1859 14-01-2004 16:55:00 7.2 C 4.55 g/m*3 7.2 C 0 km/h
1860 14-01-2004 17:07:59 6.5 C 4.87 g/m*3 6.5 C 0 km/h
1861 14-01-2004 17:19:59 6.7 C 5.01 g/m*3 6.7 C 0 km/h
1862 14-01-2004 17:31:01 6.3 C 4.96 g/m*3 6.3 C 0 km/h
1863 14-01-2004 17:43:01 6.4 C 5.07 g/m*3 6.4 C 0 km/h
1864 14-01-2004 17:55:01 6 C 5.08 g/m*3 6 C 0 km/h
1865 14-01-2004 18:07:01 6.1 C 5.11 g/m*3 6.1 C 0 km/h
1866 14-01-2004 18:19:01 6.3 C 5.03 g/m*3 6.3 C 0 km/h
1867 14-01-2004 18:31:01 6.3 C 5.03 g/m*3 6.3 C 0 km/h
1868 14-01-2004 18:43:00 6.3 C 4.96 g/m*3 6.3 C 0 km/h
1869 14-01-2004 18:55:00 5.7 C 5.12 g/m*3 5.7 C 0 km/h
1870 14-01-2004 19:07:58 5 C 5.23 g/m*3 5 C 0 km/h
1871 14-01-2004 19:19:58 4.7 C 5.4 g/m*3 4.7 C 0 km/h
1872 14-01-2004 19:31:01 4.7 C 5.46 g/m*3 4.7 C 0 km/h
1873 14-01-2004 19:43:01 4.7 C 5.46 g/m*3 4.7 C 0 km/h
1874 14-01-2004 19:55:01 4.7 C 5.46 g/m*3 4.7 C 0 km/h
1875 14-01-2004 20:07:01 4.6 C 5.49 g/m*3 4.6 C 0 km/h
Sensor: Nr:Datum:Temp:Abs-Feuchte:Windchill:Wind:
Aussen-T/F 1876 14-01-2004 20:19:01 4.5 C 5.46 g/m*3 4.5 C 0 km/h
1877 14-01-2004 20:31:01 4.5 C 5.46 g/m*3 4.5 C 0 km/h
1878 14-01-2004 20:43:01 4.4 C 5.42 g/m*3 4.4 C 0 km/h
1879 14-01-2004 20:55:01 4.3 C 5.32 g/m*3 4.3 C 0 km/h
1880 14-01-2004 21:07:02 4.3 C 5.25 g/m*3 4.3 C 0 km/h
1881 14-01-2004 21:19:02 4.3 C 5.25 g/m*3 4.3 C 0 km/h
1882 14-01-2004 21:31:02 4.2 C 5.09 g/m*3 4.2 C 0 km/h
1883 14-01-2004 21:43:00 4 C 5.02 g/m*3 4 C 0 km/h
1884 14-01-2004 21:55:00 3.8 C 5.02 g/m*3 3.8 C 0 km/h
1885 14-01-2004 22:07:59 3.8 C 5.08 g/m*3 3.8 C 0 km/h
1886 14-01-2004 22:19:59 4 C 5.02 g/m*3 4 C 0 km/h
1887 14-01-2004 22:31:01 4.1 C 4.99 g/m*3 4.1 C 0 km/h
1888 14-01-2004 22:43:01 4.2 C 5.09 g/m*3 4.2 C 0 km/h
1889 14-01-2004 22:55:01 4.4 C 5.09 g/m*3 4.4 C 0 km/h
1890 14-01-2004 23:07:02 4.5 C 5.06 g/m*3 4.5 C 0 km/h
1891 14-01-2004 23:19:02 4.6 C 5.1 g/m*3 4.6 C 0 km/h
1892 14-01-2004 23:31:02 4.6 C 5.03 g/m*3 4.6 C 0 km/h
1893 14-01-2004 23:43:00 4.7 C 4.93 g/m*3 4.7 C 0 km/h
1894 14-01-2004 23:55:00 4.6 C 4.96 g/m*3 4.6 C 0 km/h
1895 15-01-2004 00:07:59 4.8 C 4.96 g/m*3 4.8 C 0 km/h
1896 15-01-2004 00:19:59 4.7 C 5 g/m*3 4.7 C 0 km/h
1897 15-01-2004 00:31:01 4.5 C 5 g/m*3 4.5 C 0 km/h
1898 15-01-2004 00:43:01 4.4 C 5.09 g/m*3 4.4 C 0 km/h
1899 15-01-2004 00:55:01 4.3 C 5.12 g/m*3 4.3 C 0 km/h
1900 15-01-2004 01:07:00 4.2 C 5.15 g/m*3 4.2 C 0 km/h
Sensor: Nr:Datum:Temp:Abs-Feuchte:Windchill:Wind:
Aussen-T/F 1901 15-01-2004 01:19:00 4 C 5.02 g/m*3 4 C 0 km/h
1902 15-01-2004 01:31:00 4 C 4.9 g/m*3 4 C 0 km/h
1903 15-01-2004 01:43:01 4.2 C 4.83 g/m*3 4.2 C 0 km/h
1904 15-01-2004 01:55:01 4.4 C 4.83 g/m*3 4.4 C 0 km/h
1905 15-01-2004 02:07:01 4.2 C 4.83 g/m*3 4.2 C 0 km/h
1906 15-01-2004 02:19:01 4 C 4.9 g/m*3 4 C 0 km/h
1907 15-01-2004 02:31:01 3.8 C 5.02 g/m*3 3.8 C 0 km/h
1908 15-01-2004 02:44:59 3.6 C 5.01 g/m*3 3.6 C 0 km/h
1909 15-01-2004 02:56:59 3.6 C 5.08 g/m*3 3.6 C 0 km/h
1910 15-01-2004 03:08:59 3.7 C 5.05 g/m*3 3.7 C 0 km/h
1911 15-01-2004 03:20:59 3.5 C 4.8 g/m*3 3.5 C 0 km/h
1912 15-01-2004 03:32:01 3.5 C 4.8 g/m*3 3.5 C 0 km/h
1913 15-01-2004 03:44:01 3.2 C 4.7 g/m*3 3.2 C 0 km/h
1914 15-01-2004 03:56:01 3 C 4.7 g/m*3 3 C 0 km/h
1915 15-01-2004 04:08:01 3 C 4.76 g/m*3 3 C 0 km/h
1916 15-01-2004 04:20:01 2.8 C 4.81 g/m*3 2.8 C 0 km/h
1917 15-01-2004 04:32:01 2.6 C 4.86 g/m*3 2.6 C 0 km/h
1918 15-01-2004 04:44:01 2.6 C 4.86 g/m*3 2.6 C 0 km/h
1919 15-01-2004 04:56:01 2.5 C 4.89 g/m*3 2.5 C 0 km/h
1920 15-01-2004 05:08:01 2.7 C 4.89 g/m*3 2.7 C 0 km/h
1921 15-01-2004 05:20:01 2.9 C 4.84 g/m*3 2.9 C 0 km/h
1922 15-01-2004 05:32:00 2.8 C 4.87 g/m*3 2.8 C 0 km/h
1923 15-01-2004 05:44:00 2.9 C 4.96 g/m*3 2.9 C 0 km/h
1924 15-01-2004 05:56:00 3.4 C 5.07 g/m*3 3.4 C 0 km/h
1925 15-01-2004 06:08:59 3.7 C 5.05 g/m*3 3.7 C 0 km/h
Sensor: Nr:Datum:Temp:Abs-Feuchte:Windchill:Wind:
Aussen-T/F 1926 15-01-2004 06:20:59 4.1 C 5.06 g/m*3 4.1 C 0 km/h
1927 15-01-2004 06:32:01 4.3 C 5.06 g/m*3 4.3 C 0 km/h
1928 15-01-2004 06:44:01 4 C 4.83 g/m*3 4 C 0 km/h
1929 15-01-2004 06:56:01 2.7 C 4.72 g/m*3 2.7 C 0 km/h
1930 15-01-2004 07:08:01 2.9 C 4.9 g/m*3 2.9 C 0 km/h
1931 15-01-2004 07:20:01 4 C 4.96 g/m*3 4 C 0 km/h
1932 15-01-2004 07:32:00 4.1 C 4.8 g/m*3 4.1 C 0 km/h
1933 15-01-2004 07:44:00 4.3 C 4.67 g/m*3 4.3 C 0 km/h
1934 15-01-2004 07:56:00 4.1 C 4.61 g/m*3 4.1 C 0 km/h
1935 15-01-2004 08:08:59 4.2 C 4.57 g/m*3 4.2 C 0 km/h
1936 15-01-2004 08:20:59 4.2 C 4.51 g/m*3 4.2 C 0 km/h
1937 15-01-2004 08:32:01 4.2 C 4.45 g/m*3 4.2 C 0 km/h
1938 15-01-2004 08:44:01 4.1 C 4.35 g/m*3 4.1 C 0 km/h
1939 15-01-2004 08:56:01 4 C 4.39 g/m*3 4 C 0 km/h
1940 15-01-2004 09:08:01 3.9 C 4.42 g/m*3 3.9 C 0 km/h
1941 15-01-2004 09:20:01 3.9 C 4.42 g/m*3 3.9 C 0 km/h
1942 15-01-2004 09:32:00 4.1 C 4.35 g/m*3 4.1 C 0 km/h
1943 15-01-2004 09:44:00 4.2 C 4.32 g/m*3 4.2 C 0 km/h
1944 15-01-2004 09:56:00 4.3 C 4.28 g/m*3 4.3 C 0 km/h
1945 15-01-2004 10:08:58 4.7 C 4.2 g/m*3 4.7 C 0 km/h
1946 15-01-2004 10:20:58 4.8 C 4.29 g/m*3 4.8 C 0 km/h
1947 15-01-2004 10:32:01 4.8 C 4.29 g/m*3 4.8 C 0 km/h
1948 15-01-2004 10:44:01 5.1 C 4.17 g/m*3 5.1 C 0 km/h
1949 15-01-2004 10:56:01 5.2 C 4.27 g/m*3 5.2 C 0 km/h
1950 15-01-2004 11:08:01 5.3 C 4.3 g/m*3 5.3 C 0 km/h
Sensor: Nr:Datum:Temp:Abs-Feuchte:Windchill:Wind:
Aussen-T/F 1951 15-01-2004 11:20:01 5.3 C 4.3 g/m*3 5.3 C 0 km/h
1952 15-01-2004 11:32:00 5.4 C 4.12 g/m*3 5.4 C 0 km/h
1953 15-01-2004 11:44:00 5.5 C 4.21 g/m*3 5.5 C 0 km/h
1954 15-01-2004 11:56:00 5.4 C 4.19 g/m*3 5.4 C 0 km/h
1955 15-01-2004 12:08:58 5.3 C 4.09 g/m*3 5.3 C 0 km/h
1956 15-01-2004 12:20:58 5 C 4.01 g/m*3 5 C 0 km/h
1957 15-01-2004 12:32:01 5.2 C 3.92 g/m*3 5.2 C 0 km/h
1958 15-01-2004 12:44:01 5.1 C 3.83 g/m*3 5.1 C 0 km/h
1959 15-01-2004 12:56:01 5 C 3.81 g/m*3 5 C 0 km/h
1960 15-01-2004 13:08:00 4.9 C 3.78 g/m*3 4.9 C 0 km/h
1961 15-01-2004 13:20:00 4.7 C 3.8 g/m*3 4.7 C 0 km/h
1962 15-01-2004 13:32:01 4.8 C 3.89 g/m*3 4.8 C 0 km/h
1963 15-01-2004 13:44:01 5 C 3.81 g/m*3 5 C 0 km/h
1964 15-01-2004 13:56:01 5.1 C 3.83 g/m*3 5.1 C 0 km/h
1965 15-01-2004 14:08:01 5.1 C 3.9 g/m*3 5.1 C 0 km/h
1966 15-01-2004 14:20:01 5.3 C 3.95 g/m*3 5.3 C 0 km/h
1967 15-01-2004 14:32:01 5.3 C 3.95 g/m*3 5.3 C 0 km/h
1968 15-01-2004 14:44:01 5.3 C 4.02 g/m*3 5.3 C 0 km/h
1969 15-01-2004 14:56:01 5.2 C 4.13 g/m*3 5.2 C 0 km/h
1970 15-01-2004 15:08:00 5.3 C 4.16 g/m*3 5.3 C 0 km/h
1971 15-01-2004 15:20:00 5.3 C 4.16 g/m*3 5.3 C 0 km/h
1972 15-01-2004 15:32:01 5.3 C 4.23 g/m*3 5.3 C 0 km/h
1973 15-01-2004 15:44:01 5.2 C 4.2 g/m*3 5.2 C 0 km/h
1974 15-01-2004 15:56:01 4.8 C 4.29 g/m*3 4.8 C 0 km/h
1975 15-01-2004 16:08:01 4.6 C 4.3 g/m*3 4.6 C 0 km/h
Sensor: Nr:Datum:Temp:Abs-Feuchte:Windchill:Wind:
Aussen-T/F 1976 15-01-2004 16:20:01 4.5 C 4.34 g/m*3 4.5 C 0 km/h
1977 15-01-2004 16:32:00 4.4 C 4.37 g/m*3 4.4 C 0 km/h
1978 15-01-2004 16:44:00 4.4 C 4.37 g/m*3 4.4 C 0 km/h
1979 15-01-2004 16:56:00 4.3 C 4.35 g/m*3 4.3 C 0 km/h
1980 15-01-2004 17:08:58 4 C 4.32 g/m*3 4 C 0 km/h
1981 15-01-2004 17:20:58 4.1 C 4.42 g/m*3 4.1 C 0 km/h
1982 15-01-2004 17:32:01 4.1 C 4.35 g/m*3 4.1 C 0 km/h
1983 15-01-2004 17:44:01 3.9 C 4.42 g/m*3 3.9 C 0 km/h
1984 15-01-2004 17:56:01 3.6 C 4.33 g/m*3 3.6 C 0 km/h
1985 15-01-2004 18:08:01 3.4 C 4.34 g/m*3 3.4 C 0 km/h
1986 15-01-2004 18:20:01 3.1 C 4.31 g/m*3 3.1 C 0 km/h
1987 15-01-2004 18:32:01 3.4 C 4.34 g/m*3 3.4 C 0 km/h
1988 15-01-2004 18:44:01 3.4 C 4.34 g/m*3 3.4 C 0 km/h
1989 15-01-2004 18:56:01 3 C 4.28 g/m*3 3 C 0 km/h
1990 15-01-2004 19:08:01 3 C 4.34 g/m*3 3 C 0 km/h
1991 15-01-2004 19:20:01 2.4 C 4.28 g/m*3 2.4 C 0 km/h
1992 15-01-2004 19:32:01 2.4 C 4.4 g/m*3 2.4 C 0 km/h
1993 15-01-2004 19:44:01 2.5 C 4.43 g/m*3 2.5 C 0 km/h
1994 15-01-2004 19:56:01 3.1 C 4.55 g/m*3 3.1 C 0 km/h
1995 15-01-2004 20:08:01 3.3 C 4.43 g/m*3 3.3 C 0 km/h
1996 15-01-2004 20:20:01 2.9 C 4.43 g/m*3 2.9 C 0 km/h
1997 15-01-2004 20:32:00 3.4 C 4.58 g/m*3 3.4 C 0 km/h
1998 15-01-2004 20:44:00 3.7 C 4.55 g/m*3 3.7 C 0 km/h
1999 15-01-2004 20:56:00 4 C 4.45 g/m*3 4 C 0 km/h
2000 15-01-2004 21:08:58 4.1 C 4.48 g/m*3 4.1 C 0 km/h
Sensor: Nr:Datum:Temp:Abs-Feuchte:Windchill:Wind:
Aussen-T/F 2001 15-01-2004 21:20:58 3.9 C 4.48 g/m*3 3.9 C 0 km/h
2002 15-01-2004 21:32:01 3.6 C 4.46 g/m*3 3.6 C 0 km/h
2003 15-01-2004 21:44:01 3.4 C 4.4 g/m*3 3.4 C 0 km/h
2004 15-01-2004 21:56:01 4 C 4.45 g/m*3 4 C 0 km/h
2005 15-01-2004 22:08:01 4.3 C 4.41 g/m*3 4.3 C 0 km/h
2006 15-01-2004 22:20:01 4.6 C 4.37 g/m*3 4.6 C 0 km/h
2007 15-01-2004 22:32:00 4.6 C 4.3 g/m*3 4.6 C 0 km/h
2008 15-01-2004 22:44:00 4.7 C 4.33 g/m*3 4.7 C 0 km/h
2009 15-01-2004 22:56:00 4.7 C 4.4 g/m*3 4.7 C 0 km/h
2010 15-01-2004 23:08:58 4.5 C 4.47 g/m*3 4.5 C 0 km/h
2011 15-01-2004 23:20:58 4.5 C 4.67 g/m*3 4.5 C 0 km/h
2012 15-01-2004 23:32:01 4.5 C 4.67 g/m*3 4.5 C 0 km/h
2013 15-01-2004 23:44:01 4.8 C 4.69 g/m*3 4.8 C 0 km/h
2014 15-01-2004 23:56:01 4.6 C 4.63 g/m*3 4.6 C 0 km/h
2015 16-01-2004 00:08:01 4.7 C 4.6 g/m*3 4.7 C 0 km/h
2016 16-01-2004 00:20:01 4.8 C 4.63 g/m*3 4.8 C 0 km/h
2017 16-01-2004 00:32:01 5.1 C 4.51 g/m*3 5.1 C 0 km/h
2018 16-01-2004 00:44:01 5.1 C 4.45 g/m*3 5.1 C 0 km/h
2019 16-01-2004 00:56:01 5.1 C 4.38 g/m*3 5.1 C 0 km/h
2020 16-01-2004 01:08:01 5.1 C 4.38 g/m*3 5.1 C 0 km/h
2021 16-01-2004 01:20:01 5 C 4.35 g/m*3 5 C 0 km/h
2022 16-01-2004 01:32:00 4.9 C 4.46 g/m*3 4.9 C 0 km/h
2023 16-01-2004 01:44:00 4.9 C 4.46 g/m*3 4.9 C 0 km/h
2024 16-01-2004 01:56:00 5 C 4.35 g/m*3 5 C 0 km/h
2025 16-01-2004 02:08:58 5 C 4.35 g/m*3 5 C 0 km/h
Sensor: Nr:Datum:Temp:Abs-Feuchte:Windchill:Wind:
Aussen-T/F 2026 16-01-2004 02:20:58 5.1 C 4.31 g/m*3 5.1 C 0 km/h
2027 16-01-2004 02:33:02 5.1 C 4.31 g/m*3 5.1 C 0 km/h
2028 16-01-2004 02:45:02 5 C 4.28 g/m*3 5 C 0 km/h
2029 16-01-2004 02:57:02 5 C 4.28 g/m*3 5 C 0 km/h
2030 16-01-2004 03:09:02 5 C 4.28 g/m*3 5 C 0 km/h
2031 16-01-2004 03:21:02 5.1 C 4.24 g/m*3 5.1 C 0 km/h
2032 16-01-2004 03:33:00 5.2 C 4.2 g/m*3 5.2 C 0 km/h
2033 16-01-2004 03:45:00 5.2 C 4.27 g/m*3 5.2 C 0 km/h
2034 16-01-2004 03:57:00 5.2 C 4.34 g/m*3 5.2 C 0 km/h
2035 16-01-2004 04:09:59 5.2 C 4.34 g/m*3 5.2 C 0 km/h
2036 16-01-2004 04:21:59 5 C 4.42 g/m*3 5 C 0 km/h
2037 16-01-2004 04:33:01 4.8 C 4.63 g/m*3 4.8 C 0 km/h
2038 16-01-2004 04:45:01 4.6 C 4.7 g/m*3 4.6 C 0 km/h
2039 16-01-2004 04:57:01 4.3 C 4.8 g/m*3 4.3 C 0 km/h
2040 16-01-2004 05:09:01 4.3 C 4.86 g/m*3 4.3 C 0 km/h
2041 16-01-2004 05:21:01 4.3 C 4.93 g/m*3 4.3 C 0 km/h
2042 16-01-2004 05:33:00 4.3 C 4.93 g/m*3 4.3 C 0 km/h
2043 16-01-2004 05:45:00 4.4 C 4.83 g/m*3 4.4 C 0 km/h
2044 16-01-2004 05:57:00 4.6 C 4.9 g/m*3 4.6 C 0 km/h
2045 16-01-2004 06:09:58 4.8 C 4.83 g/m*3 4.8 C 0 km/h
2046 16-01-2004 06:21:58 5.1 C 4.72 g/m*3 5.1 C 0 km/h
2047 16-01-2004 06:33:01 5.1 C 4.65 g/m*3 5.1 C 0 km/h
2048 16-01-2004 06:45:01 5.1 C 4.65 g/m*3 5.1 C 0 km/h
2049 16-01-2004 06:57:01 5.1 C 4.65 g/m*3 5.1 C 0 km/h
2050 16-01-2004 07:09:01 5.3 C 4.57 g/m*3 5.3 C 0 km/h
Sensor: Nr:Datum:Temp:Abs-Feuchte:Windchill:Wind:
Aussen-T/F 2051 16-01-2004 07:21:01 5.3 C 4.57 g/m*3 5.3 C 0 km/h
2052 16-01-2004 07:33:00 5.4 C 4.67 g/m*3 5.4 C 0 km/h
2053 16-01-2004 07:45:00 5.1 C 4.79 g/m*3 5.1 C 0 km/h
2054 16-01-2004 07:57:00 5.2 C 4.82 g/m*3 5.2 C 0 km/h
2055 16-01-2004 08:09:59 4.7 C 5.06 g/m*3 4.7 C 0 km/h
2056 16-01-2004 08:21:59 4.6 C 5.1 g/m*3 4.6 C 0 km/h
2057 16-01-2004 08:33:01 4.6 C 5.16 g/m*3 4.6 C 0 km/h
2058 16-01-2004 08:45:01 4.8 C 5.23 g/m*3 4.8 C 0 km/h
2059 16-01-2004 08:57:01 4.8 C 5.3 g/m*3 4.8 C 0 km/h
2060 16-01-2004 09:09:00 4.8 C 5.3 g/m*3 4.8 C 0 km/h
2061 16-01-2004 09:21:00 4.9 C 5.27 g/m*3 4.9 C 0 km/h
2062 16-01-2004 09:33:01 5 C 5.3 g/m*3 5 C 0 km/h
2063 16-01-2004 09:45:01 5 C 5.23 g/m*3 5 C 0 km/h
2064 16-01-2004 09:57:01 5.4 C 5.09 g/m*3 5.4 C 0 km/h
2065 16-01-2004 10:09:01 5.4 C 5.02 g/m*3 5.4 C 0 km/h
2066 16-01-2004 10:21:01 5.6 C 4.95 g/m*3 5.6 C 0 km/h
2067 16-01-2004 10:33:00 5.6 C 4.95 g/m*3 5.6 C 0 km/h
2068 16-01-2004 10:45:00 5.4 C 4.95 g/m*3 5.4 C 0 km/h
2069 16-01-2004 10:57:00 5.2 C 4.89 g/m*3 5.2 C 0 km/h
2070 16-01-2004 11:09:58 5.3 C 4.92 g/m*3 5.3 C 0 km/h
2071 16-01-2004 11:21:58 5.4 C 4.95 g/m*3 5.4 C 0 km/h
2072 16-01-2004 11:33:01 6 C 4.94 g/m*3 6 C 0 km/h
2073 16-01-2004 11:45:01 6.4 C 4.99 g/m*3 6.4 C 0 km/h
2074 16-01-2004 11:57:01 6.7 C 5.09 g/m*3 6.7 C 0 km/h
2075 16-01-2004 12:09:01 6.9 C 5.08 g/m*3 6.9 C 0 km/h
Sensor: Nr:Datum:Temp:Abs-Feuchte:Windchill:Wind:
Aussen-T/F 2076 16-01-2004 12:21:01 7 C 4.96 g/m*3 7 C 0 km/h
2077 16-01-2004 12:33:02 7.5 C 5.04 g/m*3 7.5 C 0 km/h
2078 16-01-2004 12:45:02 7.5 C 4.96 g/m*3 7.5 C 0 km/h
2079 16-01-2004 12:57:02 7.9 C 5.01 g/m*3 7.9 C 0 km/h
2080 16-01-2004 13:09:01 7.8 C 4.98 g/m*3 7.8 C 0 km/h
2081 16-01-2004 13:21:01 8.1 C 4.83 g/m*3 8.1 C 0 km/h
2082 16-01-2004 13:33:00 8.9 C 4.99 g/m*3 8.9 C 0 km/h
2083 16-01-2004 13:45:00 9 C 4.85 g/m*3 9 C 0 km/h
2084 16-01-2004 13:57:00 8.8 C 4.7 g/m*3 8.8 C 0 km/h
2085 16-01-2004 14:09:59 8.7 C 4.67 g/m*3 8.7 C 0 km/h
2086 16-01-2004 14:21:59 8.6 C 4.73 g/m*3 8.6 C 0 km/h
2087 16-01-2004 14:33:01 8.2 C 4.69 g/m*3 8.2 C 0 km/h
2088 16-01-2004 14:45:01 8.3 C 4.64 g/m*3 8.3 C 0 km/h
2089 16-01-2004 14:57:01 8.1 C 4.58 g/m*3 8.1 C 0 km/h
2090 16-01-2004 15:09:01 8.2 C 4.52 g/m*3 8.2 C 0 km/h
2091 16-01-2004 15:21:01 8.2 C 4.44 g/m*3 8.2 C 0 km/h
2092 16-01-2004 15:33:01 8.2 C 4.52 g/m*3 8.2 C 0 km/h
2093 16-01-2004 15:45:01 7.6 C 4.83 g/m*3 7.6 C 0 km/h
2094 16-01-2004 15:57:01 7.9 C 4.68 g/m*3 7.9 C 0 km/h
2095 16-01-2004 16:09:01 8.1 C 4.58 g/m*3 8.1 C 0 km/h
2096 16-01-2004 16:21:01 8 C 4.46 g/m*3 8 C 0 km/h
2097 16-01-2004 16:33:02 8.2 C 4.44 g/m*3 8.2 C 0 km/h
2098 16-01-2004 16:45:02 7.9 C 4.44 g/m*3 7.9 C 0 km/h
2099 16-01-2004 16:57:02 8.1 C 4.41 g/m*3 8.1 C 0 km/h
2100 16-01-2004 17:09:02 8 C 4.38 g/m*3 8 C 0 km/h
Sensor: Nr:Datum:Temp:Abs-Feuchte:Windchill:Wind:
Aussen-T/F 2101 16-01-2004 17:21:02 7.7 C 4.54 g/m*3 7.7 C 0 km/h
2102 16-01-2004 17:33:00 7.5 C 4.4 g/m*3 7.5 C 0 km/h
2103 16-01-2004 17:45:00 7.3 C 4.5 g/m*3 7.3 C 0 km/h
2104 16-01-2004 17:57:00 6.9 C 4.77 g/m*3 6.9 C 0 km/h
2105 16-01-2004 18:09:59 6.4 C 4.69 g/m*3 6.4 C 0 km/h
2106 16-01-2004 18:21:59 6 C 4.79 g/m*3 6 C 0 km/h
2107 16-01-2004 18:33:01 6 C 4.79 g/m*3 6 C 0 km/h
2108 16-01-2004 18:45:01 5.7 C 4.77 g/m*3 5.7 C 0 km/h
2109 16-01-2004 18:57:01 5.8 C 4.66 g/m*3 5.8 C 0 km/h
2110 16-01-2004 19:09:00 5.9 C 4.69 g/m*3 5.9 C 0 km/h
2111 16-01-2004 19:21:00 5.9 C 4.54 g/m*3 5.9 C 0 km/h
2112 16-01-2004 19:33:01 5.8 C 4.58 g/m*3 5.8 C 0 km/h
2113 16-01-2004 19:45:01 5.7 C 4.63 g/m*3 5.7 C 0 km/h
2114 16-01-2004 19:57:01 6 C 4.43 g/m*3 6 C 0 km/h
2115 16-01-2004 20:09:01 6.2 C 4.41 g/m*3 6.2 C 0 km/h
2116 16-01-2004 20:21:01 6.3 C 4.37 g/m*3 6.3 C 0 km/h
2117 16-01-2004 20:33:01 6.1 C 4.31 g/m*3 6.1 C 0 km/h
2118 16-01-2004 20:45:01 6 C 4.35 g/m*3 6 C 0 km/h
2119 16-01-2004 20:57:01 6 C 4.5 g/m*3 6 C 0 km/h
2120 16-01-2004 21:09:59 5.8 C 4.58 g/m*3 5.8 C 0 km/h
2121 16-01-2004 21:21:59 5.8 C 4.51 g/m*3 5.8 C 0 km/h
2122 16-01-2004 21:33:01 5.8 C 4.51 g/m*3 5.8 C 0 km/h
2123 16-01-2004 21:45:01 5.8 C 4.58 g/m*3 5.8 C 0 km/h
2124 16-01-2004 21:57:01 5.7 C 4.55 g/m*3 5.7 C 0 km/h
2125 16-01-2004 22:09:01 5.7 C 4.55 g/m*3 5.7 C 0 km/h
Sensor: Nr:Datum:Temp:Abs-Feuchte:Windchill:Wind:
Aussen-T/F 2126 16-01-2004 22:21:01 5.6 C 4.6 g/m*3 5.6 C 0 km/h
2127 16-01-2004 22:33:00 5.4 C 4.6 g/m*3 5.4 C 0 km/h
2128 16-01-2004 22:45:00 5.4 C 4.6 g/m*3 5.4 C 0 km/h
2129 16-01-2004 22:57:00 5.4 C 4.74 g/m*3 5.4 C 0 km/h
2130 16-01-2004 23:09:58 5.2 C 4.89 g/m*3 5.2 C 0 km/h
2131 16-01-2004 23:21:58 5.3 C 4.85 g/m*3 5.3 C 0 km/h
2132 16-01-2004 23:33:01 5.1 C 4.86 g/m*3 5.1 C 0 km/h
2133 16-01-2004 23:45:01 5.2 C 4.82 g/m*3 5.2 C 0 km/h
2134 16-01-2004 23:57:01 5.3 C 4.78 g/m*3 5.3 C 0 km/h
2135 17-01-2004 00:09:01 5.1 C 4.72 g/m*3 5.1 C 0 km/h
2136 17-01-2004 00:21:01 5 C 4.69 g/m*3 5 C 0 km/h
2137 17-01-2004 00:32:59 5.4 C 4.67 g/m*3 5.4 C 0 km/h
2138 17-01-2004 00:44:59 5.3 C 4.71 g/m*3 5.3 C 0 km/h
2139 17-01-2004 00:56:59 5.2 C 4.82 g/m*3 5.2 C 0 km/h
2140 17-01-2004 01:09:58 4.9 C 4.86 g/m*3 4.9 C 0 km/h
2141 17-01-2004 01:21:58 4.9 C 4.86 g/m*3 4.9 C 0 km/h
2142 17-01-2004 01:33:01 4.9 C 4.79 g/m*3 4.9 C 0 km/h
2143 17-01-2004 01:45:01 5 C 4.69 g/m*3 5 C 0 km/h
2144 17-01-2004 01:57:01 4.9 C 4.66 g/m*3 4.9 C 0 km/h
2145 17-01-2004 02:09:01 4.7 C 4.66 g/m*3 4.7 C 0 km/h
2146 17-01-2004 02:21:01 4.5 C 4.67 g/m*3 4.5 C 0 km/h
2147 17-01-2004 02:34:02 4.1 C 4.61 g/m*3 4.1 C 0 km/h
2148 17-01-2004 02:46:02 4.2 C 4.77 g/m*3 4.2 C 0 km/h
2149 17-01-2004 02:58:02 4.4 C 4.77 g/m*3 4.4 C 0 km/h
2150 17-01-2004 03:10:02 4.5 C 4.8 g/m*3 4.5 C 0 km/h
Sensor: Nr:Datum:Temp:Abs-Feuchte:Windchill:Wind:
Aussen-T/F 2151 17-01-2004 03:22:02 4.4 C 4.77 g/m*3 4.4 C 0 km/h
2152 17-01-2004 03:34:00 4.3 C 4.67 g/m*3 4.3 C 0 km/h
2153 17-01-2004 03:46:00 4.3 C 4.67 g/m*3 4.3 C 0 km/h
2154 17-01-2004 03:58:00 4.1 C 4.67 g/m*3 4.1 C 0 km/h
2155 17-01-2004 04:10:58 3.8 C 4.71 g/m*3 3.8 C 0 km/h
2156 17-01-2004 04:22:58 4 C 4.64 g/m*3 4 C 0 km/h
2157 17-01-2004 04:34:01 3.9 C 4.74 g/m*3 3.9 C 0 km/h
2158 17-01-2004 04:46:01 4 C 4.64 g/m*3 4 C 0 km/h
2159 17-01-2004 04:58:01 4 C 4.7 g/m*3 4 C 0 km/h
2160 17-01-2004 05:10:01 4.1 C 4.67 g/m*3 4.1 C 0 km/h
2161 17-01-2004 05:22:01 4.2 C 4.7 g/m*3 4.2 C 0 km/h
2162 17-01-2004 05:34:01 4.4 C 4.64 g/m*3 4.4 C 0 km/h
2163 17-01-2004 05:46:01 4.4 C 4.64 g/m*3 4.4 C 0 km/h
2164 17-01-2004 05:58:01 4.7 C 4.66 g/m*3 4.7 C 0 km/h
2165 17-01-2004 06:10:01 4.7 C 4.66 g/m*3 4.7 C 0 km/h
2166 17-01-2004 06:22:01 4.7 C 4.6 g/m*3 4.7 C 0 km/h
2167 17-01-2004 06:34:00 4.7 C 4.6 g/m*3 4.7 C 0 km/h
2168 17-01-2004 06:46:00 4.6 C 4.5 g/m*3 4.6 C 0 km/h
2169 17-01-2004 06:58:00 4.7 C 4.53 g/m*3 4.7 C 0 km/h
2170 17-01-2004 07:10:58 4.5 C 4.54 g/m*3 4.5 C 0 km/h
2171 17-01-2004 07:22:58 4.5 C 4.54 g/m*3 4.5 C 0 km/h
2172 17-01-2004 07:34:01 4.5 C 4.54 g/m*3 4.5 C 0 km/h
2173 17-01-2004 07:46:01 4.5 C 4.54 g/m*3 4.5 C 0 km/h
2174 17-01-2004 07:58:01 4.6 C 4.5 g/m*3 4.6 C 0 km/h
2175 17-01-2004 08:10:01 4.6 C 4.5 g/m*3 4.6 C 0 km/h
Sensor: Nr:Datum:Temp:Abs-Feuchte:Windchill:Wind:
Aussen-T/F 2176 17-01-2004 08:22:01 4.7 C 4.46 g/m*3 4.7 C 0 km/h
2177 17-01-2004 08:34:00 4.9 C 4.39 g/m*3 4.9 C 0 km/h
2178 17-01-2004 08:46:00 4.9 C 4.46 g/m*3 4.9 C 0 km/h
2179 17-01-2004 08:58:00 4.9 C 4.52 g/m*3 4.9 C 0 km/h
2180 17-01-2004 09:10:58 4.5 C 4.73 g/m*3 4.5 C 0 km/h
2181 17-01-2004 09:22:58 4.1 C 4.86 g/m*3 4.1 C 0 km/h
2182 17-01-2004 09:34:01 4 C 4.9 g/m*3 4 C 0 km/h
2183 17-01-2004 09:46:01 4 C 4.96 g/m*3 4 C 0 km/h
2184 17-01-2004 09:58:01 4 C 4.96 g/m*3 4 C 0 km/h
2185 17-01-2004 10:10:01 4.2 C 4.96 g/m*3 4.2 C 0 km/h
2186 17-01-2004 10:22:01 4.3 C 4.93 g/m*3 4.3 C 0 km/h
2187 17-01-2004 10:34:00 4.5 C 4.86 g/m*3 4.5 C 0 km/h
2188 17-01-2004 10:46:00 4.5 C 4.8 g/m*3 4.5 C 0 km/h
2189 17-01-2004 10:58:00 4.8 C 4.76 g/m*3 4.8 C 0 km/h
2190 17-01-2004 11:10:58 4.8 C 4.76 g/m*3 4.8 C 0 km/h
2191 17-01-2004 11:22:58 4.8 C 4.76 g/m*3 4.8 C 0 km/h
2192 17-01-2004 11:34:01 4.9 C 4.73 g/m*3 4.9 C 0 km/h
2193 17-01-2004 11:46:01 5.1 C 4.65 g/m*3 5.1 C 0 km/h
2194 17-01-2004 11:58:01 5.3 C 4.64 g/m*3 5.3 C 0 km/h
2195 17-01-2004 12:10:01 5.2 C 4.68 g/m*3 5.2 C 0 km/h
2196 17-01-2004 12:22:01 5.5 C 4.57 g/m*3 5.5 C 0 km/h
2197 17-01-2004 12:34:00 5.7 C 4.55 g/m*3 5.7 C 0 km/h
2198 17-01-2004 12:46:00 5.7 C 4.63 g/m*3 5.7 C 0 km/h
2199 17-01-2004 12:58:00 6.1 C 4.6 g/m*3 6.1 C 0 km/h
2200 17-01-2004 13:10:59 6.2 C 4.56 g/m*3 6.2 C 0 km/h
Sensor: Nr:Datum:Temp:Abs-Feuchte:Windchill:Wind:
Aussen-T/F 2201 17-01-2004 13:22:59 6.4 C 4.47 g/m*3 6.4 C 0 km/h
2202 17-01-2004 13:34:01 6.4 C 4.47 g/m*3 6.4 C 0 km/h
2203 17-01-2004 13:46:01 6.1 C 4.46 g/m*3 6.1 C 0 km/h
2204 17-01-2004 13:58:01 6 C 4.43 g/m*3 6 C 0 km/h
2205 17-01-2004 14:10:01 5.9 C 4.54 g/m*3 5.9 C 0 km/h
2206 17-01-2004 14:22:01 5.8 C 4.51 g/m*3 5.8 C 0 km/h
2207 17-01-2004 14:34:00 5.9 C 4.54 g/m*3 5.9 C 0 km/h
2208 17-01-2004 14:46:00 6.2 C 4.49 g/m*3 6.2 C 0 km/h
2209 17-01-2004 14:58:00 6 C 4.43 g/m*3 6 C 0 km/h
2210 17-01-2004 15:10:59 5.8 C 4.44 g/m*3 5.8 C 0 km/h
2211 17-01-2004 15:22:59 5.7 C 4.41 g/m*3 5.7 C 0 km/h
2212 17-01-2004 15:34:01 5.4 C 4.33 g/m*3 5.4 C 0 km/h
2213 17-01-2004 15:46:01 5.6 C 4.38 g/m*3 5.6 C 0 km/h
2214 17-01-2004 15:58:01 5.6 C 4.17 g/m*3 5.6 C 0 km/h
2215 17-01-2004 16:10:00 5.6 C 4.03 g/m*3 5.6 C 0 km/h
2216 17-01-2004 16:22:00 5.6 C 4.17 g/m*3 5.6 C 0 km/h
2217 17-01-2004 16:34:01 5.6 C 4.17 g/m*3 5.6 C 0 km/h
2218 17-01-2004 16:46:01 5.5 C 4.14 g/m*3 5.5 C 0 km/h
2219 17-01-2004 16:58:01 5.1 C 4.04 g/m*3 5.1 C 0 km/h
2220 17-01-2004 17:10:01 5 C 4.08 g/m*3 5 C 0 km/h
2221 17-01-2004 17:22:01 4.8 C 4.09 g/m*3 4.8 C 0 km/h
2222 17-01-2004 17:34:59 4.6 C 4.1 g/m*3 4.6 C 0 km/h
2223 17-01-2004 17:46:59 4.5 C 4.21 g/m*3 4.5 C 0 km/h
2224 17-01-2004 17:58:59 4 C 4.2 g/m*3 4 C 0 km/h
2225 17-01-2004 18:10:58 3.4 C 4.21 g/m*3 3.4 C 0 km/h
Sensor: Nr:Datum:Temp:Abs-Feuchte:Windchill:Wind:
Aussen-T/F 2226 17-01-2004 18:22:58 3.2 C 4.28 g/m*3 3.2 C 0 km/h
2227 17-01-2004 18:34:01 3.2 C 4.34 g/m*3 3.2 C 0 km/h
2228 17-01-2004 18:46:01 3.5 C 4.43 g/m*3 3.5 C 0 km/h
2229 17-01-2004 18:58:01 3.8 C 4.45 g/m*3 3.8 C 0 km/h
2230 17-01-2004 19:10:01 3.6 C 4.33 g/m*3 3.6 C 0 km/h
2231 17-01-2004 19:22:01 3.3 C 4.37 g/m*3 3.3 C 0 km/h
2232 17-01-2004 19:34:01 2.8 C 4.34 g/m*3 2.8 C 0 km/h
2233 17-01-2004 19:46:01 2.7 C 4.37 g/m*3 2.7 C 0 km/h
2234 17-01-2004 19:58:01 2.6 C 4.4 g/m*3 2.6 C 0 km/h
2235 17-01-2004 20:10:01 2.5 C 4.37 g/m*3 2.5 C 0 km/h
2236 17-01-2004 20:22:01 2.7 C 4.43 g/m*3 2.7 C 0 km/h
2237 17-01-2004 20:34:00 3.2 C 4.46 g/m*3 3.2 C 0 km/h
2238 17-01-2004 20:46:00 3.4 C 4.46 g/m*3 3.4 C 0 km/h
2239 17-01-2004 20:58:00 3.7 C 4.42 g/m*3 3.7 C 0 km/h
2240 17-01-2004 21:10:59 3.7 C 4.42 g/m*3 3.7 C 0 km/h
2241 17-01-2004 21:22:59 3.9 C 4.42 g/m*3 3.9 C 0 km/h
2242 17-01-2004 21:34:01 4.1 C 4.29 g/m*3 4.1 C 0 km/h
2243 17-01-2004 21:46:01 3.8 C 4.33 g/m*3 3.8 C 0 km/h
2244 17-01-2004 21:58:01 3.8 C 4.39 g/m*3 3.8 C 0 km/h
2245 17-01-2004 22:10:00 3.8 C 4.33 g/m*3 3.8 C 0 km/h
2246 17-01-2004 22:22:00 3.8 C 4.33 g/m*3 3.8 C 0 km/h
2247 17-01-2004 22:34:01 3.8 C 4.33 g/m*3 3.8 C 0 km/h
2248 17-01-2004 22:46:01 3.8 C 4.33 g/m*3 3.8 C 0 km/h
2249 17-01-2004 22:58:01 3.7 C 4.3 g/m*3 3.7 C 0 km/h
2250 17-01-2004 23:10:01 3.7 C 4.36 g/m*3 3.7 C 0 km/h
Sensor: Nr:Datum:Temp:Abs-Feuchte:Windchill:Wind:
Aussen-T/F 2251 17-01-2004 23:22:01 3.7 C 4.36 g/m*3 3.7 C 0 km/h
2252 17-01-2004 23:34:00 3.7 C 4.36 g/m*3 3.7 C 0 km/h
2253 17-01-2004 23:46:00 3.7 C 4.36 g/m*3 3.7 C 0 km/h
2254 17-01-2004 23:58:00 3.7 C 4.36 g/m*3 3.7 C 0 km/h
2255 18-01-2004 00:10:58 3.7 C 4.42 g/m*3 3.7 C 0 km/h
2256 18-01-2004 00:22:58 3.7 C 4.42 g/m*3 3.7 C 0 km/h
2257 18-01-2004 00:34:01 3.7 C 4.42 g/m*3 3.7 C 0 km/h
2258 18-01-2004 00:46:01 3.6 C 4.46 g/m*3 3.6 C 0 km/h
2259 18-01-2004 00:58:01 3.3 C 4.61 g/m*3 3.3 C 0 km/h
2260 18-01-2004 01:10:01 3.3 C 4.67 g/m*3 3.3 C 0 km/h
2261 18-01-2004 01:22:01 3.3 C 4.61 g/m*3 3.3 C 0 km/h
2262 18-01-2004 01:34:01 3.3 C 4.61 g/m*3 3.3 C 0 km/h
2263 18-01-2004 01:46:01 3.3 C 4.67 g/m*3 3.3 C 0 km/h
2264 18-01-2004 01:58:01 3.4 C 4.58 g/m*3 3.4 C 0 km/h
2265 18-01-2004 02:10:01 3.4 C 4.58 g/m*3 3.4 C 0 km/h
2266 18-01-2004 02:22:01 3.3 C 4.61 g/m*3 3.3 C 0 km/h
2267 18-01-2004 02:35:01 3.3 C 4.61 g/m*3 3.3 C 0 km/h
2268 18-01-2004 02:47:01 3.2 C 4.7 g/m*3 3.2 C 0 km/h
2269 18-01-2004 02:59:01 3.1 C 4.67 g/m*3 3.1 C 0 km/h
2270 18-01-2004 03:11:00 3.2 C 4.7 g/m*3 3.2 C 0 km/h
2271 18-01-2004 03:23:00 3.2 C 4.7 g/m*3 3.2 C 0 km/h
2272 18-01-2004 03:35:01 3.3 C 4.73 g/m*3 3.3 C 0 km/h
2273 18-01-2004 03:47:01 3.3 C 4.67 g/m*3 3.3 C 0 km/h
2274 18-01-2004 03:59:01 3.3 C 4.67 g/m*3 3.3 C 0 km/h
2275 18-01-2004 04:11:00 3.3 C 4.67 g/m*3 3.3 C 0 km/h
Sensor: Nr:Datum:Temp:Abs-Feuchte:Windchill:Wind:
Aussen-T/F 2276 18-01-2004 04:23:00 3.3 C 4.67 g/m*3 3.3 C 0 km/h
2277 18-01-2004 04:35:01 3.2 C 4.7 g/m*3 3.2 C 0 km/h
2278 18-01-2004 04:47:01 3 C 4.76 g/m*3 3 C 0 km/h
2279 18-01-2004 04:59:01 3 C 4.82 g/m*3 3 C 0 km/h
2280 18-01-2004 05:11:01 3 C 4.88 g/m*3 3 C 0 km/h
2281 18-01-2004 05:23:01 3 C 4.93 g/m*3 3 C 0 km/h
2282 18-01-2004 05:35:01 3.1 C 5.03 g/m*3 3.1 C 0 km/h
2283 18-01-2004 05:47:01 3.2 C 5.06 g/m*3 3.2 C 0 km/h
2284 18-01-2004 05:59:01 3.2 C 5.06 g/m*3 3.2 C 0 km/h
2285 18-01-2004 06:11:01 3.2 C 5.06 g/m*3 3.2 C 0 km/h
2286 18-01-2004 06:23:01 3.3 C 5.1 g/m*3 3.3 C 0 km/h
2287 18-01-2004 06:35:00 3.3 C 5.04 g/m*3 3.3 C 0 km/h
2288 18-01-2004 06:47:00 3.4 C 5.07 g/m*3 3.4 C 0 km/h
2289 18-01-2004 06:59:00 3.5 C 5.1 g/m*3 3.5 C 0 km/h
2290 18-01-2004 07:11:58 3.5 C 5.1 g/m*3 3.5 C 0 km/h
2291 18-01-2004 07:23:58 3.5 C 5.1 g/m*3 3.5 C 0 km/h
2292 18-01-2004 07:35:01 3.5 C 5.04 g/m*3 3.5 C 0 km/h
2293 18-01-2004 07:47:01 3.6 C 5.08 g/m*3 3.6 C 0 km/h
2294 18-01-2004 07:59:01 3.5 C 4.98 g/m*3 3.5 C 0 km/h
2295 18-01-2004 08:11:01 3.4 C 4.95 g/m*3 3.4 C 0 km/h
2296 18-01-2004 08:23:01 3.5 C 4.98 g/m*3 3.5 C 0 km/h
2297 18-01-2004 08:35:00 3.6 C 5.01 g/m*3 3.6 C 0 km/h
2298 18-01-2004 08:47:00 3.7 C 4.99 g/m*3 3.7 C 0 km/h
2299 18-01-2004 08:59:00 3.8 C 4.96 g/m*3 3.8 C 0 km/h
2300 18-01-2004 09:11:59 3.8 C 4.96 g/m*3 3.8 C 0 km/h
Sensor: Nr:Datum:Temp:Abs-Feuchte:Windchill:Wind:
Aussen-T/F 2301 18-01-2004 09:23:59 3.9 C 4.93 g/m*3 3.9 C 0 km/h
2302 18-01-2004 09:35:01 3.9 C 4.86 g/m*3 3.9 C 0 km/h
2303 18-01-2004 09:47:01 4 C 4.64 g/m*3 4 C 0 km/h
2304 18-01-2004 09:59:01 4.1 C 4.54 g/m*3 4.1 C 0 km/h
2305 18-01-2004 10:11:01 3.9 C 4.55 g/m*3 3.9 C 0 km/h
2306 18-01-2004 10:23:01 3.5 C 4.61 g/m*3 3.5 C 0 km/h
2307 18-01-2004 10:35:00 3.3 C 4.73 g/m*3 3.3 C 0 km/h
2308 18-01-2004 10:47:00 3.3 C 4.85 g/m*3 3.3 C 0 km/h
2309 18-01-2004 10:59:00 3.3 C 4.73 g/m*3 3.3 C 0 km/h
2310 18-01-2004 11:11:58 3.7 C 4.8 g/m*3 3.7 C 0 km/h
2311 18-01-2004 11:23:58 3.8 C 4.45 g/m*3 3.8 C 0 km/h
2312 18-01-2004 11:35:01 4 C 4.13 g/m*3 4 C 0 km/h
2313 18-01-2004 11:47:01 4.3 C 3.7 g/m*3 4.3 C 0 km/h
2314 18-01-2004 11:59:01 4.4 C 3.46 g/m*3 4.4 C 0 km/h
2315 18-01-2004 12:11:01 4.5 C 3.35 g/m*3 4.5 C 0 km/h
2316 18-01-2004 12:23:01 4.4 C 3.33 g/m*3 4.4 C 0 km/h
2317 18-01-2004 12:35:01 5.2 C 3.37 g/m*3 5.2 C 0 km/h
2318 18-01-2004 12:47:01 5.4 C 3.21 g/m*3 5.4 C 0 km/h
2319 18-01-2004 12:59:01 5.6 C 3.46 g/m*3 5.6 C 0 km/h
2320 18-01-2004 13:11:01 5.7 C 3.34 g/m*3 5.7 C 0 km/h
2321 18-01-2004 13:23:01 5 C 3.19 g/m*3 5 C 0 km/h
2322 18-01-2004 13:35:00 4.8 C 3.29 g/m*3 4.8 C 0 km/h
2323 18-01-2004 13:47:00 4.6 C 3.11 g/m*3 4.6 C 0 km/h
2324 18-01-2004 13:59:00 4.7 C 3.13 g/m*3 4.7 C 0 km/h
2325 18-01-2004 14:11:59 5.4 C 3.14 g/m*3 5.4 C 0 km/h
Sensor: Nr:Datum:Temp:Abs-Feuchte:Windchill:Wind:
Aussen-T/F 2326 18-01-2004 14:23:59 5 C 3.06 g/m*3 5 C 0 km/h
2327 18-01-2004 14:35:01 4.5 C 2.96 g/m*3 4.5 C 0 km/h
2328 18-01-2004 14:47:01 4.1 C 2.88 g/m*3 4.1 C 0 km/h
2329 18-01-2004 14:59:01 3.8 C 3.07 g/m*3 3.8 C 0 km/h
2330 18-01-2004 15:11:01 3.5 C 3.01 g/m*3 3.5 C 0 km/h
2331 18-01-2004 15:23:01 3.4 C 2.99 g/m*3 3.4 C 0 km/h
2332 18-01-2004 15:35:01 3.3 C 2.97 g/m*3 3.3 C 0 km/h
2333 18-01-2004 15:47:01 3.4 C 2.93 g/m*3 3.4 C 0 km/h
2334 18-01-2004 15:59:01 3.4 C 2.99 g/m*3 3.4 C 0 km/h
2335 18-01-2004 16:11:01 3.1 C 2.99 g/m*3 3.1 C 0 km/h
2336 18-01-2004 16:23:01 2.9 C 3.07 g/m*3 2.9 C 0 km/h
2337 18-01-2004 16:35:00 2.6 C 3.07 g/m*3 2.6 C 0 km/h
2338 18-01-2004 16:47:00 2.2 C 3.1 g/m*3 2.2 C 0 km/h
2339 18-01-2004 16:59:00 2 C 3.06 g/m*3 2 C 0 km/h
2340 18-01-2004 17:11:58 1.8 C 3.18 g/m*3 1.8 C 0 km/h
2341 18-01-2004 17:23:58 1.7 C 3.16 g/m*3 1.7 C 0 km/h
2342 18-01-2004 17:35:01 1.2 C 3.21 g/m*3 1.2 C 0 km/h
2343 18-01-2004 17:47:01 0.8 C 3.33 g/m*3 0.8 C 0 km/h
2344 18-01-2004 17:59:01 0.4 C 3.29 g/m*3 0.4 C 0 km/h
2345 18-01-2004 18:11:01 0.3 C 3.26 g/m*3 0.3 C 0 km/h
2346 18-01-2004 18:23:01 0.3 C 3.26 g/m*3 0.3 C 0 km/h
2347 18-01-2004 18:35:02 0.1 C 3.27 g/m*3 0.1 C 0 km/h
2348 18-01-2004 18:47:02 0.1 C 3.27 g/m*3 0.1 C 0 km/h
2349 18-01-2004 18:59:02 -0.1 C 3.22 g/m*3 -0.1 C 0 km/h
2350 18-01-2004 19:11:01 -0.2 C 3.25 g/m*3 -0.2 C 0 km/h
Sensor: Nr:Datum:Temp:Abs-Feuchte:Windchill:Wind:
Aussen-T/F 2351 18-01-2004 19:23:01 -0.1 C 3.22 g/m*3 -0.1 C 0 km/h
2352 18-01-2004 19:35:01 -0.2 C 3.25 g/m*3 -0.2 C 0 km/h
2353 18-01-2004 19:47:01 -0.2 C 3.25 g/m*3 -0.2 C 0 km/h
2354 18-01-2004 19:59:01 -0.3 C 3.27 g/m*3 -0.3 C 0 km/h
2355 18-01-2004 20:11:00 -0.4 C 3.3 g/m*3 -0.4 C 0 km/h
2356 18-01-2004 20:23:00 -0.5 C 3.28 g/m*3 -0.5 C 0 km/h
2357 18-01-2004 20:35:01 -0.5 C 3.28 g/m*3 -0.5 C 0 km/h
2358 18-01-2004 20:47:01 -0.4 C 3.3 g/m*3 -0.4 C 0 km/h
2359 18-01-2004 20:59:01 -0.4 C 3.3 g/m*3 -0.4 C 0 km/h
2360 18-01-2004 21:11:01 -0.5 C 3.23 g/m*3 -0.5 C 0 km/h
2361 18-01-2004 21:23:01 -0.6 C 3.25 g/m*3 -0.6 C 0 km/h
2362 18-01-2004 21:35:02 -0.8 C 3.25 g/m*3 -0.8 C 0 km/h
2363 18-01-2004 21:47:02 -0.8 C 3.25 g/m*3 -0.8 C 0 km/h
2364 18-01-2004 21:59:02 -0.8 C 3.25 g/m*3 -0.8 C 0 km/h
2365 18-01-2004 22:11:01 -0.8 C 3.25 g/m*3 -0.8 C 0 km/h
2366 18-01-2004 22:23:01 -1 C 3.25 g/m*3 -1 C 0 km/h
2367 18-01-2004 22:35:00 -1 C 3.3 g/m*3 -1 C 0 km/h
2368 18-01-2004 22:47:00 -1.1 C 3.23 g/m*3 -1.1 C 0 km/h
2369 18-01-2004 22:59:00 -1.1 C 3.28 g/m*3 -1.1 C 0 km/h
2370 18-01-2004 23:11:59 -1.1 C 3.28 g/m*3 -1.1 C 0 km/h
2371 18-01-2004 23:23:59 -1.1 C 3.32 g/m*3 -1.1 C 0 km/h
2372 18-01-2004 23:35:01 -1.2 C 3.34 g/m*3 -1.2 C 0 km/h
2373 18-01-2004 23:47:01 -1.3 C 3.28 g/m*3 -1.3 C 0 km/h
2374 18-01-2004 23:59:01 -1.2 C 3.34 g/m*3 -1.2 C 0 km/h
2375 19-01-2004 00:11:01 -1.3 C 3.32 g/m*3 -1.3 C 0 km/h
Sensor: Nr:Datum:Temp:Abs-Feuchte:Windchill:Wind:
Aussen-T/F 2376 19-01-2004 00:23:01 -1.3 C 3.28 g/m*3 -1.3 C 0 km/h
2377 19-01-2004 00:35:00 -1.4 C 3.3 g/m*3 -1.4 C 0 km/h
2378 19-01-2004 00:47:00 -1.6 C 3.25 g/m*3 -1.6 C 0 km/h
2379 19-01-2004 00:59:00 -1.5 C 3.27 g/m*3 -1.5 C 0 km/h
2380 19-01-2004 01:11:58 -1.4 C 3.3 g/m*3 -1.4 C 0 km/h
2381 19-01-2004 01:23:58 -1.5 C 3.32 g/m*3 -1.5 C 0 km/h
2382 19-01-2004 01:35:01 -1.5 C 3.36 g/m*3 -1.5 C 0 km/h
2383 19-01-2004 01:47:01 -1.6 C 3.34 g/m*3 -1.6 C 0 km/h
2384 19-01-2004 01:59:01 -1.6 C 3.34 g/m*3 -1.6 C 0 km/h
2385 19-01-2004 02:11:01 -1.6 C 3.34 g/m*3 -1.6 C 0 km/h
2386 19-01-2004 02:23:01 -1.6 C 3.34 g/m*3 -1.6 C 0 km/h
2387 19-01-2004 02:36:03 -1.2 C 3.34 g/m*3 -1.2 C 0 km/h
2388 19-01-2004 02:48:03 -1.2 C 3.25 g/m*3 -1.2 C 0 km/h
2389 19-01-2004 03:00:03 -0.8 C 3.25 g/m*3 -0.8 C 0 km/h
2390 19-01-2004 03:12:03 -0.7 C 3.18 g/m*3 -0.7 C 0 km/h
2391 19-01-2004 03:24:03 -0.6 C 3.16 g/m*3 -0.6 C 0 km/h
2392 19-01-2004 03:35:59 -0.4 C 3.2 g/m*3 -0.4 C 0 km/h
2393 19-01-2004 03:47:59 -0.7 C 3.14 g/m*3 -0.7 C 0 km/h
2394 19-01-2004 03:59:59 -1 C 3.16 g/m*3 -1 C 0 km/h
2395 19-01-2004 04:12:58 -0.9 C 3.14 g/m*3 -0.9 C 0 km/h
2396 19-01-2004 04:24:58 -0.9 C 3.19 g/m*3 -0.9 C 0 km/h
2397 19-01-2004 04:36:01 -1.1 C 3.14 g/m*3 -1.1 C 0 km/h
2398 19-01-2004 04:48:01 -1.2 C 3.17 g/m*3 -1.2 C 0 km/h
2399 19-01-2004 05:00:01 -1.1 C 3.14 g/m*3 -1.1 C 0 km/h
2400 19-01-2004 05:12:01 -1 C 3.12 g/m*3 -1 C 0 km/h
Sensor: Nr:Datum:Temp:Abs-Feuchte:Windchill:Wind:
Aussen-T/F 2401 19-01-2004 05:24:01 -1.2 C 3.12 g/m*3 -1.2 C 0 km/h
2402 19-01-2004 05:36:01 -1.1 C 3.14 g/m*3 -1.1 C 0 km/h
2403 19-01-2004 05:48:01 -1.2 C 3.12 g/m*3 -1.2 C 0 km/h
2404 19-01-2004 06:00:01 -0.8 C 3.16 g/m*3 -0.8 C 0 km/h
2405 19-01-2004 06:12:01 -0.8 C 3.12 g/m*3 -0.8 C 0 km/h
2406 19-01-2004 06:24:01 -0.9 C 3.1 g/m*3 -0.9 C 0 km/h
2407 19-01-2004 06:36:00 -0.8 C 3.12 g/m*3 -0.8 C 0 km/h
2408 19-01-2004 06:48:00 -0.4 C 3.11 g/m*3 -0.4 C 0 km/h
2409 19-01-2004 07:00:00 -0.3 C 3.13 g/m*3 -0.3 C 0 km/h
2410 19-01-2004 07:12:58 -0.1 C 3.18 g/m*3 -0.1 C 0 km/h
2411 19-01-2004 07:24:58 -0.1 C 3.18 g/m*3 -0.1 C 0 km/h
2412 19-01-2004 07:36:01 0 C 3.2 g/m*3 0 C 0 km/h
2413 19-01-2004 07:48:01 0 C 3.25 g/m*3 0 C 0 km/h
2414 19-01-2004 08:00:01 0.1 C 3.27 g/m*3 0.1 C 0 km/h
2415 19-01-2004 08:12:01 0 C 3.34 g/m*3 0 C 0 km/h
2416 19-01-2004 08:24:01 -0.1 C 3.46 g/m*3 -0.1 C 0 km/h
2417 19-01-2004 08:36:01 -0.1 C 3.51 g/m*3 -0.1 C 0 km/h
2418 19-01-2004 08:48:01 0 C 3.54 g/m*3 0 C 0 km/h
2419 19-01-2004 09:00:01 0 C 3.59 g/m*3 0 C 0 km/h
2420 19-01-2004 09:12:01 0.1 C 3.61 g/m*3 0.1 C 0 km/h
2421 19-01-2004 09:24:01 0.1 C 3.61 g/m*3 0.1 C 0 km/h
2422 19-01-2004 09:36:00 0 C 3.68 g/m*3 0 C 0 km/h
2423 19-01-2004 09:48:00 0.2 C 3.73 g/m*3 0.2 C 0 km/h
2424 19-01-2004 10:00:00 0.4 C 3.79 g/m*3 0.4 C 0 km/h
2425 19-01-2004 10:12:59 0.3 C 3.76 g/m*3 0.3 C 0 km/h
Sensor: Nr:Datum:Temp:Abs-Feuchte:Windchill:Wind:
Aussen-T/F 2426 19-01-2004 10:24:59 0.2 C 3.83 g/m*3 0.2 C 0 km/h
2427 19-01-2004 10:36:01 0.1 C 3.95 g/m*3 0.1 C 0 km/h
2428 19-01-2004 10:48:01 0.1 C 4 g/m*3 0.1 C 0 km/h
2429 19-01-2004 11:00:01 0.2 C 4.03 g/m*3 0.2 C 0 km/h
2430 19-01-2004 11:12:00 0.3 C 4.11 g/m*3 0.3 C 0 km/h
2431 19-01-2004 11:24:00 0.3 C 4.06 g/m*3 0.3 C 0 km/h
2432 19-01-2004 11:36:01 0.4 C 4.03 g/m*3 0.4 C 0 km/h
2433 19-01-2004 11:48:01 0.4 C 4.03 g/m*3 0.4 C 0 km/h
2434 19-01-2004 12:00:01 0.5 C 4.01 g/m*3 0.5 C 0 km/h
2435 19-01-2004 12:12:01 0.4 C 4.03 g/m*3 0.4 C 0 km/h
2436 19-01-2004 12:24:01 0.5 C 4.06 g/m*3 0.5 C 0 km/h
2437 19-01-2004 12:36:01 0.5 C 4.06 g/m*3 0.5 C 0 km/h
2438 19-01-2004 12:48:01 0.5 C 4.06 g/m*3 0.5 C 0 km/h
2439 19-01-2004 13:00:01 0.5 C 4.06 g/m*3 0.5 C 0 km/h
2440 19-01-2004 13:12:59 0.5 C 4.11 g/m*3 0.5 C 0 km/h
2441 19-01-2004 13:24:59 0.5 C 4.11 g/m*3 0.5 C 0 km/h
2442 19-01-2004 13:36:01 0.5 C 4.11 g/m*3 0.5 C 0 km/h
2443 19-01-2004 13:48:01 0.6 C 4.19 g/m*3 0.6 C 0 km/h
2444 19-01-2004 14:00:01 0.8 C 4.2 g/m*3 0.8 C 0 km/h
2445 19-01-2004 14:12:00 0.9 C 4.18 g/m*3 0.9 C 0 km/h
2446 19-01-2004 14:24:00 1 C 4.1 g/m*3 1 C 0 km/h
2447 19-01-2004 14:36:01 1.1 C 4.08 g/m*3 1.1 C 0 km/h
2448 19-01-2004 14:48:01 1.3 C 4.13 g/m*3 1.3 C 0 km/h
2449 19-01-2004 15:00:01 1.3 C 4.08 g/m*3 1.3 C 0 km/h
2450 19-01-2004 15:12:01 1.4 C 4.11 g/m*3 1.4 C 0 km/h
Sensor: Nr:Datum:Temp:Abs-Feuchte:Windchill:Wind:
Aussen-T/F 2451 19-01-2004 15:24:01 1.4 C 4.11 g/m*3 1.4 C 0 km/h
2452 19-01-2004 15:36:01 1.5 C 4.08 g/m*3 1.5 C 0 km/h
2453 19-01-2004 15:48:01 1.6 C 4.11 g/m*3 1.6 C 0 km/h
2454 19-01-2004 16:00:01 1.6 C 4.11 g/m*3 1.6 C 0 km/h
2455 19-01-2004 16:12:01 1.7 C 4.14 g/m*3 1.7 C 0 km/h
2456 19-01-2004 16:24:01 1.8 C 4.22 g/m*3 1.8 C 0 km/h
2457 19-01-2004 16:36:00 1.6 C 4.16 g/m*3 1.6 C 0 km/h
2458 19-01-2004 16:48:00 1.6 C 4.22 g/m*3 1.6 C 0 km/h
2459 19-01-2004 17:00:00 1.6 C 4.27 g/m*3 1.6 C 0 km/h
2460 19-01-2004 17:12:59 1.5 C 4.24 g/m*3 1.5 C 0 km/h
2461 19-01-2004 17:24:59 1.4 C 4.32 g/m*3 1.4 C 0 km/h
2462 19-01-2004 17:36:01 1.5 C 4.4 g/m*3 1.5 C 0 km/h
2463 19-01-2004 17:48:01 1.4 C 4.37 g/m*3 1.4 C 0 km/h
2464 19-01-2004 18:00:01 1.4 C 4.43 g/m*3 1.4 C 0 km/h
2465 19-01-2004 18:12:00 1.6 C 4.49 g/m*3 1.6 C 0 km/h
2466 19-01-2004 18:24:00 1.6 C 4.49 g/m*3 1.6 C 0 km/h
2467 19-01-2004 18:36:01 1.6 C 4.49 g/m*3 1.6 C 0 km/h
2468 19-01-2004 18:48:01 1.8 C 4.55 g/m*3 1.8 C 0 km/h
2469 19-01-2004 19:00:01 1.8 C 4.55 g/m*3 1.8 C 0 km/h
2470 19-01-2004 19:12:01 1.8 C 4.55 g/m*3 1.8 C 0 km/h
2471 19-01-2004 19:24:01 1.9 C 4.64 g/m*3 1.9 C 0 km/h
2472 19-01-2004 19:36:00 2 C 4.67 g/m*3 2 C 0 km/h
2473 19-01-2004 19:48:00 2 C 4.67 g/m*3 2 C 0 km/h
2474 19-01-2004 20:00:00 2.1 C 4.7 g/m*3 2.1 C 0 km/h
2475 19-01-2004 20:12:58 2.1 C 4.7 g/m*3 2.1 C 0 km/h
Sensor: Nr:Datum:Temp:Abs-Feuchte:Windchill:Wind:
Aussen-T/F 2476 19-01-2004 20:24:58 2.2 C 4.79 g/m*3 2.2 C 0 km/h
2477 19-01-2004 20:36:01 2.2 C 4.79 g/m*3 2.2 C 0 km/h
2478 19-01-2004 20:48:01 2.3 C 4.82 g/m*3 2.3 C 0 km/h
2479 19-01-2004 21:00:01 2.4 C 4.85 g/m*3 2.4 C 0 km/h
2480 19-01-2004 21:12:01 2.5 C 4.89 g/m*3 2.5 C 0 km/h
2481 19-01-2004 21:24:01 2.5 C 4.89 g/m*3 2.5 C 0 km/h
2482 19-01-2004 21:36:01 2.5 C 4.89 g/m*3 2.5 C 0 km/h
2483 19-01-2004 21:48:01 2.6 C 4.98 g/m*3 2.6 C 0 km/h
2484 19-01-2004 22:00:01 2.6 C 4.98 g/m*3 2.6 C 0 km/h
2485 19-01-2004 22:12:01 2.7 C 5.07 g/m*3 2.7 C 0 km/h
2486 19-01-2004 22:24:01 2.7 C 5.07 g/m*3 2.7 C 0 km/h
2487 19-01-2004 22:36:02 2.8 C 5.1 g/m*3 2.8 C 0 km/h
2488 19-01-2004 22:48:02 2.8 C 5.1 g/m*3 2.8 C 0 km/h
2489 19-01-2004 23:00:02 2.9 C 5.14 g/m*3 2.9 C 0 km/h
2490 19-01-2004 23:12:59 3 C 5.17 g/m*3 3 C 0 km/h
2491 19-01-2004 23:24:59 3 C 5.17 g/m*3 3 C 0 km/h
2492 19-01-2004 23:36:01 3.1 C 5.21 g/m*3 3.1 C 0 km/h
2493 19-01-2004 23:48:01 3.1 C 5.21 g/m*3 3.1 C 0 km/h
2494 20-01-2004 00:00:01 3.2 C 5.24 g/m*3 3.2 C 0 km/h
2495 20-01-2004 00:12:01 3.3 C 5.28 g/m*3 3.3 C 0 km/h
2496 20-01-2004 00:24:01 3.3 C 5.28 g/m*3 3.3 C 0 km/h
2497 20-01-2004 00:36:01 3.4 C 5.31 g/m*3 3.4 C 0 km/h
2498 20-01-2004 00:48:01 3.5 C 5.35 g/m*3 3.5 C 0 km/h
2499 20-01-2004 01:00:01 3.7 C 5.42 g/m*3 3.7 C 0 km/h
2500 20-01-2004 01:12:01 3.7 C 5.42 g/m*3 3.7 C 0 km/h
Sensor: Nr:Datum:Temp:Abs-Feuchte:Windchill:Wind:
Aussen-T/F 2501 20-01-2004 01:24:01 3.8 C 5.46 g/m*3 3.8 C 0 km/h
2502 20-01-2004 01:36:00 4 C 5.47 g/m*3 4 C 0 km/h
2503 20-01-2004 01:48:00 4.1 C 5.57 g/m*3 4.1 C 0 km/h
2504 20-01-2004 02:00:00 4.2 C 5.54 g/m*3 4.2 C 0 km/h
2505 20-01-2004 02:12:58 4.3 C 5.58 g/m*3 4.3 C 0 km/h
2506 20-01-2004 02:24:58 4.4 C 5.62 g/m*3 4.4 C 0 km/h
2507 20-01-2004 02:37:02 4.4 C 5.68 g/m*3 4.4 C 0 km/h
2508 20-01-2004 02:49:02 4.5 C 5.72 g/m*3 4.5 C 0 km/h
2509 20-01-2004 03:01:02 4.4 C 5.68 g/m*3 4.4 C 0 km/h
2510 20-01-2004 03:13:02 4.5 C 5.72 g/m*3 4.5 C 0 km/h
2511 20-01-2004 03:25:02 4.5 C 5.72 g/m*3 4.5 C 0 km/h
2512 20-01-2004 03:37:00 4.6 C 5.76 g/m*3 4.6 C 0 km/h
2513 20-01-2004 03:49:00 4.7 C 5.86 g/m*3 4.7 C 0 km/h
2514 20-01-2004 04:01:00 4.6 C 5.82 g/m*3 4.6 C 0 km/h
2515 20-01-2004 04:13:59 4.7 C 5.86 g/m*3 4.7 C 0 km/h
2516 20-01-2004 04:25:59 4.7 C 5.93 g/m*3 4.7 C 0 km/h
2517 20-01-2004 04:37:01 4.7 C 5.93 g/m*3 4.7 C 0 km/h
2518 20-01-2004 04:49:01 4.8 C 5.97 g/m*3 4.8 C 0 km/h
2519 20-01-2004 05:01:01 5 C 6.05 g/m*3 5 C 0 km/h
2520 20-01-2004 05:13:00 4.9 C 6.08 g/m*3 4.9 C 0 km/h
2521 20-01-2004 05:25:00 5.2 C 6.2 g/m*3 5.2 C 0 km/h
2522 20-01-2004 05:37:01 5.8 C 6.45 g/m*3 5.8 C 0 km/h
2523 20-01-2004 05:49:01 6.1 C 6.58 g/m*3 6.1 C 0 km/h
2524 20-01-2004 06:01:01 6.4 C 6.71 g/m*3 6.4 C 0 km/h
2525 20-01-2004 06:13:01 6.8 C 6.96 g/m*3 6.8 C 0 km/h
Sensor: Nr:Datum:Temp:Abs-Feuchte:Windchill:Wind:
Aussen-T/F 2526 20-01-2004 06:25:01 6.7 C 6.91 g/m*3 6.7 C 0 km/h
2527 20-01-2004 06:48:59 6.2 C 6.69 g/m*3 6.2 C 0 km/h
2528 20-01-2004 07:00:59 5.9 C 6.56 g/m*3 5.9 C 0 km/h
2529 20-01-2004 07:01:59 5.6 C 6.43 g/m*3 5.6 C 0 km/h
2530 20-01-2004 07:13:59 5.4 C 6.28 g/m*3 5.4 C 0 km/h
2531 20-01-2004 07:25:59 5.4 C 6.28 g/m*3 5.4 C 0 km/h
2532 20-01-2004 07:37:01 5.3 C 6.17 g/m*3 5.3 C 0 km/h
2533 20-01-2004 07:49:01 5.2 C 6.13 g/m*3 5.2 C 0 km/h
2534 20-01-2004 08:01:01 5.2 C 5.99 g/m*3 5.2 C 0 km/h
2535 20-01-2004 08:13:01 5.2 C 5.85 g/m*3 5.2 C 0 km/h
2536 20-01-2004 08:25:01 5.2 C 5.71 g/m*3 5.2 C 0 km/h
2537 20-01-2004 08:37:00 5.1 C 5.54 g/m*3 5.1 C 0 km/h
2538 20-01-2004 08:49:00 5 C 5.44 g/m*3 5 C 0 km/h
2539 20-01-2004 09:01:00 4.9 C 5.47 g/m*3 4.9 C 0 km/h
2540 20-01-2004 09:13:59 4.8 C 5.43 g/m*3 4.8 C 0 km/h
2541 20-01-2004 09:25:59 4.8 C 5.43 g/m*3 4.8 C 0 km/h
2542 20-01-2004 09:37:01 5 C 5.3 g/m*3 5 C 0 km/h
2543 20-01-2004 09:49:01 5.1 C 5.4 g/m*3 5.1 C 0 km/h
2544 20-01-2004 10:01:01 5.1 C 5.4 g/m*3 5.1 C 0 km/h
2545 20-01-2004 10:13:01 5.2 C 5.51 g/m*3 5.2 C 0 km/h
2546 20-01-2004 10:25:01 5.2 C 5.51 g/m*3 5.2 C 0 km/h
2547 20-01-2004 10:37:02 5.3 C 5.48 g/m*3 5.3 C 0 km/h
2548 20-01-2004 10:49:02 5.3 C 5.48 g/m*3 5.3 C 0 km/h
2549 20-01-2004 11:01:02 5.4 C 5.51 g/m*3 5.4 C 0 km/h
2550 20-01-2004 11:13:01 5.6 C 5.51 g/m*3 5.6 C 0 km/h
Sensor: Nr:Datum:Temp:Abs-Feuchte:Windchill:Wind:
Aussen-T/F 2551 20-01-2004 11:25:01 5.8 C 5.59 g/m*3 5.8 C 0 km/h
2552 20-01-2004 11:37:00 6 C 5.44 g/m*3 6 C 0 km/h
2553 20-01-2004 11:49:00 6.1 C 5.41 g/m*3 6.1 C 0 km/h
2554 20-01-2004 12:01:00 6 C 5.01 g/m*3 6 C 0 km/h
2555 20-01-2004 12:13:59 6 C 5.01 g/m*3 6 C 0 km/h
2556 20-01-2004 12:25:59 5.8 C 5.01 g/m*3 5.8 C 0 km/h
2557 20-01-2004 12:37:01 5.8 C 5.09 g/m*3 5.8 C 0 km/h
2558 20-01-2004 12:49:01 6 C 4.94 g/m*3 6 C 0 km/h
2559 20-01-2004 13:01:01 5.9 C 5.05 g/m*3 5.9 C 0 km/h
2560 20-01-2004 13:13:00 5.8 C 5.16 g/m*3 5.8 C 0 km/h
2561 20-01-2004 13:25:00 6 C 5.15 g/m*3 6 C 0 km/h
2562 20-01-2004 13:37:01 5.8 C 5.09 g/m*3 5.8 C 0 km/h
2563 20-01-2004 13:49:01 6 C 4.86 g/m*3 6 C 0 km/h
2564 20-01-2004 14:01:01 7 C 4.8 g/m*3 7 C 0 km/h
2565 20-01-2004 14:13:01 6.8 C 4.59 g/m*3 6.8 C 0 km/h
2566 20-01-2004 14:25:01 6.3 C 4.44 g/m*3 6.3 C 0 km/h
2567 20-01-2004 14:37:00 5.7 C 4.63 g/m*3 5.7 C 0 km/h
2568 20-01-2004 14:49:00 5.2 C 4.48 g/m*3 5.2 C 0 km/h
2569 20-01-2004 15:01:00 5.1 C 4.45 g/m*3 5.1 C 0 km/h
2570 20-01-2004 15:13:59 5.2 C 4.27 g/m*3 5.2 C 0 km/h
2571 20-01-2004 15:25:59 4.9 C 4.25 g/m*3 4.9 C 0 km/h
2572 20-01-2004 15:37:01 4.7 C 4.06 g/m*3 4.7 C 0 km/h
2573 20-01-2004 15:49:01 4.4 C 4.05 g/m*3 4.4 C 0 km/h
2574 20-01-2004 16:01:01 4.2 C 3.93 g/m*3 4.2 C 0 km/h
2575 20-01-2004 16:13:00 4 C 3.81 g/m*3 4 C 0 km/h
Sensor: Nr:Datum:Temp:Abs-Feuchte:Windchill:Wind:
Aussen-T/F 2576 20-01-2004 16:25:00 3.7 C 3.68 g/m*3 3.7 C 0 km/h
2577 20-01-2004 16:37:01 3.5 C 3.63 g/m*3 3.5 C 0 km/h
2578 20-01-2004 16:49:01 3.2 C 3.62 g/m*3 3.2 C 0 km/h
2579 20-01-2004 17:01:01 3 C 3.57 g/m*3 3 C 0 km/h
2580 20-01-2004 17:13:01 3.1 C 3.59 g/m*3 3.1 C 0 km/h
2581 20-01-2004 17:25:01 3 C 3.69 g/m*3 3 C 0 km/h
2582 20-01-2004 17:37:01 3 C 3.51 g/m*3 3 C 0 km/h
2583 20-01-2004 17:49:01 3 C 3.63 g/m*3 3 C 0 km/h
2584 20-01-2004 18:01:01 2.9 C 3.48 g/m*3 2.9 C 0 km/h
2585 20-01-2004 18:13:58 2.9 C 3.66 g/m*3 2.9 C 0 km/h
2586 20-01-2004 18:25:58 2.8 C 3.52 g/m*3 2.8 C 0 km/h
2587 20-01-2004 18:37:01 2.7 C 3.38 g/m*3 2.7 C 0 km/h
2588 20-01-2004 18:49:01 2.6 C 3.47 g/m*3 2.6 C 0 km/h
2589 20-01-2004 19:01:01 2.5 C 3.45 g/m*3 2.5 C 0 km/h
2590 20-01-2004 19:13:01 2.5 C 3.51 g/m*3 2.5 C 0 km/h
2591 20-01-2004 19:25:01 2.4 C 3.48 g/m*3 2.4 C 0 km/h
2592 20-01-2004 19:37:00 2.4 C 3.48 g/m*3 2.4 C 0 km/h
2593 20-01-2004 19:49:00 2.3 C 3.57 g/m*3 2.3 C 0 km/h
2594 20-01-2004 20:01:00 2.2 C 3.55 g/m*3 2.2 C 0 km/h
2595 20-01-2004 20:13:59 2.2 C 3.49 g/m*3 2.2 C 0 km/h
2596 20-01-2004 20:25:59 2.2 C 3.44 g/m*3 2.2 C 0 km/h
2597 20-01-2004 20:37:01 2.1 C 3.58 g/m*3 2.1 C 0 km/h
2598 20-01-2004 20:49:01 2.1 C 3.64 g/m*3 2.1 C 0 km/h
2599 20-01-2004 21:01:01 2 C 3.45 g/m*3 2 C 0 km/h
2600 20-01-2004 21:13:00 2 C 3.39 g/m*3 2 C 0 km/h
Sensor: Nr:Datum:Temp:Abs-Feuchte:Windchill:Wind:
Aussen-T/F 2601 20-01-2004 21:25:00 2 C 3.45 g/m*3 2 C 0 km/h
2602 20-01-2004 21:37:01 1.9 C 3.53 g/m*3 1.9 C 0 km/h
2603 20-01-2004 21:49:01 1.8 C 3.45 g/m*3 1.8 C 0 km/h
2604 20-01-2004 22:01:01 1.9 C 3.64 g/m*3 1.9 C 0 km/h
2605 20-01-2004 22:13:01 1.6 C 3.62 g/m*3 1.6 C 0 km/h
2606 20-01-2004 22:25:01 1.5 C 3.71 g/m*3 1.5 C 0 km/h
2607 20-01-2004 22:48:59 1.4 C 3.57 g/m*3 1.4 C 0 km/h
2608 20-01-2004 23:00:59 1.3 C 3.55 g/m*3 1.3 C 0 km/h
2609 20-01-2004 23:01:58 1.3 C 3.55 g/m*3 1.3 C 0 km/h
2610 20-01-2004 23:13:58 1.2 C 3.42 g/m*3 1.2 C 0 km/h
2611 20-01-2004 23:25:58 1.3 C 3.5 g/m*3 1.3 C 0 km/h
2612 20-01-2004 23:37:01 1.3 C 3.5 g/m*3 1.3 C 0 km/h
2613 20-01-2004 23:49:01 1.2 C 3.47 g/m*3 1.2 C 0 km/h
2614 21-01-2004 00:01:01 1.2 C 3.53 g/m*3 1.2 C 0 km/h
2615 21-01-2004 00:13:01 1.2 C 3.53 g/m*3 1.2 C 0 km/h
2616 21-01-2004 00:25:01 1.1 C 3.45 g/m*3 1.1 C 0 km/h
2617 21-01-2004 00:37:01 1 C 3.37 g/m*3 1 C 0 km/h
2618 21-01-2004 00:49:01 1 C 3.43 g/m*3 1 C 0 km/h
2619 21-01-2004 01:01:01 1 C 3.43 g/m*3 1 C 0 km/h
2620 21-01-2004 01:13:01 0.9 C 3.45 g/m*3 0.9 C 0 km/h
2621 21-01-2004 01:25:01 0.7 C 3.41 g/m*3 0.7 C 0 km/h
2622 21-01-2004 01:37:00 0.8 C 3.43 g/m*3 0.8 C 0 km/h
2623 21-01-2004 01:49:00 0.7 C 3.36 g/m*3 0.7 C 0 km/h
2624 21-01-2004 02:01:00 0.7 C 3.41 g/m*3 0.7 C 0 km/h
2625 21-01-2004 02:13:58 0.7 C 3.46 g/m*3 0.7 C 0 km/h
Sensor: Nr:Datum:Temp:Abs-Feuchte:Windchill:Wind:
Aussen-T/F 2626 21-01-2004 02:25:58 0.7 C 3.41 g/m*3 0.7 C 0 km/h
2627 21-01-2004 02:38:03 0.6 C 3.33 g/m*3 0.6 C 0 km/h
2628 21-01-2004 02:50:03 0.5 C 3.36 g/m*3 0.5 C 0 km/h
2629 21-01-2004 03:02:03 0.5 C 3.26 g/m*3 0.5 C 0 km/h
2630 21-01-2004 03:14:02 0.6 C 3.28 g/m*3 0.6 C 0 km/h
2631 21-01-2004 03:26:02 0.7 C 3.15 g/m*3 0.7 C 0 km/h
2632 21-01-2004 03:38:00 0.7 C 3.3 g/m*3 0.7 C 0 km/h
2633 21-01-2004 03:50:00 0.5 C 3.26 g/m*3 0.5 C 0 km/h
2634 21-01-2004 04:02:59 0.4 C 3.19 g/m*3 0.4 C 0 km/h
2635 21-01-2004 04:14:59 0.4 C 3.19 g/m*3 0.4 C 0 km/h
2636 21-01-2004 04:26:59 0.2 C 3.14 g/m*3 0.2 C 0 km/h
2637 21-01-2004 04:38:01 0.2 C 3.09 g/m*3 0.2 C 0 km/h
2638 21-01-2004 04:50:01 0.2 C 3.14 g/m*3 0.2 C 0 km/h
2639 21-01-2004 05:02:01 0.3 C 3.12 g/m*3 0.3 C 0 km/h
2640 21-01-2004 05:14:01 0.3 C 3.22 g/m*3 0.3 C 0 km/h
2641 21-01-2004 05:26:01 0.3 C 3.07 g/m*3 0.3 C 0 km/h
2642 21-01-2004 05:38:00 0.3 C 3.07 g/m*3 0.3 C 0 km/h
2643 21-01-2004 05:50:00 0.3 C 3.22 g/m*3 0.3 C 0 km/h
2644 21-01-2004 06:02:58 0.3 C 3.07 g/m*3 0.3 C 0 km/h
2645 21-01-2004 06:14:58 0.3 C 3.07 g/m*3 0.3 C 0 km/h
2646 21-01-2004 06:26:58 0.3 C 3.17 g/m*3 0.3 C 0 km/h
2647 21-01-2004 06:38:01 0.2 C 3 g/m*3 0.2 C 0 km/h
2648 21-01-2004 06:50:01 0.2 C 3.09 g/m*3 0.2 C 0 km/h
2649 21-01-2004 07:02:01 0.3 C 3.17 g/m*3 0.3 C 0 km/h
2650 21-01-2004 07:14:01 0.3 C 3.12 g/m*3 0.3 C 0 km/h
Sensor: Nr:Datum:Temp:Abs-Feuchte:Windchill:Wind:
Aussen-T/F 2651 21-01-2004 07:26:01 0.3 C 3.12 g/m*3 0.3 C 0 km/h
2652 21-01-2004 07:38:00 0.3 C 3.12 g/m*3 0.3 C 0 km/h
2653 21-01-2004 07:50:00 0.3 C 3.17 g/m*3 0.3 C 0 km/h
2654 21-01-2004 08:02:59 0.3 C 3.12 g/m*3 0.3 C 0 km/h
2655 21-01-2004 08:14:59 0.3 C 3.17 g/m*3 0.3 C 0 km/h
2656 21-01-2004 08:26:59 0.3 C 3.17 g/m*3 0.3 C 0 km/h
2657 21-01-2004 08:38:01 0.3 C 3.26 g/m*3 0.3 C 0 km/h
2658 21-01-2004 08:50:01 0.4 C 3.29 g/m*3 0.4 C 0 km/h
2659 21-01-2004 09:02:01 0.5 C 3.21 g/m*3 0.5 C 0 km/h
2660 21-01-2004 09:14:01 0.7 C 3.2 g/m*3 0.7 C 0 km/h
2661 21-01-2004 09:26:01 0.7 C 3.2 g/m*3 0.7 C 0 km/h
2662 21-01-2004 09:38:00 0.8 C 3.28 g/m*3 0.8 C 0 km/h
2663 21-01-2004 09:50:00 0.9 C 3.3 g/m*3 0.9 C 0 km/h
2664 21-01-2004 10:02:58 1 C 3.22 g/m*3 1 C 0 km/h
2665 21-01-2004 10:14:58 1.1 C 3.14 g/m*3 1.1 C 0 km/h
2666 21-01-2004 10:26:58 1.2 C 3.21 g/m*3 1.2 C 0 km/h
2667 21-01-2004 10:38:01 1.4 C 3.15 g/m*3 1.4 C 0 km/h
2668 21-01-2004 10:50:01 1.5 C 3.01 g/m*3 1.5 C 0 km/h
2669 21-01-2004 11:02:01 1.6 C 2.97 g/m*3 1.6 C 0 km/h
2670 21-01-2004 11:14:01 1.9 C 3.09 g/m*3 1.9 C 0 km/h
2671 21-01-2004 11:26:01 2 C 2.89 g/m*3 2 C 0 km/h
2672 21-01-2004 11:38:00 2.2 C 2.87 g/m*3 2.2 C 0 km/h
2673 21-01-2004 11:50:00 2.2 C 2.87 g/m*3 2.2 C 0 km/h
2674 21-01-2004 12:02:59 2.3 C 2.72 g/m*3 2.3 C 0 km/h
2675 21-01-2004 12:14:59 2.5 C 2.82 g/m*3 2.5 C 0 km/h
Sensor: Nr:Datum:Temp:Abs-Feuchte:Windchill:Wind:
Aussen-T/F 2676 21-01-2004 12:26:59 2.4 C 2.74 g/m*3 2.4 C 0 km/h
2677 21-01-2004 12:38:00 2.5 C 2.87 g/m*3 2.5 C 0 km/h
2678 21-01-2004 12:50:00 2.6 C 2.89 g/m*3 2.6 C 0 km/h
2679 21-01-2004 13:02:00 2.6 C 2.78 g/m*3 2.6 C 0 km/h
2680 21-01-2004 13:14:00 2.7 C 2.8 g/m*3 2.7 C 0 km/h
2681 21-01-2004 13:26:00 2.3 C 2.95 g/m*3 2.3 C 0 km/h
2682 21-01-2004 13:38:01 2.7 C 3.03 g/m*3 2.7 C 0 km/h
2683 21-01-2004 13:50:01 2.8 C 3.05 g/m*3 2.8 C 0 km/h
2684 21-01-2004 14:02:01 2.5 C 3.1 g/m*3 2.5 C 0 km/h
2685 21-01-2004 14:14:01 2.2 C 3.32 g/m*3 2.2 C 0 km/h
2686 21-01-2004 14:26:01 2.5 C 3.33 g/m*3 2.5 C 0 km/h
2687 21-01-2004 14:38:00 2.7 C 3.44 g/m*3 2.7 C 0 km/h
2688 21-01-2004 14:50:00 2.7 C 3.5 g/m*3 2.7 C 0 km/h
2689 21-01-2004 15:02:59 2.6 C 3.47 g/m*3 2.6 C 0 km/h
2690 21-01-2004 15:14:59 2.7 C 3.5 g/m*3 2.7 C 0 km/h
2691 21-01-2004 15:26:59 2.6 C 3.47 g/m*3 2.6 C 0 km/h
2692 21-01-2004 15:38:01 1.9 C 3.59 g/m*3 1.9 C 0 km/h
2693 21-01-2004 15:50:01 1.8 C 3.62 g/m*3 1.8 C 0 km/h
2694 21-01-2004 16:02:00 1.8 C 3.73 g/m*3 1.8 C 0 km/h
2695 21-01-2004 16:14:00 1.3 C 3.71 g/m*3 1.3 C 0 km/h
2696 21-01-2004 16:26:00 1.2 C 3.68 g/m*3 1.2 C 0 km/h
2697 21-01-2004 16:38:01 1.2 C 3.68 g/m*3 1.2 C 0 km/h
2698 21-01-2004 16:50:01 1.1 C 3.66 g/m*3 1.1 C 0 km/h
2699 21-01-2004 17:02:01 1 C 3.69 g/m*3 1 C 0 km/h
2700 21-01-2004 17:14:01 0.9 C 3.61 g/m*3 0.9 C 0 km/h
Sensor: Nr:Datum:Temp:Abs-Feuchte:Windchill:Wind:
Aussen-T/F 2701 21-01-2004 17:26:01 0.8 C 3.48 g/m*3 0.8 C 0 km/h
2702 21-01-2004 17:38:00 0.9 C 3.56 g/m*3 0.9 C 0 km/h
2703 21-01-2004 17:50:00 0.9 C 3.45 g/m*3 0.9 C 0 km/h
2704 21-01-2004 18:02:59 0.9 C 3.25 g/m*3 0.9 C 0 km/h
2705 21-01-2004 18:14:59 0.9 C 3.09 g/m*3 0.9 C 0 km/h
2706 21-01-2004 18:26:59 0.8 C 2.97 g/m*3 0.8 C 0 km/h
2707 21-01-2004 18:38:01 0.7 C 3 g/m*3 0.7 C 0 km/h
2708 21-01-2004 18:50:01 0.7 C 2.95 g/m*3 0.7 C 0 km/h
2709 21-01-2004 19:02:01 0.5 C 2.91 g/m*3 0.5 C 0 km/h
2710 21-01-2004 19:14:01 0.4 C 3.04 g/m*3 0.4 C 0 km/h
2711 21-01-2004 19:26:01 0.3 C 3.12 g/m*3 0.3 C 0 km/h
2712 21-01-2004 19:38:00 0.1 C 3.07 g/m*3 0.1 C 0 km/h
2713 21-01-2004 19:50:00 0 C 2.76 g/m*3 0 C 0 km/h
2714 21-01-2004 20:02:58 -0.5 C 2.67 g/m*3 -0.5 C 0 km/h
2715 21-01-2004 20:14:58 -0.9 C 2.82 g/m*3 -0.9 C 0 km/h
2716 21-01-2004 20:26:58 -1 C 2.76 g/m*3 -1 C 0 km/h
2717 21-01-2004 20:38:01 -1.1 C 2.78 g/m*3 -1.1 C 0 km/h
2718 21-01-2004 20:50:01 -1.1 C 2.83 g/m*3 -1.1 C 0 km/h
2719 21-01-2004 21:02:01 -1 C 2.89 g/m*3 -1 C 0 km/h
2720 21-01-2004 21:14:01 -1.2 C 2.9 g/m*3 -1.2 C 0 km/h
2721 21-01-2004 21:26:01 -1.4 C 2.81 g/m*3 -1.4 C 0 km/h
2722 21-01-2004 21:38:01 -1.7 C 2.8 g/m*3 -1.7 C 0 km/h
2723 21-01-2004 21:50:01 -1.9 C 2.76 g/m*3 -1.9 C 0 km/h
2724 21-01-2004 22:02:01 -2.1 C 2.76 g/m*3 -2.1 C 0 km/h
2725 21-01-2004 22:14:01 -2.3 C 2.77 g/m*3 -2.3 C 0 km/h
Sensor: Nr:Datum:Temp:Abs-Feuchte:Windchill:Wind:
Aussen-T/F 2726 21-01-2004 22:26:01 -2.3 C 2.72 g/m*3 -2.3 C 0 km/h
2727 21-01-2004 22:38:00 -2.4 C 2.66 g/m*3 -2.4 C 0 km/h
2728 21-01-2004 22:50:00 -2.4 C 2.7 g/m*3 -2.4 C 0 km/h
2729 21-01-2004 23:02:59 -2.4 C 2.7 g/m*3 -2.4 C 0 km/h
2730 21-01-2004 23:14:59 -2.4 C 2.7 g/m*3 -2.4 C 0 km/h
2731 21-01-2004 23:26:59 -2.4 C 2.7 g/m*3 -2.4 C 0 km/h
2732 21-01-2004 23:38:01 -2.4 C 2.7 g/m*3 -2.4 C 0 km/h
2733 21-01-2004 23:50:01 -2.4 C 2.7 g/m*3 -2.4 C 0 km/h
2734 22-01-2004 00:02:01 -2.4 C 2.7 g/m*3 -2.4 C 0 km/h
2735 22-01-2004 00:14:01 -2.4 C 2.7 g/m*3 -2.4 C 0 km/h
2736 22-01-2004 00:26:01 -2.4 C 2.7 g/m*3 -2.4 C 0 km/h
2737 22-01-2004 00:38:00 -2.4 C 2.7 g/m*3 -2.4 C 0 km/h
2738 22-01-2004 00:50:00 -2.4 C 2.7 g/m*3 -2.4 C 0 km/h
2739 22-01-2004 01:02:58 -2.4 C 2.7 g/m*3 -2.4 C 0 km/h
2740 22-01-2004 01:14:58 -3.7 C 2.69 g/m*3 -3.7 C 0 km/h
2741 22-01-2004 01:26:58 -3.7 C 2.69 g/m*3 -3.7 C 0 km/h
2742 22-01-2004 01:38:01 -3.7 C 2.73 g/m*3 -3.7 C 0 km/h
2743 22-01-2004 01:50:01 -3.7 C 2.8 g/m*3 -3.7 C 0 km/h
2744 22-01-2004 02:02:01 -3.8 C 2.78 g/m*3 -3.8 C 0 km/h
2745 22-01-2004 02:14:01 -3.7 C 2.84 g/m*3 -3.7 C 0 km/h
2746 22-01-2004 02:26:01 -3.7 C 2.88 g/m*3 -3.7 C 0 km/h
2747 22-01-2004 02:39:01 -3.9 C 2.8 g/m*3 -3.9 C 0 km/h
2748 22-01-2004 02:51:01 -4.1 C 2.76 g/m*3 -4.1 C 0 km/h
2749 22-01-2004 03:03:01 -4.2 C 2.78 g/m*3 -4.2 C 0 km/h
2750 22-01-2004 03:15:00 -4.4 C 2.74 g/m*3 -4.4 C 0 km/h
Sensor: Nr:Datum:Temp:Abs-Feuchte:Windchill:Wind:
Aussen-T/F 2751 22-01-2004 03:27:00 -4.4 C 2.74 g/m*3 -4.4 C 0 km/h
2752 22-01-2004 03:39:01 -4.4 C 2.74 g/m*3 -4.4 C 0 km/h
2753 22-01-2004 03:51:01 -4.2 C 2.81 g/m*3 -4.2 C 0 km/h
2754 22-01-2004 04:03:01 -4.1 C 2.87 g/m*3 -4.1 C 0 km/h
2755 22-01-2004 04:15:01 -4.1 C 2.87 g/m*3 -4.1 C 0 km/h
2756 22-01-2004 04:27:01 -4.2 C 2.81 g/m*3 -4.2 C 0 km/h
2757 22-01-2004 04:39:00 -4.6 C 2.73 g/m*3 -4.6 C 0 km/h
2758 22-01-2004 04:51:00 -4.7 C 2.71 g/m*3 -4.7 C 0 km/h
2759 22-01-2004 05:03:59 -4.5 C 2.79 g/m*3 -4.5 C 0 km/h
2760 22-01-2004 05:15:59 -4.5 C 2.79 g/m*3 -4.5 C 0 km/h
2761 22-01-2004 05:27:59 -4.6 C 2.77 g/m*3 -4.6 C 0 km/h
2762 22-01-2004 05:39:01 -4.6 C 2.77 g/m*3 -4.6 C 0 km/h
2763 22-01-2004 05:51:01 -4.6 C 2.77 g/m*3 -4.6 C 0 km/h
2764 22-01-2004 06:03:01 -4.5 C 2.82 g/m*3 -4.5 C 0 km/h
2765 22-01-2004 06:15:01 -4.5 C 2.82 g/m*3 -4.5 C 0 km/h
2766 22-01-2004 06:27:01 -4.5 C 2.82 g/m*3 -4.5 C 0 km/h
2767 22-01-2004 06:39:00 -4.2 C 2.92 g/m*3 -4.2 C 0 km/h
2768 22-01-2004 06:51:00 -3.9 C 2.98 g/m*3 -3.9 C 0 km/h
2769 22-01-2004 07:03:59 -3.8 C 3.01 g/m*3 -3.8 C 0 km/h
2770 22-01-2004 07:15:59 -3.7 C 3.03 g/m*3 -3.7 C 0 km/h
2771 22-01-2004 07:27:59 -3.6 C 2.97 g/m*3 -3.6 C 0 km/h
2772 22-01-2004 07:39:01 -3.5 C 2.96 g/m*3 -3.5 C 0 km/h
2773 22-01-2004 07:51:01 -3.4 C 2.98 g/m*3 -3.4 C 0 km/h
2774 22-01-2004 08:03:01 -3.4 C 2.98 g/m*3 -3.4 C 0 km/h
2775 22-01-2004 08:15:01 -3.3 C 3 g/m*3 -3.3 C 0 km/h
Sensor: Nr:Datum:Temp:Abs-Feuchte:Windchill:Wind:
Aussen-T/F 2776 22-01-2004 08:27:01 -3.1 C 3.04 g/m*3 -3.1 C 0 km/h
2777 22-01-2004 08:39:00 -3.1 C 3 g/m*3 -3.1 C 0 km/h
2778 22-01-2004 08:51:00 -3 C 3.02 g/m*3 -3 C 0 km/h
2779 22-01-2004 09:03:59 -2.9 C 3.05 g/m*3 -2.9 C 0 km/h
2780 22-01-2004 09:15:59 -2.8 C 3.07 g/m*3 -2.8 C 0 km/h
2781 22-01-2004 09:27:59 -2.5 C 3.13 g/m*3 -2.5 C 0 km/h
2782 22-01-2004 09:39:01 -2.2 C 3.2 g/m*3 -2.2 C 0 km/h
2783 22-01-2004 09:51:01 -1.8 C 3.25 g/m*3 -1.8 C 0 km/h
2784 22-01-2004 10:03:01 -1.6 C 3.25 g/m*3 -1.6 C 0 km/h
2785 22-01-2004 10:15:01 -1.2 C 3.3 g/m*3 -1.2 C 0 km/h
2786 22-01-2004 10:27:01 -1 C 3.25 g/m*3 -1 C 0 km/h
2787 22-01-2004 10:39:00 -0.7 C 3.28 g/m*3 -0.7 C 0 km/h
2788 22-01-2004 10:51:00 -0.5 C 3.28 g/m*3 -0.5 C 0 km/h
2789 22-01-2004 11:03:58 -0.2 C 3.35 g/m*3 -0.2 C 0 km/h
2790 22-01-2004 11:15:58 0.1 C 3.37 g/m*3 0.1 C 0 km/h
2791 22-01-2004 11:27:58 0.6 C 3.53 g/m*3 0.6 C 0 km/h
2792 22-01-2004 11:39:01 0.9 C 3.45 g/m*3 0.9 C 0 km/h
2793 22-01-2004 11:51:01 0.8 C 3.33 g/m*3 0.8 C 0 km/h
2794 22-01-2004 12:03:01 1 C 3.27 g/m*3 1 C 0 km/h
2795 22-01-2004 12:15:01 1.3 C 3.23 g/m*3 1.3 C 0 km/h
2796 22-01-2004 12:27:01 1.4 C 3.04 g/m*3 1.4 C 0 km/h
2797 22-01-2004 12:39:00 1.6 C 2.97 g/m*3 1.6 C 0 km/h
2798 22-01-2004 12:51:00 1.7 C 2.89 g/m*3 1.7 C 0 km/h
2799 22-01-2004 13:03:59 1.7 C 2.89 g/m*3 1.7 C 0 km/h
2800 22-01-2004 13:15:59 1.8 C 2.91 g/m*3 1.8 C 0 km/h
Sensor: Nr:Datum:Temp:Abs-Feuchte:Windchill:Wind:
Aussen-T/F 2801 22-01-2004 13:27:59 2 C 2.83 g/m*3 2 C 0 km/h
2802 22-01-2004 13:39:01 2.3 C 2.95 g/m*3 2.3 C 0 km/h
2803 22-01-2004 13:51:01 2.3 C 2.84 g/m*3 2.3 C 0 km/h
2804 22-01-2004 14:03:01 2.2 C 2.87 g/m*3 2.2 C 0 km/h
2805 22-01-2004 14:15:01 2.4 C 3.03 g/m*3 2.4 C 0 km/h
2806 22-01-2004 14:27:01 2.6 C 3.01 g/m*3 2.6 C 0 km/h
2807 22-01-2004 14:39:00 2.9 C 3.01 g/m*3 2.9 C 0 km/h
2808 22-01-2004 14:51:00 3.5 C 3.01 g/m*3 3.5 C 0 km/h
2809 22-01-2004 15:03:59 3.1 C 2.87 g/m*3 3.1 C 0 km/h
2810 22-01-2004 15:15:59 3.1 C 2.93 g/m*3 3.1 C 0 km/h
2811 22-01-2004 15:27:59 2.8 C 2.93 g/m*3 2.8 C 0 km/h
2812 22-01-2004 15:39:07 2.8 C 2.99 g/m*3 2.8 C 0 km/h
2813 22-01-2004 15:51:07 2.5 C 3.05 g/m*3 2.5 C 0 km/h
2814 22-01-2004 16:03:07 2.4 C 3.14 g/m*3 2.4 C 0 km/h
2815 22-01-2004 16:15:07 2.2 C 3.1 g/m*3 2.2 C 0 km/h
2816 22-01-2004 16:27:07 1.9 C 3.15 g/m*3 1.9 C 0 km/h
2817 22-01-2004 16:39:07 1.8 C 3.23 g/m*3 1.8 C 0 km/h
2818 22-01-2004 16:51:07 1.7 C 3.27 g/m*3 1.7 C 0 km/h
2819 22-01-2004 17:03:21 1.5 C 3.28 g/m*3 1.5 C 0 km/h
2820 22-01-2004 17:15:21 1.4 C 3.25 g/m*3 1.4 C 0 km/h
2821 22-01-2004 17:27:21 1.3 C 3.28 g/m*3 1.3 C 0 km/h
2822 22-01-2004 17:39:59 1.2 C 3.26 g/m*3 1.2 C 0 km/h
2823 22-01-2004 17:51:59 1.1 C 3.29 g/m*3 1.1 C 0 km/h
2824 22-01-2004 18:03:49 0.9 C 3.3 g/m*3 0.9 C 0 km/h
2825 22-01-2004 18:15:49 0.8 C 3.33 g/m*3 0.8 C 0 km/h
Sensor: Nr:Datum:Temp:Abs-Feuchte:Windchill:Wind:
Aussen-T/F 2826 22-01-2004 18:27:49 0.7 C 3.3 g/m*3 0.7 C 0 km/h
2827 22-01-2004 18:39:00 0.7 C 3.36 g/m*3 0.7 C 0 km/h
2828 22-01-2004 18:51:00 0.6 C 3.33 g/m*3 0.6 C 0 km/h
2829 22-01-2004 19:03:54 0.6 C 3.33 g/m*3 0.6 C 0 km/h
2830 22-01-2004 19:15:54 0.5 C 3.36 g/m*3 0.5 C 0 km/h
2831 22-01-2004 19:27:54 0.5 C 3.36 g/m*3 0.5 C 0 km/h
2832 22-01-2004 19:39:01 0.5 C 3.36 g/m*3 0.5 C 0 km/h
2833 22-01-2004 19:51:01 0.5 C 3.36 g/m*3 0.5 C 0 km/h
2834 22-01-2004 20:03:01 0.4 C 3.34 g/m*3 0.4 C 0 km/h
2835 22-01-2004 20:15:01 0.4 C 3.34 g/m*3 0.4 C 0 km/h
2836 22-01-2004 20:27:01 0.4 C 3.39 g/m*3 0.4 C 0 km/h
2837 22-01-2004 20:39:01 0.4 C 3.39 g/m*3 0.4 C 0 km/h
2838 22-01-2004 20:51:01 0.3 C 3.36 g/m*3 0.3 C 0 km/h
2839 22-01-2004 21:03:59 0.3 C 3.41 g/m*3 0.3 C 0 km/h
2840 22-01-2004 21:15:59 0.3 C 3.41 g/m*3 0.3 C 0 km/h
2841 22-01-2004 21:27:59 0.3 C 3.41 g/m*3 0.3 C 0 km/h
2842 22-01-2004 21:39:01 0.3 C 3.41 g/m*3 0.3 C 0 km/h
2843 22-01-2004 21:51:01 0.3 C 3.41 g/m*3 0.3 C 0 km/h
2844 22-01-2004 22:03:01 0.3 C 3.41 g/m*3 0.3 C 0 km/h
2845 22-01-2004 22:15:01 0.3 C 3.41 g/m*3 0.3 C 0 km/h
2846 22-01-2004 22:27:01 0.3 C 3.41 g/m*3 0.3 C 0 km/h
2847 22-01-2004 22:39:00 0.3 C 3.46 g/m*3 0.3 C 0 km/h
2848 22-01-2004 22:51:00 0.4 C 3.49 g/m*3 0.4 C 0 km/h
2849 22-01-2004 23:03:58 0.3 C 3.46 g/m*3 0.3 C 0 km/h
2850 22-01-2004 23:15:58 0.3 C 3.46 g/m*3 0.3 C 0 km/h
Sensor: Nr:Datum:Temp:Abs-Feuchte:Windchill:Wind:
Aussen-T/F 2851 22-01-2004 23:27:58 0.3 C 3.46 g/m*3 0.3 C 0 km/h
2852 22-01-2004 23:39:01 0.3 C 3.46 g/m*3 0.3 C 0 km/h
2853 22-01-2004 23:51:01 0.2 C 3.44 g/m*3 0.2 C 0 km/h
2854 23-01-2004 00:03:01 0.2 C 3.44 g/m*3 0.2 C 0 km/h
2855 23-01-2004 00:15:01 0.2 C 3.44 g/m*3 0.2 C 0 km/h
2856 23-01-2004 00:27:01 0.2 C 3.39 g/m*3 0.2 C 0 km/h
2857 23-01-2004 00:39:01 0.2 C 3.39 g/m*3 0.2 C 0 km/h
2858 23-01-2004 00:51:01 0.1 C 3.37 g/m*3 0.1 C 0 km/h
2859 23-01-2004 01:03:01 0.1 C 3.37 g/m*3 0.1 C 0 km/h
2860 23-01-2004 01:15:01 0.1 C 3.37 g/m*3 0.1 C 0 km/h
2861 23-01-2004 01:27:01 -0.2 C 3.3 g/m*3 -0.2 C 0 km/h
2862 23-01-2004 01:39:00 -0.4 C 3.35 g/m*3 -0.4 C 0 km/h
2863 23-01-2004 01:51:00 -0.6 C 3.35 g/m*3 -0.6 C 0 km/h
2864 23-01-2004 02:03:59 -0.8 C 3.35 g/m*3 -0.8 C 0 km/h
2865 23-01-2004 02:15:59 -1.1 C 3.28 g/m*3 -1.1 C 0 km/h
2866 23-01-2004 02:27:59 -1.2 C 3.3 g/m*3 -1.2 C 0 km/h
2867 23-01-2004 02:40:02 -1.3 C 3.32 g/m*3 -1.3 C 0 km/h
2868 23-01-2004 02:52:02 -1.5 C 3.27 g/m*3 -1.5 C 0 km/h
2869 23-01-2004 03:04:02 -1.6 C 3.25 g/m*3 -1.6 C 0 km/h
2870 23-01-2004 03:16:02 -1.7 C 3.23 g/m*3 -1.7 C 0 km/h
2871 23-01-2004 03:28:02 -1.7 C 3.23 g/m*3 -1.7 C 0 km/h
2872 23-01-2004 03:40:00 -1.6 C 3.25 g/m*3 -1.6 C 0 km/h
2873 23-01-2004 03:52:00 -1.6 C 3.21 g/m*3 -1.6 C 0 km/h
2874 23-01-2004 04:04:58 -1.7 C 3.19 g/m*3 -1.7 C 0 km/h
2875 23-01-2004 04:16:58 -1.7 C 3.14 g/m*3 -1.7 C 0 km/h
Sensor: Nr:Datum:Temp:Abs-Feuchte:Windchill:Wind:
Aussen-T/F 2876 23-01-2004 04:28:58 -1.6 C 3.12 g/m*3 -1.6 C 0 km/h
2877 23-01-2004 04:40:01 -1.8 C 3.04 g/m*3 -1.8 C 0 km/h
2878 23-01-2004 04:52:01 -2 C 3.08 g/m*3 -2 C 0 km/h
2879 23-01-2004 05:04:01 -2.2 C 3.08 g/m*3 -2.2 C 0 km/h
2880 23-01-2004 05:16:01 -2.2 C 3.12 g/m*3 -2.2 C 0 km/h
2881 23-01-2004 05:28:01 -2.1 C 3.1 g/m*3 -2.1 C 0 km/h
2882 23-01-2004 05:40:01 -2.1 C 3.1 g/m*3 -2.1 C 0 km/h
2883 23-01-2004 05:52:01 -2.3 C 3.05 g/m*3 -2.3 C 0 km/h
2884 23-01-2004 06:04:01 -2.5 C 3.01 g/m*3 -2.5 C 0 km/h
2885 23-01-2004 06:16:01 -2.5 C 3.05 g/m*3 -2.5 C 0 km/h
2886 23-01-2004 06:28:01 -2.4 C 3.11 g/m*3 -2.4 C 0 km/h
2887 23-01-2004 06:40:00 -2.2 C 3.16 g/m*3 -2.2 C 0 km/h
2888 23-01-2004 06:52:00 -2.1 C 3.14 g/m*3 -2.1 C 0 km/h
2889 23-01-2004 07:04:58 -2.2 C 3.12 g/m*3 -2.2 C 0 km/h
2890 23-01-2004 07:16:58 -2.2 C 3.12 g/m*3 -2.2 C 0 km/h
2891 23-01-2004 07:28:58 -2.5 C 3.01 g/m*3 -2.5 C 0 km/h
2892 23-01-2004 07:40:01 -2.7 C 2.97 g/m*3 -2.7 C 0 km/h
2893 23-01-2004 07:52:01 -2.7 C 3.01 g/m*3 -2.7 C 0 km/h
2894 23-01-2004 08:04:01 -2.6 C 3.03 g/m*3 -2.6 C 0 km/h
2895 23-01-2004 08:16:01 -2.4 C 3.07 g/m*3 -2.4 C 0 km/h
2896 23-01-2004 08:28:01 -2.3 C 3.1 g/m*3 -2.3 C 0 km/h
2897 23-01-2004 08:40:00 -2.2 C 3.08 g/m*3 -2.2 C 0 km/h
2898 23-01-2004 08:52:00 -2.1 C 3.1 g/m*3 -2.1 C 0 km/h
2899 23-01-2004 09:04:58 -1.9 C 3.1 g/m*3 -1.9 C 0 km/h
2900 23-01-2004 09:16:58 -1.8 C 3.12 g/m*3 -1.8 C 0 km/h
Sensor: Nr:Datum:Temp:Abs-Feuchte:Windchill:Wind:
Aussen-T/F 2901 23-01-2004 09:28:58 -1.6 C 3.16 g/m*3 -1.6 C 0 km/h
2902 23-01-2004 09:40:01 -1.3 C 3.23 g/m*3 -1.3 C 0 km/h
2903 23-01-2004 09:52:01 -1.1 C 3.28 g/m*3 -1.1 C 0 km/h
2904 23-01-2004 10:04:01 -0.8 C 3.25 g/m*3 -0.8 C 0 km/h
2905 23-01-2004 10:16:01 -0.5 C 3.32 g/m*3 -0.5 C 0 km/h
2906 23-01-2004 10:28:01 -0.2 C 3.35 g/m*3 -0.2 C 0 km/h
2907 23-01-2004 10:40:00 0 C 3.29 g/m*3 0 C 0 km/h
2908 23-01-2004 10:52:00 0.2 C 3.29 g/m*3 0.2 C 0 km/h
2909 23-01-2004 11:04:58 0.5 C 3.26 g/m*3 0.5 C 0 km/h
2910 23-01-2004 11:16:58 0.3 C 3.17 g/m*3 0.3 C 0 km/h
2911 23-01-2004 11:28:58 0 C 3.15 g/m*3 0 C 0 km/h
2912 23-01-2004 11:40:01 -0.2 C 3.15 g/m*3 -0.2 C 0 km/h
2913 23-01-2004 11:52:01 -0.2 C 3.11 g/m*3 -0.2 C 0 km/h
2914 23-01-2004 12:04:01 0.5 C 3.21 g/m*3 0.5 C 0 km/h
2915 23-01-2004 12:16:01 0.7 C 3.2 g/m*3 0.7 C 0 km/h
2916 23-01-2004 12:28:01 0.9 C 3.14 g/m*3 0.9 C 0 km/h
2917 23-01-2004 12:40:01 1.3 C 3.18 g/m*3 1.3 C 0 km/h
2918 23-01-2004 12:52:01 1.8 C 3.12 g/m*3 1.8 C 0 km/h
2919 23-01-2004 13:04:59 2.1 C 3.08 g/m*3 2.1 C 0 km/h
2920 23-01-2004 13:15:59 2.6 C 3.13 g/m*3 2.6 C 0 km/h
2921 23-01-2004 13:27:59 3.3 C 2.97 g/m*3 3.3 C 0 km/h
2922 23-01-2004 13:40:01 3.8 C 3.01 g/m*3 3.8 C 0 km/h
2923 23-01-2004 13:52:01 4 C 2.73 g/m*3 4 C 0 km/h
2924 23-01-2004 14:04:01 4.4 C 2.81 g/m*3 4.4 C 0 km/h
2925 23-01-2004 14:16:01 4.6 C 2.45 g/m*3 4.6 C 0 km/h
Sensor: Nr:Datum:Temp:Abs-Feuchte:Windchill:Wind:
Aussen-T/F 2926 23-01-2004 14:28:01 5.2 C 2.75 g/m*3 5.2 C 0 km/h
2927 23-01-2004 14:40:00 5.1 C 2.8 g/m*3 5.1 C 0 km/h
2928 23-01-2004 14:52:00 4.7 C 2.73 g/m*3 4.7 C 0 km/h
2929 23-01-2004 15:04:00 4.3 C 2.79 g/m*3 4.3 C 0 km/h
2930 23-01-2004 15:16:00 3.3 C 2.79 g/m*3 3.3 C 0 km/h
2931 23-01-2004 15:28:00 2.8 C 2.82 g/m*3 2.8 C 0 km/h
2932 23-01-2004 15:40:01 2.3 C 2.78 g/m*3 2.3 C 0 km/h
2933 23-01-2004 15:52:01 1.9 C 2.87 g/m*3 1.9 C 0 km/h
2934 23-01-2004 16:04:01 1.8 C 2.96 g/m*3 1.8 C 0 km/h
2935 23-01-2004 16:16:01 1.4 C 2.83 g/m*3 1.4 C 0 km/h
2936 23-01-2004 16:28:01 1.2 C 2.74 g/m*3 1.2 C 0 km/h
2937 23-01-2004 16:40:00 1.1 C 2.72 g/m*3 1.1 C 0 km/h
2938 23-01-2004 16:52:00 0.8 C 2.82 g/m*3 0.8 C 0 km/h
2939 23-01-2004 17:04:59 0.5 C 2.76 g/m*3 0.5 C 0 km/h
2940 23-01-2004 17:16:59 0.2 C 2.75 g/m*3 0.2 C 0 km/h
2941 23-01-2004 17:28:59 -0.1 C 2.69 g/m*3 -0.1 C 0 km/h
2942 23-01-2004 17:40:00 -0.2 C 2.63 g/m*3 -0.2 C 0 km/h
2943 23-01-2004 17:52:00 0.1 C 2.44 g/m*3 0.1 C 0 km/h
2944 23-01-2004 18:04:01 0.4 C 2.39 g/m*3 0.4 C 0 km/h
2945 23-01-2004 18:16:01 0.2 C 2.46 g/m*3 0.2 C 0 km/h
2946 23-01-2004 18:28:01 0.1 C 2.49 g/m*3 0.1 C 0 km/h
2947 23-01-2004 18:40:02 -0.2 C 2.58 g/m*3 -0.2 C 0 km/h
2948 23-01-2004 18:52:02 -0.5 C 2.57 g/m*3 -0.5 C 0 km/h
2949 23-01-2004 19:04:01 -0.5 C 2.57 g/m*3 -0.5 C 0 km/h
2950 23-01-2004 19:16:01 -0.9 C 2.55 g/m*3 -0.9 C 0 km/h
Sensor: Nr:Datum:Temp:Abs-Feuchte:Windchill:Wind:
Aussen-T/F 2951 23-01-2004 19:28:01 -1.1 C 2.6 g/m*3 -1.1 C 0 km/h
2952 23-01-2004 19:40:02 -0.9 C 2.55 g/m*3 -0.9 C 0 km/h
2953 23-01-2004 19:52:02 -1.1 C 2.6 g/m*3 -1.1 C 0 km/h
2954 23-01-2004 20:04:02 -1.2 C 2.59 g/m*3 -1.2 C 0 km/h
2955 23-01-2004 20:16:02 -1.3 C 2.57 g/m*3 -1.3 C 0 km/h
2956 23-01-2004 20:28:02 -1.3 C 2.61 g/m*3 -1.3 C 0 km/h
2957 23-01-2004 20:40:00 -1.4 C 2.68 g/m*3 -1.4 C 0 km/h
2958 23-01-2004 20:52:00 -1.5 C 2.66 g/m*3 -1.5 C 0 km/h
2959 23-01-2004 21:04:58 -1.5 C 2.66 g/m*3 -1.5 C 0 km/h
2960 23-01-2004 21:16:58 -1.6 C 2.64 g/m*3 -1.6 C 0 km/h
2961 23-01-2004 21:28:58 -1.7 C 2.58 g/m*3 -1.7 C 0 km/h
2962 23-01-2004 21:40:00 -1.8 C 2.65 g/m*3 -1.8 C 0 km/h
2963 23-01-2004 21:52:00 -1.9 C 2.63 g/m*3 -1.9 C 0 km/h
2964 23-01-2004 22:04:00 -2 C 2.66 g/m*3 -2 C 0 km/h
2965 23-01-2004 22:16:00 -2 C 2.7 g/m*3 -2 C 0 km/h
2966 23-01-2004 22:28:00 -2.2 C 2.66 g/m*3 -2.2 C 0 km/h
2967 23-01-2004 22:40:01 -2.3 C 2.68 g/m*3 -2.3 C 0 km/h
2968 23-01-2004 22:52:01 -2.4 C 2.66 g/m*3 -2.4 C 0 km/h
2969 23-01-2004 23:04:00 -2.4 C 2.7 g/m*3 -2.4 C 0 km/h
2970 23-01-2004 23:16:00 -2.4 C 2.7 g/m*3 -2.4 C 0 km/h
2971 23-01-2004 23:28:00 -2.5 C 2.69 g/m*3 -2.5 C 0 km/h
2972 23-01-2004 23:40:01 -2.5 C 2.69 g/m*3 -2.5 C 0 km/h
2973 23-01-2004 23:52:01 -2.6 C 2.67 g/m*3 -2.6 C 0 km/h
2974 24-01-2004 00:04:01 -2.7 C 2.65 g/m*3 -2.7 C 0 km/h
2975 24-01-2004 00:16:01 -2.7 C 2.69 g/m*3 -2.7 C 0 km/h
Sensor: Nr:Datum:Temp:Abs-Feuchte:Windchill:Wind:
Aussen-T/F 2976 24-01-2004 00:28:01 -2.8 C 2.67 g/m*3 -2.8 C 0 km/h
2977 24-01-2004 00:40:00 -2.9 C 2.65 g/m*3 -2.9 C 0 km/h
2978 24-01-2004 00:52:00 -2.8 C 2.71 g/m*3 -2.8 C 0 km/h
2979 24-01-2004 01:04:58 -3 C 2.63 g/m*3 -3 C 0 km/h
2980 24-01-2004 01:16:58 -2.8 C 2.67 g/m*3 -2.8 C 0 km/h
2981 24-01-2004 01:28:58 -3 C 2.63 g/m*3 -3 C 0 km/h
2982 24-01-2004 01:40:01 -3.1 C 2.61 g/m*3 -3.1 C 0 km/h
2983 24-01-2004 01:52:01 -3.1 C 2.65 g/m*3 -3.1 C 0 km/h
2984 24-01-2004 02:04:01 -3.3 C 2.58 g/m*3 -3.3 C 0 km/h
2985 24-01-2004 02:16:01 -3.3 C 2.61 g/m*3 -3.3 C 0 km/h
2986 24-01-2004 02:28:01 -3.3 C 2.69 g/m*3 -3.3 C 0 km/h
2987 24-01-2004 02:41:03 -3.2 C 2.75 g/m*3 -3.2 C 0 km/h
2988 24-01-2004 02:53:03 -3.3 C 2.69 g/m*3 -3.3 C 0 km/h
2989 24-01-2004 03:05:03 -3.3 C 2.65 g/m*3 -3.3 C 0 km/h
2990 24-01-2004 03:17:03 -3.3 C 2.61 g/m*3 -3.3 C 0 km/h
2991 24-01-2004 03:29:03 -3.2 C 2.59 g/m*3 -3.2 C 0 km/h
2992 24-01-2004 03:41:00 -2.8 C 2.63 g/m*3 -2.8 C 0 km/h
2993 24-01-2004 03:53:00 -3.1 C 2.57 g/m*3 -3.1 C 0 km/h
2994 24-01-2004 04:05:59 -3.2 C 2.59 g/m*3 -3.2 C 0 km/h
2995 24-01-2004 04:17:59 -3.1 C 2.61 g/m*3 -3.1 C 0 km/h
2996 24-01-2004 04:29:59 -3.1 C 2.57 g/m*3 -3.1 C 0 km/h
2997 24-01-2004 04:41:01 -3.1 C 2.57 g/m*3 -3.1 C 0 km/h
2998 24-01-2004 04:53:01 -3.2 C 2.56 g/m*3 -3.2 C 0 km/h
2999 24-01-2004 05:05:01 -3.1 C 2.61 g/m*3 -3.1 C 0 km/h
3000 24-01-2004 05:17:01 -3.1 C 2.57 g/m*3 -3.1 C 0 km/h
Sensor: Nr:Datum:Temp:Abs-Feuchte:Windchill:Wind:
Aussen-T/F 3001 24-01-2004 05:29:01 -2.9 C 2.61 g/m*3 -2.9 C 0 km/h
3002 24-01-2004 05:41:00 -2.9 C 2.61 g/m*3 -2.9 C 0 km/h
3003 24-01-2004 05:53:00 -2.8 C 2.63 g/m*3 -2.8 C 0 km/h
3004 24-01-2004 06:05:58 -2.7 C 2.65 g/m*3 -2.7 C 0 km/h
3005 24-01-2004 06:17:58 -2.7 C 2.65 g/m*3 -2.7 C 0 km/h
3006 24-01-2004 06:29:58 -2.7 C 2.65 g/m*3 -2.7 C 0 km/h
3007 24-01-2004 06:41:01 -2.7 C 2.69 g/m*3 -2.7 C 0 km/h
3008 24-01-2004 06:53:01 -2.5 C 2.65 g/m*3 -2.5 C 0 km/h
3009 24-01-2004 07:05:01 -2.4 C 2.66 g/m*3 -2.4 C 0 km/h
3010 24-01-2004 07:17:01 -2.4 C 2.58 g/m*3 -2.4 C 0 km/h
3011 24-01-2004 07:29:01 -2.4 C 2.54 g/m*3 -2.4 C 0 km/h
3012 24-01-2004 07:41:01 -2.6 C 2.51 g/m*3 -2.6 C 0 km/h
3013 24-01-2004 07:53:01 -2.7 C 2.49 g/m*3 -2.7 C 0 km/h
3014 24-01-2004 08:05:01 -2.7 C 2.53 g/m*3 -2.7 C 0 km/h
3015 24-01-2004 08:17:01 -2.7 C 2.53 g/m*3 -2.7 C 0 km/h
3016 24-01-2004 08:29:01 -2.8 C 2.51 g/m*3 -2.8 C 0 km/h
3017 24-01-2004 08:41:00 -2.7 C 2.53 g/m*3 -2.7 C 0 km/h
3018 24-01-2004 08:53:00 -2.5 C 2.56 g/m*3 -2.5 C 0 km/h
3019 24-01-2004 09:05:58 -2.2 C 2.58 g/m*3 -2.2 C 0 km/h
3020 24-01-2004 09:17:58 -2.1 C 2.6 g/m*3 -2.1 C 0 km/h
3021 24-01-2004 09:29:58 -2.1 C 2.55 g/m*3 -2.1 C 0 km/h
3022 24-01-2004 09:41:01 -1.9 C 2.55 g/m*3 -1.9 C 0 km/h
3023 24-01-2004 09:53:01 -1.6 C 2.6 g/m*3 -1.6 C 0 km/h
3024 24-01-2004 10:05:02 -1.1 C 2.6 g/m*3 -1.1 C 0 km/h
3025 24-01-2004 10:17:02 -0.6 C 2.65 g/m*3 -0.6 C 0 km/h
Sensor: Nr:Datum:Temp:Abs-Feuchte:Windchill:Wind:
Aussen-T/F 3026 24-01-2004 10:29:02 -0.4 C 2.69 g/m*3 -0.4 C 0 km/h
3027 24-01-2004 10:41:00 -0.3 C 2.52 g/m*3 -0.3 C 0 km/h
3028 24-01-2004 10:53:00 0 C 2.62 g/m*3 0 C 0 km/h
3029 24-01-2004 11:05:59 0.3 C 2.47 g/m*3 0.3 C 0 km/h
3030 24-01-2004 11:17:59 0.6 C 2.47 g/m*3 0.6 C 0 km/h
3031 24-01-2004 11:29:59 1 C 2.44 g/m*3 1 C 0 km/h
3032 24-01-2004 11:41:01 1.1 C 2.4 g/m*3 1.1 C 0 km/h
3033 24-01-2004 11:53:01 1.3 C 2.38 g/m*3 1.3 C 0 km/h
3034 24-01-2004 12:05:00 1.7 C 2.45 g/m*3 1.7 C 0 km/h
3035 24-01-2004 12:17:00 1.4 C 2.35 g/m*3 1.4 C 0 km/h
3036 24-01-2004 12:29:00 1.3 C 2.44 g/m*3 1.3 C 0 km/h
3037 24-01-2004 12:41:01 1.3 C 2.6 g/m*3 1.3 C 0 km/h
3038 24-01-2004 12:53:01 1.3 C 2.44 g/m*3 1.3 C 0 km/h
3039 24-01-2004 13:05:01 1.4 C 2.45 g/m*3 1.4 C 0 km/h
3040 24-01-2004 13:17:01 1.4 C 2.45 g/m*3 1.4 C 0 km/h
3041 24-01-2004 13:29:01 1.5 C 2.42 g/m*3 1.5 C 0 km/h
3042 24-01-2004 13:41:00 1.7 C 2.45 g/m*3 1.7 C 0 km/h
3043 24-01-2004 13:53:00 2 C 2.56 g/m*3 2 C 0 km/h
3044 24-01-2004 14:05:59 1.9 C 2.59 g/m*3 1.9 C 0 km/h
3045 24-01-2004 14:17:59 1.8 C 2.52 g/m*3 1.8 C 0 km/h
3046 24-01-2004 14:29:59 1.4 C 2.72 g/m*3 1.4 C 0 km/h
3047 24-01-2004 14:41:01 1.2 C 2.84 g/m*3 1.2 C 0 km/h
3048 24-01-2004 14:53:01 1 C 2.96 g/m*3 1 C 0 km/h
3049 24-01-2004 15:05:00 0.7 C 3.15 g/m*3 0.7 C 0 km/h
3050 24-01-2004 15:17:00 0.4 C 3.39 g/m*3 0.4 C 0 km/h
Sensor: Nr:Datum:Temp:Abs-Feuchte:Windchill:Wind:
Aussen-T/F 3051 24-01-2004 15:29:00 0.3 C 3.46 g/m*3 0.3 C 0 km/h
3052 24-01-2004 15:41:01 0.2 C 3.64 g/m*3 0.2 C 0 km/h
3053 24-01-2004 15:53:01 0.1 C 3.66 g/m*3 0.1 C 0 km/h
3054 24-01-2004 16:05:01 0.1 C 3.71 g/m*3 0.1 C 0 km/h
3055 24-01-2004 16:17:01 0 C 3.68 g/m*3 0 C 0 km/h
3056 24-01-2004 16:29:01 -0.1 C 3.71 g/m*3 -0.1 C 0 km/h
3057 24-01-2004 16:41:01 -0.1 C 3.75 g/m*3 -0.1 C 0 km/h
3058 24-01-2004 16:53:01 -0.1 C 3.75 g/m*3 -0.1 C 0 km/h
3059 24-01-2004 17:05:00 0 C 3.78 g/m*3 0 C 0 km/h
3060 24-01-2004 17:17:00 0 C 3.78 g/m*3 0 C 0 km/h
3061 24-01-2004 17:29:00 -0.1 C 3.8 g/m*3 -0.1 C 0 km/h
3062 24-01-2004 17:41:01 -0.1 C 3.8 g/m*3 -0.1 C 0 km/h
3063 24-01-2004 17:53:01 -0.1 C 3.8 g/m*3 -0.1 C 0 km/h
3064 24-01-2004 18:05:01 -0.1 C 3.85 g/m*3 -0.1 C 0 km/h
3065 24-01-2004 18:17:01 -0.1 C 3.9 g/m*3 -0.1 C 0 km/h
3066 24-01-2004 18:29:01 0 C 3.92 g/m*3 0 C 0 km/h
3067 24-01-2004 18:41:00 0 C 3.97 g/m*3 0 C 0 km/h
3068 24-01-2004 18:53:00 0 C 3.97 g/m*3 0 C 0 km/h
3069 24-01-2004 19:05:59 0 C 3.97 g/m*3 0 C 0 km/h
3070 24-01-2004 19:17:59 0 C 3.97 g/m*3 0 C 0 km/h
3071 24-01-2004 19:29:59 0 C 3.97 g/m*3 0 C 0 km/h
3072 24-01-2004 19:41:01 0.1 C 4.05 g/m*3 0.1 C 0 km/h
3073 24-01-2004 19:53:01 0.2 C 4.18 g/m*3 0.2 C 0 km/h
3074 24-01-2004 20:05:01 0.3 C 4.25 g/m*3 0.3 C 0 km/h
3075 24-01-2004 20:17:01 0.3 C 4.25 g/m*3 0.3 C 0 km/h
Sensor: Nr:Datum:Temp:Abs-Feuchte:Windchill:Wind:
Aussen-T/F 3076 24-01-2004 20:29:01 0.4 C 4.28 g/m*3 0.4 C 0 km/h
3077 24-01-2004 20:41:00 0.5 C 4.31 g/m*3 0.5 C 0 km/h
3078 24-01-2004 20:53:00 0.5 C 4.26 g/m*3 0.5 C 0 km/h
3079 24-01-2004 21:05:58 0.5 C 4.31 g/m*3 0.5 C 0 km/h
3080 24-01-2004 21:17:58 0.5 C 4.31 g/m*3 0.5 C 0 km/h
3081 24-01-2004 21:29:58 0.5 C 4.31 g/m*3 0.5 C 0 km/h
3082 24-01-2004 21:41:02 0.6 C 4.34 g/m*3 0.6 C 0 km/h
3083 24-01-2004 21:53:02 0.6 C 4.39 g/m*3 0.6 C 0 km/h
3084 24-01-2004 22:05:02 0.8 C 4.45 g/m*3 0.8 C 0 km/h
3085 24-01-2004 22:17:02 0.7 C 4.42 g/m*3 0.7 C 0 km/h
3086 24-01-2004 22:29:02 0.7 C 4.37 g/m*3 0.7 C 0 km/h
3087 24-01-2004 22:41:00 0.8 C 4.45 g/m*3 0.8 C 0 km/h
3088 24-01-2004 22:53:00 0.8 C 4.45 g/m*3 0.8 C 0 km/h
3089 24-01-2004 23:05:58 0.7 C 4.42 g/m*3 0.7 C 0 km/h
3090 24-01-2004 23:17:58 0.7 C 4.42 g/m*3 0.7 C 0 km/h
3091 24-01-2004 23:29:58 0.8 C 4.45 g/m*3 0.8 C 0 km/h
3092 24-01-2004 23:41:01 0.8 C 4.45 g/m*3 0.8 C 0 km/h
3093 24-01-2004 23:53:01 0.7 C 4.42 g/m*3 0.7 C 0 km/h
3094 25-01-2004 00:05:01 0.5 C 4.36 g/m*3 0.5 C 0 km/h
3095 25-01-2004 00:17:01 0.4 C 4.33 g/m*3 0.4 C 0 km/h
3096 25-01-2004 00:29:01 0.5 C 4.41 g/m*3 0.5 C 0 km/h
3097 25-01-2004 00:40:59 0.5 C 4.41 g/m*3 0.5 C 0 km/h
3098 25-01-2004 00:52:59 0.5 C 4.41 g/m*3 0.5 C 0 km/h
3099 25-01-2004 01:05:58 0.7 C 4.53 g/m*3 0.7 C 0 km/h
3100 25-01-2004 01:17:58 1 C 4.57 g/m*3 1 C 0 km/h
Sensor: Nr:Datum:Temp:Abs-Feuchte:Windchill:Wind:
Aussen-T/F 3101 25-01-2004 01:29:58 1 C 4.57 g/m*3 1 C 0 km/h
3102 25-01-2004 01:41:01 0.9 C 4.54 g/m*3 0.9 C 0 km/h
3103 25-01-2004 01:53:01 0.8 C 4.51 g/m*3 0.8 C 0 km/h
3104 25-01-2004 02:05:01 0.8 C 4.51 g/m*3 0.8 C 0 km/h
3105 25-01-2004 02:17:01 1 C 4.57 g/m*3 1 C 0 km/h
3106 25-01-2004 02:29:01 0.9 C 4.54 g/m*3 0.9 C 0 km/h
3107 25-01-2004 02:42:03 1 C 4.52 g/m*3 1 C 0 km/h
3108 25-01-2004 02:54:03 1.3 C 4.56 g/m*3 1.3 C 0 km/h
3109 25-01-2004 03:06:03 1.3 C 4.5 g/m*3 1.3 C 0 km/h
3110 25-01-2004 03:18:02 1.2 C 4.47 g/m*3 1.2 C 0 km/h
3111 25-01-2004 03:30:02 1.2 C 4.47 g/m*3 1.2 C 0 km/h
3112 25-01-2004 03:42:00 1.3 C 4.5 g/m*3 1.3 C 0 km/h
3113 25-01-2004 03:54:00 1.2 C 4.42 g/m*3 1.2 C 0 km/h
3114 25-01-2004 04:06:59 1.3 C 4.45 g/m*3 1.3 C 0 km/h
3115 25-01-2004 04:18:59 1.5 C 4.46 g/m*3 1.5 C 0 km/h
3116 25-01-2004 04:30:59 1.4 C 4.43 g/m*3 1.4 C 0 km/h
3117 25-01-2004 04:42:01 1.4 C 4.43 g/m*3 1.4 C 0 km/h
3118 25-01-2004 04:54:01 1.4 C 4.48 g/m*3 1.4 C 0 km/h
3119 25-01-2004 05:06:00 1.3 C 4.45 g/m*3 1.3 C 0 km/h
3120 25-01-2004 05:18:00 1.3 C 4.45 g/m*3 1.3 C 0 km/h
3121 25-01-2004 05:30:00 1 C 4.41 g/m*3 1 C 0 km/h
3122 25-01-2004 05:42:01 0.9 C 4.48 g/m*3 0.9 C 0 km/h
3123 25-01-2004 05:54:01 1 C 4.52 g/m*3 1 C 0 km/h
3124 25-01-2004 06:06:01 1.2 C 4.53 g/m*3 1.2 C 0 km/h
3125 25-01-2004 06:18:01 1.2 C 4.47 g/m*3 1.2 C 0 km/h
Sensor: Nr:Datum:Temp:Abs-Feuchte:Windchill:Wind:
Aussen-T/F 3126 25-01-2004 06:30:01 1.2 C 4.47 g/m*3 1.2 C 0 km/h
3127 25-01-2004 06:42:01 1.4 C 4.48 g/m*3 1.4 C 0 km/h
3128 25-01-2004 06:54:01 1.2 C 4.42 g/m*3 1.2 C 0 km/h
3129 25-01-2004 07:06:01 1.1 C 4.39 g/m*3 1.1 C 0 km/h
3130 25-01-2004 07:18:01 0.8 C 4.35 g/m*3 0.8 C 0 km/h
3131 25-01-2004 07:30:01 1.1 C 4.49 g/m*3 1.1 C 0 km/h
3132 25-01-2004 07:42:00 1.2 C 4.47 g/m*3 1.2 C 0 km/h
3133 25-01-2004 07:54:00 1.4 C 4.53 g/m*3 1.4 C 0 km/h
3134 25-01-2004 08:06:59 1.5 C 4.51 g/m*3 1.5 C 0 km/h
3135 25-01-2004 08:18:59 1.7 C 4.57 g/m*3 1.7 C 0 km/h
3136 25-01-2004 08:30:59 1.4 C 4.48 g/m*3 1.4 C 0 km/h
3137 25-01-2004 08:42:01 1.4 C 4.53 g/m*3 1.4 C 0 km/h
3138 25-01-2004 08:54:01 1.4 C 4.53 g/m*3 1.4 C 0 km/h
3139 25-01-2004 09:06:01 1.5 C 4.62 g/m*3 1.5 C 0 km/h
3140 25-01-2004 09:18:01 1.4 C 4.59 g/m*3 1.4 C 0 km/h
3141 25-01-2004 09:30:01 1.3 C 4.56 g/m*3 1.3 C 0 km/h
3142 25-01-2004 09:42:00 1.3 C 4.56 g/m*3 1.3 C 0 km/h
3143 25-01-2004 09:54:00 1.4 C 4.59 g/m*3 1.4 C 0 km/h
3144 25-01-2004 10:06:58 1.5 C 4.62 g/m*3 1.5 C 0 km/h
3145 25-01-2004 10:18:58 1.5 C 4.62 g/m*3 1.5 C 0 km/h
3146 25-01-2004 10:30:58 1.8 C 4.66 g/m*3 1.8 C 0 km/h
3147 25-01-2004 10:42:01 2.1 C 4.7 g/m*3 2.1 C 0 km/h
3148 25-01-2004 10:54:01 2.4 C 4.74 g/m*3 2.4 C 0 km/h
3149 25-01-2004 11:06:01 2.6 C 4.69 g/m*3 2.6 C 0 km/h
3150 25-01-2004 11:18:01 2.7 C 4.66 g/m*3 2.7 C 0 km/h
Sensor: Nr:Datum:Temp:Abs-Feuchte:Windchill:Wind:
Aussen-T/F 3151 25-01-2004 11:30:01 2.6 C 4.57 g/m*3 2.6 C 0 km/h
3152 25-01-2004 11:42:00 2.8 C 4.63 g/m*3 2.8 C 0 km/h
3153 25-01-2004 11:54:00 3 C 4.58 g/m*3 3 C 0 km/h
3154 25-01-2004 12:06:58 3.5 C 4.67 g/m*3 3.5 C 0 km/h
3155 25-01-2004 12:18:58 3.7 C 4.74 g/m*3 3.7 C 0 km/h
3156 25-01-2004 12:30:58 3.6 C 4.64 g/m*3 3.6 C 0 km/h
3157 25-01-2004 12:42:01 3.8 C 4.71 g/m*3 3.8 C 0 km/h
3158 25-01-2004 12:54:01 3.9 C 4.74 g/m*3 3.9 C 0 km/h
3159 25-01-2004 13:06:01 4 C 4.7 g/m*3 4 C 0 km/h
3160 25-01-2004 13:18:01 4.2 C 4.64 g/m*3 4.2 C 0 km/h
3161 25-01-2004 13:30:01 4.6 C 4.63 g/m*3 4.6 C 0 km/h
3162 25-01-2004 13:42:01 4.3 C 4.61 g/m*3 4.3 C 0 km/h
3163 25-01-2004 13:54:01 4.3 C 4.54 g/m*3 4.3 C 0 km/h
3164 25-01-2004 14:06:01 4.7 C 4.66 g/m*3 4.7 C 0 km/h
3165 25-01-2004 14:18:01 5.3 C 4.71 g/m*3 5.3 C 0 km/h
3166 25-01-2004 14:30:01 5.1 C 4.51 g/m*3 5.1 C 0 km/h
3167 25-01-2004 14:42:00 5.1 C 4.58 g/m*3 5.1 C 0 km/h
3168 25-01-2004 14:54:00 4.6 C 4.5 g/m*3 4.6 C 0 km/h
3169 25-01-2004 15:06:58 4.7 C 4.53 g/m*3 4.7 C 0 km/h
3170 25-01-2004 15:18:58 4.6 C 4.57 g/m*3 4.6 C 0 km/h
3171 25-01-2004 15:30:58 4.4 C 4.64 g/m*3 4.4 C 0 km/h
3172 25-01-2004 15:42:01 4.1 C 4.74 g/m*3 4.1 C 0 km/h
3173 25-01-2004 15:54:01 3.7 C 4.74 g/m*3 3.7 C 0 km/h
3174 25-01-2004 16:06:01 3.6 C 4.7 g/m*3 3.6 C 0 km/h
3175 25-01-2004 16:18:01 3.2 C 4.58 g/m*3 3.2 C 0 km/h
Sensor: Nr:Datum:Temp:Abs-Feuchte:Windchill:Wind:
Aussen-T/F 3176 25-01-2004 16:30:01 3.2 C 4.64 g/m*3 3.2 C 0 km/h
3177 25-01-2004 16:42:00 3.2 C 4.64 g/m*3 3.2 C 0 km/h
3178 25-01-2004 16:54:00 3.2 C 4.64 g/m*3 3.2 C 0 km/h
3179 25-01-2004 17:06:59 3.1 C 4.67 g/m*3 3.1 C 0 km/h
3180 25-01-2004 17:18:59 2.8 C 4.58 g/m*3 2.8 C 0 km/h
3181 25-01-2004 17:30:59 2.4 C 4.51 g/m*3 2.4 C 0 km/h
3182 25-01-2004 17:42:01 2.1 C 4.59 g/m*3 2.1 C 0 km/h
3183 25-01-2004 17:54:01 2.1 C 4.64 g/m*3 2.1 C 0 km/h
3184 25-01-2004 18:06:01 2.1 C 4.7 g/m*3 2.1 C 0 km/h
3185 25-01-2004 18:18:01 2.1 C 4.7 g/m*3 2.1 C 0 km/h
3186 25-01-2004 18:30:01 1.9 C 4.64 g/m*3 1.9 C 0 km/h
3187 25-01-2004 18:42:01 1.7 C 4.57 g/m*3 1.7 C 0 km/h
3188 25-01-2004 18:54:01 1.8 C 4.66 g/m*3 1.8 C 0 km/h
3189 25-01-2004 19:06:58 1.7 C 4.63 g/m*3 1.7 C 0 km/h
3190 25-01-2004 19:18:58 1.8 C 4.71 g/m*3 1.8 C 0 km/h
3191 25-01-2004 19:30:58 1.8 C 4.66 g/m*3 1.8 C 0 km/h
3192 25-01-2004 19:42:01 1.8 C 4.66 g/m*3 1.8 C 0 km/h
3193 25-01-2004 19:54:01 1.8 C 4.66 g/m*3 1.8 C 0 km/h
3194 25-01-2004 20:06:01 1.7 C 4.63 g/m*3 1.7 C 0 km/h
3195 25-01-2004 20:18:01 1.8 C 4.66 g/m*3 1.8 C 0 km/h
3196 25-01-2004 20:30:01 1.8 C 4.66 g/m*3 1.8 C 0 km/h
3197 25-01-2004 20:42:01 2 C 4.67 g/m*3 2 C 0 km/h
3198 25-01-2004 20:54:01 2 C 4.61 g/m*3 2 C 0 km/h
3199 25-01-2004 21:06:01 2.2 C 4.62 g/m*3 2.2 C 0 km/h
3200 25-01-2004 21:18:01 2.3 C 4.59 g/m*3 2.3 C 0 km/h
Sensor: Nr:Datum:Temp:Abs-Feuchte:Windchill:Wind:
Aussen-T/F 3201 25-01-2004 21:30:01 2.3 C 4.59 g/m*3 2.3 C 0 km/h
3202 25-01-2004 21:42:00 2.2 C 4.51 g/m*3 2.2 C 0 km/h
3203 25-01-2004 21:54:00 2.3 C 4.54 g/m*3 2.3 C 0 km/h
3204 25-01-2004 22:06:59 2.3 C 4.54 g/m*3 2.3 C 0 km/h
3205 25-01-2004 22:18:59 2 C 4.45 g/m*3 2 C 0 km/h
3206 25-01-2004 22:30:59 1.8 C 4.44 g/m*3 1.8 C 0 km/h
3207 25-01-2004 22:42:02 1.7 C 4.41 g/m*3 1.7 C 0 km/h
3208 25-01-2004 22:54:02 1.2 C 4.26 g/m*3 1.2 C 0 km/h
3209 25-01-2004 23:06:02 0.7 C 4.17 g/m*3 0.7 C 0 km/h
3210 25-01-2004 23:18:02 0.3 C 4.11 g/m*3 0.3 C 0 km/h
3211 25-01-2004 23:30:02 0.1 C 4.05 g/m*3 0.1 C 0 km/h
3212 25-01-2004 23:42:01 0 C 4.07 g/m*3 0 C 0 km/h
3213 25-01-2004 23:54:01 -0.1 C 4.04 g/m*3 -0.1 C 0 km/h
3214 26-01-2004 00:06:01 -0.2 C 4.01 g/m*3 -0.2 C 0 km/h
3215 26-01-2004 00:18:01 0 C 4.17 g/m*3 0 C 0 km/h
3216 26-01-2004 00:30:01 0.2 C 4.27 g/m*3 0.2 C 0 km/h
3217 26-01-2004 00:42:00 0.4 C 4.33 g/m*3 0.4 C 0 km/h
3218 26-01-2004 00:54:00 1 C 4.52 g/m*3 1 C 0 km/h
3219 26-01-2004 01:06:58 1.2 C 4.58 g/m*3 1.2 C 0 km/h
3220 26-01-2004 01:18:58 1.3 C 4.5 g/m*3 1.3 C 0 km/h
3221 26-01-2004 01:30:58 1.3 C 4.4 g/m*3 1.3 C 0 km/h
3222 26-01-2004 01:42:01 1.4 C 4.37 g/m*3 1.4 C 0 km/h
3223 26-01-2004 01:54:01 1.4 C 4.32 g/m*3 1.4 C 0 km/h
3224 26-01-2004 02:06:01 1.3 C 4.29 g/m*3 1.3 C 0 km/h
3225 26-01-2004 02:18:01 1.3 C 4.29 g/m*3 1.3 C 0 km/h
Sensor: Nr:Datum:Temp:Abs-Feuchte:Windchill:Wind:
Aussen-T/F 3226 26-01-2004 02:30:01 1.3 C 4.34 g/m*3 1.3 C 0 km/h
3227 26-01-2004 02:43:01 1.3 C 4.34 g/m*3 1.3 C 0 km/h
3228 26-01-2004 02:55:01 1.3 C 4.34 g/m*3 1.3 C 0 km/h
3229 26-01-2004 03:07:01 1.3 C 4.29 g/m*3 1.3 C 0 km/h
3230 26-01-2004 03:19:59 1.3 C 4.29 g/m*3 1.3 C 0 km/h
3231 26-01-2004 03:31:01 1.3 C 4.29 g/m*3 1.3 C 0 km/h
3232 26-01-2004 03:43:01 1.3 C 4.29 g/m*3 1.3 C 0 km/h
3233 26-01-2004 03:55:01 1.3 C 4.29 g/m*3 1.3 C 0 km/h
3234 26-01-2004 04:07:01 1.2 C 4.26 g/m*3 1.2 C 0 km/h
3235 26-01-2004 04:19:01 1.2 C 4.31 g/m*3 1.2 C 0 km/h
3236 26-01-2004 04:31:01 1.2 C 4.31 g/m*3 1.2 C 0 km/h
3237 26-01-2004 04:43:01 1.2 C 4.31 g/m*3 1.2 C 0 km/h
3238 26-01-2004 04:55:01 1.2 C 4.31 g/m*3 1.2 C 0 km/h
3239 26-01-2004 05:07:01 1.3 C 4.34 g/m*3 1.3 C 0 km/h
3240 26-01-2004 05:19:01 1.3 C 4.34 g/m*3 1.3 C 0 km/h
3241 26-01-2004 05:31:01 1.2 C 4.31 g/m*3 1.2 C 0 km/h
3242 26-01-2004 05:43:00 1.1 C 4.29 g/m*3 1.1 C 0 km/h
3243 26-01-2004 05:55:00 1 C 4.26 g/m*3 1 C 0 km/h
3244 26-01-2004 06:07:58 1 C 4.26 g/m*3 1 C 0 km/h
3245 26-01-2004 06:19:58 1 C 4.26 g/m*3 1 C 0 km/h
3246 26-01-2004 06:31:01 0.9 C 4.23 g/m*3 0.9 C 0 km/h
3247 26-01-2004 06:43:01 0.8 C 4.25 g/m*3 0.8 C 0 km/h
3248 26-01-2004 06:55:01 0.9 C 4.28 g/m*3 0.9 C 0 km/h
3249 26-01-2004 07:07:01